Provisional Data: Bowman Creek near Noxen, PA


Please select a monitoring station.
Please select start date.
Please select start date.

Toggle Unit: C/F Toggle Unit: C/F
Sample Time Temperature (C) Temperature (F) Specific Conductivity (mS/cm) pH   Turbidity (NTU+) DO (mg/L)
2/4/2021 12:00:00 AM 0.53 32.954 0.048 6.94 18.26 13.91
2/4/2021 12:15:00 AM 0.52 32.936 0.048 6.94 19.1 13.9
2/4/2021 12:30:00 AM 0.52 32.936 0.05 6.98 18.19 13.91
2/4/2021 12:45:00 AM 0.54 32.972 0.048 6.95 18.59 13.9
2/4/2021 1:00:00 AM 0.54 32.972 0.05 6.98 18.29 13.91
2/4/2021 1:15:00 AM 0.53 32.954 0.048 6.94 18.92 13.9
2/4/2021 1:30:00 AM 0.52 32.936 0.049 6.94 18.4 13.9
2/4/2021 1:45:00 AM 0.51 32.918 0.05 6.97 18.97 13.91
2/4/2021 2:00:00 AM 0.53 32.954 0.05 6.98 18.41 13.9
2/4/2021 2:15:00 AM 0.54 32.972 0.05 6.98 18.45 13.91
2/4/2021 2:30:00 AM 0.56 33.008 0.05 6.98 18.69 13.92
2/4/2021 2:45:00 AM 0.58 33.044 0.05 6.98 18.42 13.9
2/4/2021 3:00:00 AM 0.6 33.08 0.05 6.97 18.85 13.9
2/4/2021 3:15:00 AM 0.61 33.098 0.05 6.97 18.78 13.89
2/4/2021 3:30:00 AM 0.63 33.134 0.05 6.97 18.63 13.88
2/4/2021 3:45:00 AM 0.64 33.152 0.05 6.97 18.63 13.89
2/4/2021 4:00:00 AM 0.63 33.134 0.05 6.98 18.52 13.89
2/4/2021 4:15:00 AM 0.61 33.098 0.05 6.97 18.33 13.9
2/4/2021 4:30:00 AM 0.58 33.044 0.05 6.97 18.37 13.9
2/4/2021 4:45:00 AM 0.56 33.008 0.048 6.94 17.64 13.89
2/4/2021 5:00:00 AM 0.54 32.972 0.051 6.97 18.39 13.9
2/4/2021 5:15:00 AM 0.51 32.918 0.048 6.96 17.75 13.92
2/4/2021 5:30:00 AM 0.51 32.918 0.051 6.98 18.51 13.94
2/4/2021 5:45:00 AM 0.52 32.936 0.048 6.95 17.72 13.94
2/4/2021 6:00:00 AM 0.53 32.954 0.05 6.93 18.1 13.93
2/4/2021 6:15:00 AM 0.55 32.99 0.051 6.98 17.86 13.92
2/4/2021 6:30:00 AM 0.57 33.026 0.051 6.97 18.33 13.92
2/4/2021 6:45:00 AM 0.58 33.044 0.051 6.98 18.4 13.92
2/4/2021 7:00:00 AM 0.61 33.098 0.048 6.94 19.1 13.92
2/4/2021 7:15:00 AM 0.61 33.098 0.051 6.98 18.33 13.92
2/4/2021 7:30:00 AM 0.63 33.134 0.051 6.99 18.08 13.94
2/4/2021 7:45:00 AM 0.64 33.152 0.051 7 18.4 13.97
2/4/2021 8:00:00 AM 0.66 33.188 0.048 6.97 18.06 14.02
2/4/2021 8:15:00 AM 0.67 33.206 0.051 7.02 18.01 14.09
2/4/2021 8:30:00 AM 0.68 33.224 0.051 7.03 18 14.15
2/4/2021 8:45:00 AM 0.71 33.278 0.051 7.05 18.25 14.22
2/4/2021 9:00:00 AM 0.77 33.386 0.048 7.03 18.2 14.26
2/4/2021 9:15:00 AM 0.82 33.476 0.051 7.07 18.23 14.3
2/4/2021 9:30:00 AM 0.85 33.53 0.051 7.07 18 14.3
2/4/2021 9:45:00 AM 0.86 33.548 0.051 7.09 17.64 14.31
2/4/2021 10:00:00 AM 0.88 33.584 0.051 7.09 18.02 14.31
2/4/2021 10:15:00 AM 0.9 33.62 0.051 7.06 17.98 14.31
2/4/2021 10:30:00 AM 0.92 33.656 0.051 7.09 17.59 14.32
2/4/2021 10:45:00 AM 0.98 33.764 0.048 7.06 17.9 14.31
2/4/2021 11:00:00 AM 1.03 33.854 0.051 7.1 17.71 14.3
2/4/2021 11:15:00 AM 1.12 34.016 0.051 7.06 18.19 14.3
2/4/2021 11:30:00 AM 1.24 34.232 0.051 7.1 18 14.26
2/4/2021 11:45:00 AM 1.36 34.448 0.051 7.08 18.05 14.24
2/4/2021 12:00:00 PM 1.48 34.664 0.05 7.11 17.53 14.23
2/4/2021 12:15:00 PM 1.6 34.88 0.05 7.11 17.99 14.2
2/4/2021 12:30:00 PM 1.72 35.096 0.05 7.06 17.82 14.17
2/4/2021 12:45:00 PM 1.8 35.24 0.05 7.1 18.22 14.15
2/4/2021 1:00:00 PM 1.87 35.366 0.05 7.11 17.93 14.13
2/4/2021 1:15:00 PM 1.91 35.438 0.048 7.08 18.04 14.1
2/4/2021 1:30:00 PM 1.95 35.51 0.048 7.07 17.3 14.1
2/4/2021 1:45:00 PM 1.95 35.51 0.05 7.1 18.37 14.09
2/4/2021 2:00:00 PM 1.93 35.474 0.048 7.09 18.33 14.08
2/4/2021 2:15:00 PM 1.91 35.438 0.05 7.08 18.32 14.09
2/4/2021 2:30:00 PM 1.89 35.402 0.048 7.08 17.8 14.09
2/4/2021 2:45:00 PM 1.84 35.312 0.05 7.11 17.75 14.1
2/4/2021 3:00:00 PM 1.77 35.186 0.05 7.08 17.52 14.11
2/4/2021 3:15:00 PM 1.71 35.078 0.05 7.11 17.72 14.11
2/4/2021 3:30:00 PM 1.62 34.916 0.05 7.11 17.74 14.12
2/4/2021 3:45:00 PM 1.53 34.754 0.05 7.08 17.9 14.13
2/4/2021 4:00:00 PM 1.46 34.628 0.05 7.1 18.3 14.12
2/4/2021 4:15:00 PM 1.39 34.502 0.049 7.06 17.98 14.11
2/4/2021 4:30:00 PM 1.3 34.34 0.05 7.05 18.21 14.12
2/4/2021 4:45:00 PM 1.24 34.232 0.048 7.06 19.61 14.09
2/4/2021 5:00:00 PM 1.14 34.052 0.05 7.07 18.09 14.08
2/4/2021 5:15:00 PM 1.08 33.944 0.049 7.02 17.71 14.05
2/4/2021 5:30:00 PM 0.99 33.782 0.051 7.04 18.21 14.01
2/4/2021 5:45:00 PM 0.9 33.62 0.051 7.03 17.88 13.99
2/4/2021 6:00:00 PM 0.84 33.512 0.051 7 18.25 13.95
2/4/2021 6:15:00 PM 0.77 33.386 0.051 7 18.4 13.95
2/4/2021 6:30:00 PM 0.72 33.296 0.051 6.99 18.08 13.94
2/4/2021 6:45:00 PM 0.67 33.206 0.051 6.99 18.55 13.94
2/4/2021 7:00:00 PM 0.62 33.116 0.051 6.99 18.38 13.94
2/4/2021 7:15:00 PM 0.59 33.062 0.049 6.95 18.14 13.94
2/4/2021 7:30:00 PM 0.57 33.026 0.051 6.98 18.36 13.96
2/4/2021 7:45:00 PM 0.55 32.99 0.051 6.98 17.98 13.95
2/4/2021 8:00:00 PM 0.53 32.954 0.051 6.98 18.56 13.96
2/4/2021 8:15:00 PM 0.52 32.936 0.051 6.97 18.47 13.97
2/4/2021 8:30:00 PM 0.51 32.918 0.051 6.98 18.44 13.96
2/4/2021 8:45:00 PM 0.52 32.936 0.051 6.98 18.26 13.96
2/4/2021 9:00:00 PM 0.52 32.936 0.049 6.94 17.9 13.96
2/4/2021 9:15:00 PM 0.52 32.936 0.049 6.94 17.98 13.95
2/4/2021 9:30:00 PM 0.51 32.918 0.051 6.97 18.39 13.95
2/4/2021 9:45:00 PM 0.52 32.936 0.051 6.97 17.97 13.95
2/4/2021 10:00:00 PM 0.52 32.936 0.051 6.93 18.48 13.95
2/4/2021 10:15:00 PM 0.51 32.918 0.051 6.97 18.6 13.94
2/4/2021 10:30:00 PM 0.52 32.936 0.051 6.97 18.29 13.94
2/4/2021 10:45:00 PM 0.53 32.954 0.051 6.97 17.99 13.93
2/4/2021 11:00:00 PM 0.53 32.954 0.05 6.94 17.76 13.93
2/4/2021 11:15:00 PM 0.53 32.954 0.051 6.97 17.83 13.94
2/4/2021 11:30:00 PM 0.55 32.99 0.05 6.94 17.89 13.92
2/4/2021 11:45:00 PM 0.57 33.026 0.051 6.94 18.31 13.92
2/5/2021 12:00:00 AM 0.59 33.062 0.051 6.95 18.19 13.92
2/5/2021 12:15:00 AM 0.6 33.08 0.051 6.97 18.96 13.9
2/5/2021 12:30:00 AM 0.62 33.116 0.051 6.97 18.43 13.88
2/5/2021 12:45:00 AM 0.64 33.152 0.049 6.94 18.03 13.87
2/5/2021 1:00:00 AM 0.65 33.17 0.051 6.97 18.87 13.87
2/5/2021 1:15:00 AM 0.66 33.188 0.051 6.97 18 13.87
2/5/2021 1:30:00 AM 0.68 33.224 0.051 6.97 18.81 13.85
2/5/2021 1:45:00 AM 0.69 33.242 0.049 6.94 17.87 13.85
2/5/2021 2:00:00 AM 0.69 33.242 0.051 6.98 18.66 13.85
2/5/2021 2:15:00 AM 0.67 33.206 0.051 6.97 18.56 13.85
2/5/2021 2:30:00 AM 0.68 33.224 0.051 6.98 18.52 13.84
2/5/2021 2:45:00 AM 0.72 33.296 0.051 6.98 18.07 13.83
2/5/2021 3:00:00 AM 0.74 33.332 0.051 6.98 18.41 13.83
2/5/2021 3:15:00 AM 0.73 33.314 0.051 6.98 18.17 13.82
2/5/2021 3:30:00 AM 0.64 33.152 0.049 6.95 18.85 13.81
2/5/2021 3:45:00 AM 0.61 33.098 0.051 6.97 18.22 13.8
2/5/2021 4:00:00 AM 0.59 33.062 0.051 6.97 18.47 13.81
2/5/2021 4:15:00 AM 0.63 33.134 0.051 6.98 18.6 13.81
2/5/2021 4:30:00 AM 0.67 33.206 0.051 6.97 18.44 13.8
2/5/2021 4:45:00 AM 0.68 33.224 0.051 6.99 18.47 13.8
2/5/2021 5:00:00 AM 0.7 33.26 0.051 6.97 18.29 13.79
2/5/2021 5:15:00 AM 0.72 33.296 0.051 6.98 17.92 13.79
2/5/2021 5:30:00 AM 0.74 33.332 0.051 6.95 18.59 13.77
2/5/2021 5:45:00 AM 0.75 33.35 0.051 6.98 18.28 13.76
2/5/2021 6:00:00 AM 0.73 33.314 0.051 6.98 18.28 13.75
2/5/2021 6:15:00 AM 0.65 33.17 0.051 6.98 18.34 13.74
2/5/2021 6:30:00 AM 0.52 32.936 0.051 6.98 17.85 13.76
2/5/2021 6:45:00 AM 0.46 32.828 0.051 6.93 18.25 13.77
2/5/2021 7:00:00 AM 0.42 32.756 0.051 6.97 18.12 13.79
2/5/2021 7:15:00 AM 0.38 32.684 0.051 6.98 18.5 13.81
2/5/2021 7:30:00 AM 0.36 32.648 0.051 6.98 17.95 13.83
2/5/2021 7:45:00 AM 0.37 32.666 0.051 6.97 17.96 13.85
2/5/2021 8:00:00 AM 0.43 32.774 0.051 6.99 17.75 13.87
2/5/2021 8:15:00 AM 0.52 32.936 0.051 6.99 17.95 13.89
2/5/2021 8:30:00 AM 0.61 33.098 0.051 7.01 18.13 13.93
2/5/2021 8:45:00 AM 0.69 33.242 0.052 7.02 17.94 13.95
2/5/2021 9:00:00 AM 0.78 33.404 0.05 7 18.23 13.99
2/5/2021 9:15:00 AM 0.87 33.566 0.051 7.05 17.75 14.04
2/5/2021 9:30:00 AM 0.99 33.782 0.051 7.04 18.2 14.08
2/5/2021 9:45:00 AM 1.11 33.998 0.049 7.05 17.92 14.11
2/5/2021 10:00:00 AM 1.18 34.124 0.051 7.1 18.14 14.1
2/5/2021 10:15:00 AM 1.28 34.304 0.051 7.11 18.05 14.13
2/5/2021 10:30:00 AM 1.43 34.574 0.051 7.11 17.94 14.11
2/5/2021 10:45:00 AM 1.53 34.754 0.051 7.13 17.71 14.11
2/5/2021 11:00:00 AM 1.58 34.844 0.051 7.12 17.53 14.09
2/5/2021 11:15:00 AM 1.63 34.934 0.051 7.13 17.7 14.06
2/5/2021 11:30:00 AM 1.74 35.132 0.049 7.09 17.94 14.04
2/5/2021 11:45:00 AM 1.85 35.33 0.052 7.13 17.81 14.03
2/5/2021 12:00:00 PM 1.92 35.456 0.049 7.1 17.8 14
2/5/2021 12:15:00 PM 1.89 35.402 0.052 7.12 17.42 13.98
2/5/2021 12:30:00 PM 1.91 35.438 0.052 7.13 17.74 13.99
2/5/2021 12:45:00 PM 1.93 35.474 0.05 7.1 17.54 13.98
2/5/2021 1:00:00 PM 1.93 35.474 0.052 7.13 17.93 13.97
2/5/2021 1:15:00 PM 1.89 35.402 0.051 7.09 17.48 13.97
2/5/2021 1:30:00 PM 1.84 35.312 0.05 7.11 18.14 13.98
2/5/2021 1:45:00 PM 1.78 35.204 0.052 7.14 17.89 14
2/5/2021 2:00:00 PM 1.78 35.204 0.053 7.13 17.91 14
2/5/2021 2:15:00 PM 1.79 35.222 0.052 7.12 17.81 13.99
2/5/2021 2:30:00 PM 1.76 35.168 0.053 7.14 17.96 14.02
2/5/2021 2:45:00 PM 1.74 35.132 0.053 7.13 18.22 14
2/5/2021 3:00:00 PM 1.68 35.024 0.051 7.11 18.22 13.99
2/5/2021 3:15:00 PM 1.63 34.934 0.053 7.13 17.86 13.99
2/5/2021 3:30:00 PM 1.62 34.916 0.052 7.09 18.28 13.99
2/5/2021 3:45:00 PM 1.6 34.88 0.054 7.12 18.41 14
2/5/2021 4:00:00 PM 1.55 34.79 0.054 7.12 18.24 14
2/5/2021 4:15:00 PM 1.45 34.61 0.054 7.09 18.26 14.02
2/5/2021 4:30:00 PM 1.39 34.502 0.054 7.1 17.46 14
2/5/2021 4:45:00 PM 1.3 34.34 0.056 7.11 18.5 14
2/5/2021 5:00:00 PM 1.23 34.214 0.056 7.07 18.22 13.95
2/5/2021 5:15:00 PM 1.15 34.07 0.057 7.07 18.63 13.92
2/5/2021 5:30:00 PM 1.06 33.908 0.057 7.05 18.6 13.9
2/5/2021 5:45:00 PM 0.99 33.782 0.056 7.04 18.18 13.86
2/5/2021 6:00:00 PM 0.93 33.674 0.056 7.03 18.84 13.83
2/5/2021 6:15:00 PM 0.87 33.566 0.056 7.02 18.38 13.82
2/5/2021 6:30:00 PM 0.85 33.53 0.057 7.02 18.44 13.81
2/5/2021 6:45:00 PM 0.83 33.494 0.057 7.01 18.22 13.81
2/5/2021 7:00:00 PM 0.82 33.476 0.057 7.01 18.59 13.8
2/5/2021 7:15:00 PM 0.8 33.44 0.057 6.97 18.42 13.8
2/5/2021 7:30:00 PM 0.78 33.404 0.057 7 18.36 13.8
2/5/2021 7:45:00 PM 0.77 33.386 0.057 6.98 18.56 13.81
2/5/2021 8:00:00 PM 0.76 33.368 0.057 6.99 18.25 13.8
2/5/2021 8:15:00 PM 0.75 33.35 0.057 6.97 18.85 13.8
2/5/2021 8:30:00 PM 0.74 33.332 0.057 7 18.66 13.81
2/5/2021 8:45:00 PM 0.72 33.296 0.057 6.99 18.61 13.82
2/5/2021 9:00:00 PM 0.69 33.242 0.057 7 18.1 13.82
2/5/2021 9:15:00 PM 0.66 33.188 0.057 6.99 18.32 13.84
2/5/2021 9:30:00 PM 0.63 33.134 0.057 6.99 18.66 13.84
2/5/2021 9:45:00 PM 0.61 33.098 0.057 7 18.26 13.85
2/5/2021 10:00:00 PM 0.6 33.08 0.057 7 18.93 13.86
2/5/2021 10:15:00 PM 0.6 33.08 0.057 7 18 13.87
2/5/2021 10:30:00 PM 0.61 33.098 0.057 7 18.85 13.87
2/5/2021 10:45:00 PM 0.61 33.098 0.057 7 18.37 13.87
2/5/2021 11:00:00 PM 0.64 33.152 0.057 6.99 18.34 13.88
2/5/2021 11:15:00 PM 0.65 33.17 0.057 7 17.85 13.88
2/5/2021 11:30:00 PM 0.65 33.17 0.057 6.99 18.41 13.87
2/5/2021 11:45:00 PM 0.65 33.17 0.057 6.99 18.84 13.86
2/6/2021 12:00:00 AM 0.66 33.188 0.057 7 18.38 13.87
2/6/2021 12:15:00 AM 0.65 33.17 0.057 6.97 19.05 13.87
2/6/2021 12:30:00 AM 0.63 33.134 0.057 7 18.63 13.87
2/6/2021 12:45:00 AM 0.61 33.098 0.057 6.99 18.66 13.87
2/6/2021 1:00:00 AM 0.59 33.062 0.054 6.97 18.19 13.88
2/6/2021 1:15:00 AM 0.57 33.026 0.057 6.99 18.44 13.88
2/6/2021 1:30:00 AM 0.55 32.99 0.056 7 18.58 13.89
2/6/2021 1:45:00 AM 0.53 32.954 0.056 7 19.02 13.9
2/6/2021 2:00:00 AM 0.5 32.9 0.056 6.99 18.88 13.9
2/6/2021 2:15:00 AM 0.49 32.882 0.056 6.99 18.33 13.9
2/6/2021 2:30:00 AM 0.49 32.882 0.054 6.96 18.36 13.9
2/6/2021 2:45:00 AM 0.47 32.846 0.056 6.99 18.69 13.92
2/6/2021 3:00:00 AM 0.47 32.846 0.056 6.98 18.39 13.92
2/6/2021 3:15:00 AM 0.46 32.828 0.056 6.98 18.4 13.92
2/6/2021 3:30:00 AM 0.44 32.792 0.056 6.99 18.27 13.93
2/6/2021 3:45:00 AM 0.43 32.774 0.056 7 18.55 13.93
2/6/2021 4:00:00 AM 0.42 32.756 0.056 6.99 18.46 13.93
2/6/2021 4:15:00 AM 0.43 32.774 0.056 6.99 18.43 13.93
2/6/2021 4:30:00 AM 0.42 32.756 0.056 6.99 18.36 13.93
2/6/2021 4:45:00 AM 0.43 32.774 0.056 6.99 18.07 13.93
2/6/2021 5:00:00 AM 0.42 32.756 0.055 6.99 18.23 13.94
2/6/2021 5:15:00 AM 0.41 32.738 0.055 6.98 18.21 13.94
2/6/2021 5:30:00 AM 0.38 32.684 0.055 6.98 18.14 13.95
2/6/2021 5:45:00 AM 0.38 32.684 0.055 6.99 18.02 13.95
2/6/2021 6:00:00 AM 0.38 32.684 0.056 6.99 18.62 13.96
2/6/2021 6:15:00 AM 0.37 32.666 0.056 6.99 18.5 13.95
2/6/2021 6:30:00 AM 0.37 32.666 0.056 6.99 17.87 13.95
2/6/2021 6:45:00 AM 0.35 32.63 0.055 6.99 18.18 13.95
2/6/2021 7:00:00 AM 0.35 32.63 0.055 6.97 18.07 13.96
2/6/2021 7:15:00 AM 0.33 32.594 0.054 6.98 18.53 13.99
2/6/2021 7:30:00 AM 0.32 32.576 0.053 6.98 17.62 14.02
2/6/2021 7:45:00 AM 0.31 32.558 0.056 7.01 17.51 14.07
2/6/2021 8:00:00 AM 0.31 32.558 0.056 7.02 18.01 14.14
2/6/2021 8:15:00 AM 0.31 32.558 0.056 7.03 17.51 14.21
2/6/2021 8:30:00 AM 0.32 32.576 0.056 7.05 18.01 14.25
2/6/2021 8:45:00 AM 0.35 32.63 0.056 7.06 17.92 14.29
2/6/2021 9:00:00 AM 0.4 32.72 0.053 7.04 17.47 14.33
2/6/2021 9:15:00 AM 0.46 32.828 0.056 7.08 17.57 14.37
2/6/2021 9:30:00 AM 0.53 32.954 0.056 7.09 17.73 14.36
2/6/2021 9:45:00 AM 0.6 33.08 0.056 7.1 17.8 14.39
2/6/2021 10:00:00 AM 0.69 33.242 0.056 7.11 17.52 14.38
2/6/2021 10:15:00 AM 0.78 33.404 0.055 7.12 17.62 14.38
2/6/2021 10:30:00 AM 0.83 33.494 0.055 7.1 17.8 14.38
2/6/2021 10:45:00 AM 0.91 33.638 0.055 7.12 17.75 14.37
2/6/2021 11:00:00 AM 0.95 33.71 0.055 7.12 17.37 14.37
2/6/2021 11:15:00 AM 1.01 33.818 0.055 7.13 17.53 14.36
2/6/2021 11:30:00 AM 1.14 34.052 0.055 7.13 18.16 14.33
2/6/2021 11:45:00 AM 1.28 34.304 0.054 7.13 17.67 14.32
2/6/2021 12:00:00 PM 1.45 34.61 0.054 7.13 17.58 14.27
2/6/2021 12:15:00 PM 1.56 34.808 0.054 7.14 17.59 14.25
2/6/2021 12:30:00 PM 1.65 34.97 0.055 7.14 17.39 14.23
2/6/2021 12:45:00 PM 1.75 35.15 0.053 7.11 17.07 14.2
2/6/2021 1:00:00 PM 1.8 35.24 0.056 7.11 17.47 14.18
2/6/2021 1:15:00 PM 1.84 35.312 0.056 7.15 17.62 14.17
2/6/2021 1:30:00 PM 1.85 35.33 0.056 7.16 17.51 14.16
2/6/2021 1:45:00 PM 1.85 35.33 0.054 7.12 17.26 14.15
2/6/2021 2:00:00 PM 1.81 35.258 0.056 7.15 17.86 14.16
2/6/2021 2:15:00 PM 1.76 35.168 0.056 7.16 17.77 14.17
2/6/2021 2:30:00 PM 1.72 35.096 0.056 7.16 17.66 14.17
2/6/2021 2:45:00 PM 1.69 35.042 0.056 7.15 17.62 14.17
2/6/2021 3:00:00 PM 1.64 34.952 0.055 7.15 17.5 14.17
2/6/2021 3:15:00 PM 1.56 34.808 0.055 7.14 18.33 14.19
2/6/2021 3:30:00 PM 1.49 34.682 0.055 7.13 18.12 14.19
2/6/2021 3:45:00 PM 1.4 34.52 0.055 7.13 18.38 14.21
2/6/2021 4:00:00 PM 1.34 34.412 0.052 7.09 17.7 14.18
2/6/2021 4:15:00 PM 1.24 34.232 0.055 7.13 18.08 14.19
2/6/2021 4:30:00 PM 1.17 34.106 0.052 7.08 18.82 14.2
2/6/2021 4:45:00 PM 1.09 33.962 0.055 7.11 17.78 14.19
2/6/2021 5:00:00 PM 1.02 33.836 0.052 7.07 18.01 14.15
2/6/2021 5:15:00 PM 0.93 33.674 0.055 7.09 17.76 14.15
2/6/2021 5:30:00 PM 0.86 33.548 0.055 7.07 18 14.1
2/6/2021 5:45:00 PM 0.78 33.404 0.054 7.02 18.14 14.07
2/6/2021 6:00:00 PM 0.72 33.296 0.055 7.04 17.87 14.07
2/6/2021 6:15:00 PM 0.66 33.188 0.055 7.03 17.82 14.04
2/6/2021 6:30:00 PM 0.6 33.08 0.054 6.99 17.44 14.03
2/6/2021 6:45:00 PM 0.56 33.008 0.054 6.99 17.46 14.03
2/6/2021 7:00:00 PM 0.51 32.918 0.055 7.01 17.93 14.04
2/6/2021 7:15:00 PM 0.49 32.882 0.055 7.01 18.06 14.04
2/6/2021 7:30:00 PM 0.47 32.846 0.055 7 17.93 14.04
2/6/2021 7:45:00 PM 0.43 32.774 0.055 7 17.98 14.05
2/6/2021 8:00:00 PM 0.39 32.702 0.055 6.97 17.96 14.06
2/6/2021 8:15:00 PM 0.36 32.648 0.055 7 18.01 14.08
2/6/2021 8:30:00 PM 0.34 32.612 0.055 7 18.14 14.08
2/6/2021 8:45:00 PM 0.31 32.558 0.056 7 17.98 14.09
2/6/2021 9:00:00 PM 0.29 32.522 0.056 6.96 17.75 14.11
2/6/2021 9:15:00 PM 0.27 32.486 0.056 6.98 18.08 14.09
2/6/2021 9:30:00 PM 0.26 32.468 0.056 7 18.01 14.11
2/6/2021 9:45:00 PM 0.26 32.468 0.056 7 17.7 14.11
2/6/2021 10:00:00 PM 0.25 32.45 0.056 6.99 18.15 14.11
2/6/2021 10:15:00 PM 0.24 32.432 0.055 6.98 18.08 14.13
2/6/2021 10:30:00 PM 0.24 32.432 0.055 6.98 18.08 14.11
2/6/2021 10:45:00 PM 0.24 32.432 0.055 6.97 17.59 14.1
2/6/2021 11:00:00 PM 0.23 32.414 0.055 6.99 18.55 14.11
2/6/2021 11:15:00 PM 0.23 32.414 0.055 6.98 17.82 14.1
2/6/2021 11:30:00 PM 0.24 32.432 0.056 6.98 17.81 14.1
2/6/2021 11:45:00 PM 0.23 32.414 0.056 6.98 17.79 14.08
2/7/2021 12:00:00 AM 0.22 32.396 0.055 6.98 17.9 14.09
2/7/2021 12:15:00 AM 0.23 32.414 0.053 6.94 17.95 14.1
2/7/2021 12:30:00 AM 0.22 32.396 0.055 6.98 18.54 14.08
2/7/2021 12:45:00 AM 0.23 32.414 0.056 6.99 18.06 14.08
2/7/2021 1:00:00 AM 0.24 32.432 0.056 6.98 17.85 14.08
2/7/2021 1:15:00 AM 0.24 32.432 0.056 6.98 17.7 14.08
2/7/2021 1:30:00 AM 0.24 32.432 0.056 6.98 17.85 14.06
2/7/2021 1:45:00 AM 0.25 32.45 0.056 6.98 17.93 14.07
2/7/2021 2:00:00 AM 0.25 32.45 0.056 6.98 18.03 14.06
2/7/2021 2:15:00 AM 0.26 32.468 0.055 6.98 18.08 14.05
2/7/2021 2:30:00 AM 0.26 32.468 0.053 6.95 17.11 14.05
2/7/2021 2:45:00 AM 0.28 32.504 0.052 6.95 17.93 14.04
2/7/2021 3:00:00 AM 0.27 32.486 0.055 6.98 18.38 14.05
2/7/2021 3:15:00 AM 0.28 32.504 0.055 6.97 18 14.05
2/7/2021 3:30:00 AM 0.28 32.504 0.052 6.93 18.75 14.04
2/7/2021 3:45:00 AM 0.29 32.522 0.055 6.97 18.06 14.03
2/7/2021 4:00:00 AM 0.3 32.54 0.054 6.97 18.41 14.03
2/7/2021 4:15:00 AM 0.3 32.54 0.054 6.96 17.97 14.03
2/7/2021 4:30:00 AM 0.32 32.576 0.054 6.97 17.96 14.02
2/7/2021 4:45:00 AM 0.34 32.612 0.054 6.96 18.24 14.02
2/7/2021 5:00:00 AM 0.35 32.63 0.055 6.97 18.29 14
2/7/2021 5:15:00 AM 0.37 32.666 0.055 6.96 17.93 13.99
2/7/2021 5:30:00 AM 0.39 32.702 0.053 6.95 17.6 13.99
2/7/2021 5:45:00 AM 0.41 32.738 0.056 6.98 18.12 13.99
2/7/2021 6:00:00 AM 0.43 32.774 0.056 6.95 18.11 13.98
2/7/2021 6:15:00 AM 0.45 32.81 0.056 6.97 17.81 13.96
2/7/2021 6:30:00 AM 0.48 32.864 0.054 6.97 17.69 13.96
2/7/2021 6:45:00 AM 0.5 32.9 0.057 6.99 17.72 13.96
2/7/2021 7:00:00 AM 0.51 32.918 0.057 7 17.81 13.95
2/7/2021 7:15:00 AM 0.53 32.954 0.055 6.97 17.06 13.93
2/7/2021 7:30:00 AM 0.54 32.972 0.057 7 17.47 13.95
2/7/2021 7:45:00 AM 0.56 33.008 0.058 7.01 17.77 13.96
2/7/2021 8:00:00 AM 0.56 33.008 0.055 6.99 17.25 13.97
2/7/2021 8:15:00 AM 0.51 32.918 0.058 7.02 17.82 13.99
2/7/2021 8:30:00 AM 0.45 32.81 0.058 7 17.7 14.04
2/7/2021 8:45:00 AM 0.43 32.774 0.055 7.03 16.94 14.09
2/7/2021 9:00:00 AM 0.4 32.72 0.058 7.06 17.59 14.13
2/7/2021 9:15:00 AM 0.35 32.63 0.058 7.06 17.46 14.17
2/7/2021 9:30:00 AM 0.29 32.522 0.058 7.07 17.82 14.2
2/7/2021 9:45:00 AM 0.3 32.54 0.058 7.07 17.78 14.27
2/7/2021 10:00:00 AM 0.33 32.594 0.055 7.07 17.44 14.32
2/7/2021 10:15:00 AM 0.32 32.576 0.058 7.11 17.44 14.39
2/7/2021 10:30:00 AM 0.36 32.648 0.058 7.12 17.7 14.43
2/7/2021 10:45:00 AM 0.41 32.738 0.058 7.13 17.69 14.45
2/7/2021 11:00:00 AM 0.47 32.846 0.058 7.13 17.53 14.46
2/7/2021 11:15:00 AM 0.56 33.008 0.057 7.13 17.4 14.46
2/7/2021 11:30:00 AM 0.62 33.116 0.055 7.11 17.43 14.43
2/7/2021 11:45:00 AM 0.66 33.188 0.057 7.15 17.53 14.42
2/7/2021 12:00:00 PM 0.76 33.368 0.057 7.15 17.6 14.41
2/7/2021 12:15:00 PM 0.91 33.638 0.057 7.16 17.27 14.4
2/7/2021 12:30:00 PM 1.06 33.908 0.058 7.17 17.48 14.37
2/7/2021 12:45:00 PM 1.17 34.106 0.058 7.17 17.57 14.33
2/7/2021 1:00:00 PM 1.27 34.286 0.058 7.17 17.18 14.31
2/7/2021 1:15:00 PM 1.37 34.466 0.058 7.17 17.42 14.27
2/7/2021 1:30:00 PM 1.44 34.592 0.058 7.17 17.37 14.24
2/7/2021 1:45:00 PM 1.49 34.682 0.057 7.15 17.34 14.22
2/7/2021 2:00:00 PM 1.51 34.718 0.057 7.18 17.23 14.19
2/7/2021 2:15:00 PM 1.5 34.7 0.057 7.18 17.36 14.17
2/7/2021 2:30:00 PM 1.45 34.61 0.057 7.17 17.01 14.13
2/7/2021 2:45:00 PM 1.39 34.502 0.058 7.16 17.46 14.1
2/7/2021 3:00:00 PM 1.36 34.448 0.057 7.15 17.71 14.15
2/7/2021 3:15:00 PM 1.37 34.466 0.054 7.13 17.21 14.17
2/7/2021 3:30:00 PM 1.33 34.394 0.054 7.13 17.07 14.17
2/7/2021 3:45:00 PM 1.26 34.268 0.056 7.14 17.49 14.16
2/7/2021 4:00:00 PM 1.19 34.142 0.056 7.15 17.62 14.16
2/7/2021 4:15:00 PM 1.12 34.016 0.056 7.14 17.6 14.15
2/7/2021 4:30:00 PM 1.07 33.926 0.057 7.14 17.48 14.14
2/7/2021 4:45:00 PM 1.02 33.836 0.057 7.14 17.8 14.16
2/7/2021 5:00:00 PM 0.97 33.746 0.057 7.13 17.97 14.14
2/7/2021 5:15:00 PM 0.87 33.566 0.057 7.12 17.47 14.13
2/7/2021 5:30:00 PM 0.8 33.44 0.057 7.09 17.69 14.08
2/7/2021 5:45:00 PM 0.73 33.314 0.057 7.08 17.47 14.07
2/7/2021 6:00:00 PM 0.69 33.242 0.056 7.03 17.64 14.02
2/7/2021 6:15:00 PM 0.63 33.134 0.057 7.06 17.96 14.01
2/7/2021 6:30:00 PM 0.59 33.062 0.057 7.05 17.5 14.02
2/7/2021 6:45:00 PM 0.54 32.972 0.057 7.04 17.3 14
2/7/2021 7:00:00 PM 0.51 32.918 0.054 7 18.11 14
2/7/2021 7:15:00 PM 0.48 32.864 0.056 7.03 18.45 14.04
2/7/2021 7:30:00 PM 0.46 32.828 0.056 7.03 17.83 14.01
2/7/2021 7:45:00 PM 0.42 32.756 0.056 7.01 17.52 14.01
2/7/2021 8:00:00 PM 0.39 32.702 0.056 7.02 17.76 14.03
2/7/2021 8:15:00 PM 0.37 32.666 0.053 6.99 17.1 14.04
2/7/2021 8:30:00 PM 0.35 32.63 0.055 7.01 17.5 14.07
2/7/2021 8:45:00 PM 0.33 32.594 0.055 7.02 17.64 14.06
2/7/2021 9:00:00 PM 0.31 32.558 0.053 6.98 17.91 14.07
2/7/2021 9:15:00 PM 0.29 32.522 0.055 7.01 17.84 14.07
2/7/2021 9:30:00 PM 0.27 32.486 0.055 7.01 17.68 14.08
2/7/2021 9:45:00 PM 0.26 32.468 0.055 7.01 18.34 14.07
2/7/2021 10:00:00 PM 0.24 32.432 0.055 7.01 17.52 14.1
2/7/2021 10:15:00 PM 0.22 32.396 0.056 7.01 17.96 14.11
2/7/2021 10:30:00 PM 0.19 32.342 0.053 6.98 17.54 14.13
2/7/2021 10:45:00 PM 0.17 32.306 0.056 7.02 17.9 14.13
2/7/2021 11:00:00 PM 0.14 32.252 0.055 6.98 17.68 14.13
2/7/2021 11:15:00 PM 0.12 32.216 0.055 7.01 18.04 14.15
2/7/2021 11:30:00 PM 0.11 32.198 0.054 6.98 17.58 14.16
2/7/2021 11:45:00 PM 0.09 32.162 0.055 7 17.7 14.16
2/8/2021 12:00:00 AM 0.08 32.144 0.055 7 17.92 14.17
2/8/2021 12:15:00 AM 0.08 32.144 0.055 7.01 17.76 14.16
2/8/2021 12:30:00 AM 0.08 32.144 0.055 7 18.12 14.16
2/8/2021 12:45:00 AM 0.08 32.144 0.055 6.99 17.92 14.17
2/8/2021 1:00:00 AM 0.08 32.144 0.055 6.99 18.03 14.18
2/8/2021 1:15:00 AM 0.08 32.144 0.053 6.96 17.85 14.16
2/8/2021 1:30:00 AM 0.07 32.126 0.056 6.99 18.44 14.16
2/8/2021 1:45:00 AM 0.06 32.108 0.056 6.97 17.64 14.17
2/8/2021 2:00:00 AM 0.05 32.09 0.056 6.98 17.96 14.2
2/8/2021 2:15:00 AM 0.05 32.09 0.056 6.99 18.24 14.17
2/8/2021 2:30:00 AM 0.05 32.09 0.056 6.99 18.24 14.17
2/8/2021 2:45:00 AM 0.03 32.054 0.056 6.99 17.48 14.19
2/8/2021 3:00:00 AM 0.02 32.036 0.056 6.99 17.86 14.18
2/8/2021 3:15:00 AM 0.01 32.018 0.056 6.99 17.85 14.17
2/8/2021 3:30:00 AM 0 32 0.056 6.98 17.7 14.2
2/8/2021 3:45:00 AM 0 32 0.056 6.98 17.92 14.18
2/8/2021 4:00:00 AM 0 32 0.055 6.97 17.77 14.17
2/8/2021 4:15:00 AM 0 32 0.055 6.97 17.71 14.19
2/8/2021 4:30:00 AM 0.01 32.018 0.055 6.96 18.48 14.19
2/8/2021 4:45:00 AM 0.01 32.018 0.055 6.96 17.97 14.17
2/8/2021 5:00:00 AM 0.02 32.036 0.055 6.96 17.82 14.19
2/8/2021 5:15:00 AM 0.02 32.036 0.056 6.96 17.85 14.18
2/8/2021 5:30:00 AM 0.02 32.036 0.056 6.95 17.91 14.17
2/8/2021 5:45:00 AM 0.03 32.054 0.056 6.96 17.67 14.18
2/8/2021 6:00:00 AM 0.03 32.054 0.056 6.96 17.58 14.17
2/8/2021 6:15:00 AM 0.03 32.054 0.057 6.96 17.43 14.18
2/8/2021 6:30:00 AM 0.03 32.054 0.057 6.96 17.56 14.17
2/8/2021 6:45:00 AM 0.03 32.054 0.057 6.96 17.73 14.18
2/8/2021 7:00:00 AM 0.03 32.054 0.058 6.96 17.79 14.18
2/8/2021 7:15:00 AM 0.03 32.054 0.058 6.97 17.48 14.18
2/8/2021 7:30:00 AM 0.03 32.054 0.059 6.97 17.4 14.19
2/8/2021 7:45:00 AM 0.03 32.054 0.059 6.95 17.26 14.23
2/8/2021 8:00:00 AM 0.03 32.054 0.059 7 17.26 14.28
2/8/2021 8:15:00 AM 0.04 32.072 0.06 7 17.15 14.32
2/8/2021 8:30:00 AM 0.04 32.072 0.061 7.02 17.25 14.39
2/8/2021 8:45:00 AM 0.05 32.09 0.061 7.02 17.08 14.47
2/8/2021 9:00:00 AM 0.06 32.108 0.059 7.02 16.88 14.48
2/8/2021 9:15:00 AM 0.09 32.162 0.063 7.06 17.01 14.5
2/8/2021 9:30:00 AM 0.09 32.162 0.062 7.05 16.54 14.54
2/8/2021 9:45:00 AM 0.1 32.18 0.061 7.06 16.82 14.56
2/8/2021 10:00:00 AM 0.12 32.216 0.065 7.08 17.03 14.56
2/8/2021 10:15:00 AM 0.13 32.234 0.065 7.08 16.97 14.56
2/8/2021 10:30:00 AM 0.17 32.306 0.066 7.11 16.96 14.53
2/8/2021 10:45:00 AM 0.26 32.468 0.067 7.11 17.37 14.51
2/8/2021 11:00:00 AM 0.34 32.612 0.068 7.12 17.33 14.52
2/8/2021 11:15:00 AM 0.49 32.882 0.068 7.12 17.15 14.47
2/8/2021 11:30:00 AM 0.66 33.188 0.069 7.11 16.9 14.44
2/8/2021 11:45:00 AM 0.8 33.44 0.069 7.12 16.8 14.4
2/8/2021 12:00:00 PM 0.93 33.674 0.069 7.16 16.66 14.39
2/8/2021 12:15:00 PM 1.1 33.98 0.069 7.15 16.58 14.35
2/8/2021 12:30:00 PM 1.26 34.268 0.069 7.12 16.76 14.3
2/8/2021 12:45:00 PM 1.38 34.484 0.069 7.17 16.83 14.28
2/8/2021 1:00:00 PM 1.47 34.646 0.065 7.17 16.69 14.25
2/8/2021 1:15:00 PM 1.48 34.664 0.068 7.2 16.9 14.23
2/8/2021 1:30:00 PM 1.39 34.502 0.068 7.19 16.81 14.28
2/8/2021 1:45:00 PM 1.33 34.394 0.068 7.22 16.89 14.34
2/8/2021 2:00:00 PM 1.32 34.376 0.068 7.19 17.07 14.36
2/8/2021 2:15:00 PM 1.29 34.322 0.064 7.2 16.74 14.38
2/8/2021 2:30:00 PM 1.28 34.304 0.067 7.23 16.74 14.41
2/8/2021 2:45:00 PM 1.2 34.16 0.063 7.2 17.04 14.43
2/8/2021 3:00:00 PM 1.12 34.016 0.066 7.22 17 14.44
2/8/2021 3:15:00 PM 1.08 33.944 0.065 7.22 16.98 14.45
2/8/2021 3:30:00 PM 1.05 33.89 0.065 7.21 17.14 14.46
2/8/2021 3:45:00 PM 1 33.8 0.061 7.19 16.6 14.48
2/8/2021 4:00:00 PM 0.94 33.692 0.064 7.22 16.91 14.49
2/8/2021 4:15:00 PM 0.88 33.584 0.064 7.21 17.03 14.48
2/8/2021 4:30:00 PM 0.79 33.422 0.064 7.21 17.34 14.48
2/8/2021 4:45:00 PM 0.71 33.278 0.064 7.19 17 14.47
2/8/2021 5:00:00 PM 0.64 33.152 0.064 7.17 17.27 14.44
2/8/2021 5:15:00 PM 0.59 33.062 0.063 7.17 17.15 14.41
2/8/2021 5:30:00 PM 0.56 33.008 0.063 7.16 17.25 14.36
2/8/2021 5:45:00 PM 0.53 32.954 0.063 7.14 17.19 14.32
2/8/2021 6:00:00 PM 0.5 32.9 0.062 7.12 17.28 14.28
2/8/2021 6:15:00 PM 0.49 32.882 0.059 7.09 16.65 14.25
2/8/2021 6:30:00 PM 0.48 32.864 0.058 7.07 16.61 14.23
2/8/2021 6:45:00 PM 0.47 32.846 0.061 7.08 17.19 14.2
2/8/2021 7:00:00 PM 0.45 32.81 0.06 7.08 17.08 14.2
2/8/2021 7:15:00 PM 0.43 32.774 0.06 7.07 17.63 14.2
2/8/2021 7:30:00 PM 0.39 32.702 0.059 7.07 17.25 14.2
2/8/2021 7:45:00 PM 0.36 32.648 0.059 7.04 17.34 14.2
2/8/2021 8:00:00 PM 0.33 32.594 0.059 7.05 17.35 14.21
2/8/2021 8:15:00 PM 0.29 32.522 0.058 7.04 17.67 14.21
2/8/2021 8:30:00 PM 0.27 32.486 0.057 7.04 17.77 14.21
2/8/2021 8:45:00 PM 0.25 32.45 0.054 7 17.64 14.22
2/8/2021 9:00:00 PM 0.21 32.378 0.057 7.03 17.6 14.24
2/8/2021 9:15:00 PM 0.19 32.342 0.056 7.02 17.57 14.25
2/8/2021 9:30:00 PM 0.18 32.324 0.056 7.02 17.9 14.23
2/8/2021 9:45:00 PM 0.18 32.324 0.056 7.02 17.72 14.25
2/8/2021 10:00:00 PM 0.18 32.324 0.054 7 17.41 14.23
2/8/2021 10:15:00 PM 0.19 32.342 0.055 7.02 17.73 14.25
2/8/2021 10:30:00 PM 0.21 32.378 0.055 7.01 18.15 14.24
2/8/2021 10:45:00 PM 0.21 32.378 0.055 7.02 18.12 14.23
2/8/2021 11:00:00 PM 0.21 32.378 0.055 7.01 17.89 14.21
2/8/2021 11:15:00 PM 0.2 32.36 0.055 7.02 18.25 14.22
2/8/2021 11:30:00 PM 0.21 32.378 0.055 7.01 18.52 14.22
2/8/2021 11:45:00 PM 0.23 32.414 0.055 7.02 18.23 14.22
2/9/2021 12:00:00 AM 0.24 32.432 0.055 7.02 18.14 14.21
2/9/2021 12:15:00 AM 0.26 32.468 0.056 7.02 18.51 14.22
2/9/2021 12:30:00 AM 0.28 32.504 0.053 6.99 18.28 14.19
2/9/2021 12:45:00 AM 0.29 32.522 0.056 7.01 18.99 14.19
2/9/2021 1:00:00 AM 0.31 32.558 0.056 7.02 18.46 14.19
2/9/2021 1:15:00 AM 0.33 32.594 0.056 7.01 18.43 14.16
2/9/2021 1:30:00 AM 0.34 32.612 0.056 7.01 18.89 14.17
2/9/2021 1:45:00 AM 0.35 32.63 0.056 7.02 18.46 14.16
2/9/2021 2:00:00 AM 0.36 32.648 0.053 6.98 19.94 14.15
2/9/2021 2:15:00 AM 0.36 32.648 0.053 6.98 19.6 14.16
2/9/2021 2:30:00 AM 0.37 32.666 0.056 7.02 19.39 14.16
2/9/2021 2:45:00 AM 0.36 32.648 0.056 7.02 19.25 14.15
2/9/2021 3:00:00 AM 0.36 32.648 0.056 7.01 18.9 14.15
2/9/2021 3:15:00 AM 0.35 32.63 0.056 7.02 18.94 14.15
2/9/2021 3:30:00 AM 0.36 32.648 0.056 6.99 19.32 14.14
2/9/2021 3:45:00 AM 0.37 32.666 0.056 7.01 18.99 14.12
2/9/2021 4:00:00 AM 0.39 32.702 0.056 7.02 18.72 14.14
2/9/2021 4:15:00 AM 0.4 32.72 0.056 7.01 19.35 14.13
2/9/2021 4:30:00 AM 0.41 32.738 0.056 7 18.81 14.13
2/9/2021 4:45:00 AM 0.42 32.756 0.055 7 18.23 14.12
2/9/2021 5:00:00 AM 0.41 32.738 0.056 7.02 18.55 14.11
2/9/2021 5:15:00 AM 0.4 32.72 0.056 7.01 18.6 14.11
2/9/2021 5:30:00 AM 0.41 32.738 0.056 7.02 19.14 14.1
2/9/2021 5:45:00 AM 0.4 32.72 0.053 6.98 18.24 14.1
2/9/2021 6:00:00 AM 0.39 32.702 0.056 7.02 18.63 14.1
2/9/2021 6:15:00 AM 0.38 32.684 0.056 7.02 18.86 14.11
2/9/2021 6:30:00 AM 0.38 32.684 0.056 7.01 18.88 14.1
2/9/2021 6:45:00 AM 0.36 32.648 0.056 7.01 18.63 14.11
2/9/2021 7:00:00 AM 0.35 32.63 0.056 7.02 18.59 14.1
2/9/2021 7:15:00 AM 0.33 32.594 0.053 6.99 17.51 14.1
2/9/2021 7:30:00 AM 0.32 32.576 0.056 7.02 18.28 14.14
2/9/2021 7:45:00 AM 0.27 32.486 0.056 7.03 19.16 14.15
2/9/2021 8:00:00 AM 0.24 32.432 0.056 7.03 18.49 14.18
2/9/2021 8:15:00 AM 0.2 32.36 0.056 7.03 18.7 14.23
2/9/2021 8:30:00 AM 0.18 32.324 0.056 7.05 18.04 14.27
2/9/2021 8:45:00 AM 0.18 32.324 0.056 7.05 18.78 14.28
2/9/2021 9:00:00 AM 0.16 32.288 0.055 7.06 18.17 14.36
2/9/2021 9:15:00 AM 0.15 32.27 0.055 7.07 18.07 14.4
2/9/2021 9:30:00 AM 0.17 32.306 0.055 7.04 18.08 14.44
2/9/2021 9:45:00 AM 0.18 32.324 0.053 7.07 17.73 14.45
2/9/2021 10:00:00 AM 0.2 32.36 0.053 7.08 17.68 14.49
2/9/2021 10:15:00 AM 0.24 32.432 0.055 7.11 18.48 14.51
2/9/2021 10:30:00 AM 0.29 32.522 0.055 7.1 18.42 14.51
2/9/2021 10:45:00 AM 0.34 32.612 0.055 7.11 18.31 14.52
2/9/2021 11:00:00 AM 0.39 32.702 0.055 7.12 18.57 14.53
2/9/2021 11:15:00 AM 0.45 32.81 0.055 7.12 17.95 14.51
2/9/2021 11:30:00 AM 0.51 32.918 0.055 7.12 17.89 14.51
2/9/2021 11:45:00 AM 0.57 33.026 0.055 7.12 18.02 14.5
2/9/2021 12:00:00 PM 0.63 33.134 0.053 7.1 17.59 14.48
2/9/2021 12:15:00 PM 0.71 33.278 0.055 7.13 17.71 14.47
2/9/2021 12:30:00 PM 0.78 33.404 0.055 7.14 17.73 14.44
2/9/2021 12:45:00 PM 0.84 33.512 0.055 7.14 17.69 14.43
2/9/2021 1:00:00 PM 0.91 33.638 0.055 7.14 17.49 14.42
2/9/2021 1:15:00 PM 1.03 33.854 0.055 7.15 17.66 14.42
2/9/2021 1:30:00 PM 1.13 34.034 0.054 7.12 17.79 14.39
2/9/2021 1:45:00 PM 1.2 34.16 0.055 7.12 17.81 14.36
2/9/2021 2:00:00 PM 1.29 34.322 0.055 7.15 17.76 14.33
2/9/2021 2:15:00 PM 1.38 34.484 0.053 7.13 16.86 14.31
2/9/2021 2:30:00 PM 1.48 34.664 0.055 7.16 17.79 14.29
2/9/2021 2:45:00 PM 1.56 34.808 0.055 7.16 17.44 14.24
2/9/2021 3:00:00 PM 1.57 34.826 0.055 7.16 17.64 14.25
2/9/2021 3:15:00 PM 1.53 34.754 0.055 7.16 17.6 14.23
2/9/2021 3:30:00 PM 1.47 34.646 0.055 7.16 17.83 14.22
2/9/2021 3:45:00 PM 1.43 34.574 0.055 7.16 17.99 14.23
2/9/2021 4:00:00 PM 1.38 34.484 0.055 7.16 17.63 14.25
2/9/2021 4:15:00 PM 1.33 34.394 0.052 7.13 18.18 14.25
2/9/2021 4:30:00 PM 1.23 34.214 0.054 7.14 17.88 14.26
2/9/2021 4:45:00 PM 1.11 33.998 0.054 7.14 17.63 14.27
2/9/2021 5:00:00 PM 1.01 33.818 0.054 7.12 17.97 14.25
2/9/2021 5:15:00 PM 0.94 33.692 0.054 7.07 17.49 14.21
2/9/2021 5:30:00 PM 0.88 33.584 0.054 7.1 17.93 14.18
2/9/2021 5:45:00 PM 0.81 33.458 0.054 7.08 17.66 14.15
2/9/2021 6:00:00 PM 0.76 33.368 0.054 7.07 17.61 14.14
2/9/2021 6:15:00 PM 0.74 33.332 0.054 7.06 18.01 14.1
2/9/2021 6:30:00 PM 0.73 33.314 0.052 7.01 18.15 14.07
2/9/2021 6:45:00 PM 0.7 33.26 0.056 7 17.99 14.07
2/9/2021 7:00:00 PM 0.68 33.224 0.056 7.04 18.04 14.05
2/9/2021 7:15:00 PM 0.67 33.206 0.057 7.03 17.65 14.06
2/9/2021 7:30:00 PM 0.65 33.17 0.057 7.03 17.81 14.05
2/9/2021 7:45:00 PM 0.63 33.134 0.056 7.03 18.04 14.05
2/9/2021 8:00:00 PM 0.61 33.098 0.056 7.03 17.97 14.05
2/9/2021 8:15:00 PM 0.58 33.044 0.056 7.02 17.68 14.04
2/9/2021 8:30:00 PM 0.56 33.008 0.055 7.01 17.81 14.06
2/9/2021 8:45:00 PM 0.54 32.972 0.055 7.02 17.8 14.07
2/9/2021 9:00:00 PM 0.54 32.972 0.052 6.99 17.6 14.08
2/9/2021 9:15:00 PM 0.53 32.954 0.055 7.02 17.47 14.09
2/9/2021 9:30:00 PM 0.52 32.936 0.052 6.99 17.99 14.09
2/9/2021 9:45:00 PM 0.52 32.936 0.054 7.02 17.83 14.09
2/9/2021 10:00:00 PM 0.52 32.936 0.054 7.02 17.93 14.09
2/9/2021 10:15:00 PM 0.54 32.972 0.052 6.99 17.41 14.09
2/9/2021 10:30:00 PM 0.55 32.99 0.054 7.02 17.6 14.08
2/9/2021 10:45:00 PM 0.57 33.026 0.052 6.98 17.22 14.08
2/9/2021 11:00:00 PM 0.58 33.044 0.054 7.01 18.12 14.08
2/9/2021 11:15:00 PM 0.6 33.08 0.053 7 17.68 14.07
2/9/2021 11:30:00 PM 0.6 33.08 0.054 6.98 17.75 14.07
2/9/2021 11:45:00 PM 0.61 33.098 0.054 7.02 17.78 14.06
2/10/2021 12:00:00 AM 0.6 33.08 0.054 7.02 17.67 14.07
2/10/2021 12:15:00 AM 0.61 33.098 0.052 6.99 17.53 14.06
2/10/2021 12:30:00 AM 0.62 33.116 0.054 7.02 17.9 14.06
2/10/2021 12:45:00 AM 0.62 33.116 0.054 7.02 17.69 14.05
2/10/2021 1:00:00 AM 0.63 33.134 0.052 6.99 17.58 14.06
2/10/2021 1:15:00 AM 0.62 33.116 0.054 7.02 18.31 14.07
2/10/2021 1:30:00 AM 0.62 33.116 0.052 6.99 17.54 14.06
2/10/2021 1:45:00 AM 0.63 33.134 0.052 6.98 17.47 14.05
2/10/2021 2:00:00 AM 0.61 33.098 0.054 7.02 18.11 14.06
2/10/2021 2:15:00 AM 0.61 33.098 0.055 7.01 17.8 14.06
2/10/2021 2:30:00 AM 0.61 33.098 0.055 7.02 17.8 14.06
2/10/2021 2:45:00 AM 0.6 33.08 0.055 7.02 17.79 14.08
2/10/2021 3:00:00 AM 0.61 33.098 0.055 7.02 17.68 14.05
2/10/2021 3:15:00 AM 0.61 33.098 0.055 7.02 17.67 14.05
2/10/2021 3:30:00 AM 0.61 33.098 0.055 7.02 17.55 14.06
2/10/2021 3:45:00 AM 0.61 33.098 0.052 7 17.02 14.07
2/10/2021 4:00:00 AM 0.6 33.08 0.055 7.02 17.84 14.07
2/10/2021 4:15:00 AM 0.6 33.08 0.055 7.02 18.09 14.07
2/10/2021 4:30:00 AM 0.59 33.062 0.055 7 17.76 14.07
2/10/2021 4:45:00 AM 0.58 33.044 0.055 7.02 17.78 14.07
2/10/2021 5:00:00 AM 0.57 33.026 0.052 7 17.7 14.07
2/10/2021 5:15:00 AM 0.56 33.008 0.055 7.03 17.63 14.09
2/10/2021 5:30:00 AM 0.54 32.972 0.055 6.99 17.76 14.09
2/10/2021 5:45:00 AM 0.53 32.954 0.055 7.02 17.94 14.09
2/10/2021 6:00:00 AM 0.53 32.954 0.055 7.02 17.99 14.09
2/10/2021 6:15:00 AM 0.51 32.918 0.055 7.03 17.62 14.09
2/10/2021 6:30:00 AM 0.49 32.882 0.055 7.03 18.18 14.1
2/10/2021 6:45:00 AM 0.47 32.846 0.053 6.99 17.73 14.11
2/10/2021 7:00:00 AM 0.44 32.792 0.055 7.03 17.57 14.12
2/10/2021 7:15:00 AM 0.42 32.756 0.055 7.03 17.63 14.11
2/10/2021 7:30:00 AM 0.39 32.702 0.055 7.03 17.81 14.19
2/10/2021 7:45:00 AM 0.37 32.666 0.055 7.04 17.53 14.24
2/10/2021 8:00:00 AM 0.35 32.63 0.055 7.04 17.82 14.31
2/10/2021 8:15:00 AM 0.32 32.576 0.055 7.06 17.81 14.34
2/10/2021 8:30:00 AM 0.31 32.558 0.055 7.07 17.78 14.38
2/10/2021 8:45:00 AM 0.31 32.558 0.055 7.04 17.57 14.45
2/10/2021 9:00:00 AM 0.34 32.612 0.055 7.09 17.33 14.49
2/10/2021 9:15:00 AM 0.38 32.684 0.055 7.11 17.64 14.55
2/10/2021 9:30:00 AM 0.43 32.774 0.055 7.12 17.81 14.55
2/10/2021 9:45:00 AM 0.5 32.9 0.055 7.07 17.88 14.57
2/10/2021 10:00:00 AM 0.6 33.08 0.054 7.11 17.34 14.57
2/10/2021 10:15:00 AM 0.67 33.206 0.053 7.1 17.95 14.54
2/10/2021 10:30:00 AM 0.78 33.404 0.055 7.13 17.74 14.52
2/10/2021 10:45:00 AM 0.88 33.584 0.055 7.13 17.4 14.5
2/10/2021 11:00:00 AM 0.99 33.782 0.055 7.15 17.52 14.49
2/10/2021 11:15:00 AM 1.07 33.926 0.055 7.14 17.27 14.46
2/10/2021 11:30:00 AM 1.13 34.034 0.055 7.14 17.39 14.45
2/10/2021 11:45:00 AM 1.22 34.196 0.055 7.15 17.33 14.43
2/10/2021 12:00:00 PM 1.3 34.34 0.053 7.11 17.1 14.4
2/10/2021 12:15:00 PM 1.44 34.592 0.055 7.15 17.13 14.37
2/10/2021 12:30:00 PM 1.54 34.772 0.055 7.15 17.3 14.34
2/10/2021 12:45:00 PM 1.64 34.952 0.055 7.15 17.27 14.31
2/10/2021 1:00:00 PM 1.72 35.096 0.055 7.15 17.49 14.29
2/10/2021 1:15:00 PM 1.75 35.15 0.052 7.12 17.03 14.26
2/10/2021 1:30:00 PM 1.74 35.132 0.054 7.15 17.24 14.27
2/10/2021 1:45:00 PM 1.71 35.078 0.052 7.12 17.17 14.25
2/10/2021 2:00:00 PM 1.66 34.988 0.054 7.15 17.03 14.25
2/10/2021 2:15:00 PM 1.65 34.97 0.054 7.15 17.34 14.26
2/10/2021 2:30:00 PM 1.66 34.988 0.054 7.14 17.3 14.27
2/10/2021 2:45:00 PM 1.62 34.916 0.052 7.13 17.78 14.27
2/10/2021 3:00:00 PM 1.55 34.79 0.054 7.15 17.27 14.28
2/10/2021 3:15:00 PM 1.49 34.682 0.054 7.15 17.27 14.29
2/10/2021 3:30:00 PM 1.42 34.556 0.054 7.14 17.38 14.27
2/10/2021 3:45:00 PM 1.37 34.466 0.054 7.14 17.26 14.26
2/10/2021 4:00:00 PM 1.31 34.358 0.051 7.11 16.9 14.28
2/10/2021 4:15:00 PM 1.25 34.25 0.054 7.14 17.11 14.28
2/10/2021 4:30:00 PM 1.19 34.142 0.054 7.13 17.24 14.27
2/10/2021 4:45:00 PM 1.12 34.016 0.054 7.12 17.46 14.27
2/10/2021 5:00:00 PM 1.06 33.908 0.051 7.08 17.08 14.24
2/10/2021 5:15:00 PM 1 33.8 0.054 7.1 17.75 14.22
2/10/2021 5:30:00 PM 0.94 33.692 0.054 7.08 17.76 14.17
2/10/2021 5:45:00 PM 0.89 33.602 0.051 7.04 17.31 14.13
2/10/2021 6:00:00 PM 0.85 33.53 0.054 7.05 17.22 14.11
2/10/2021 6:15:00 PM 0.81 33.458 0.054 7.05 17.46 14.09
2/10/2021 6:30:00 PM 0.78 33.404 0.051 7.02 17.14 14.08
2/10/2021 6:45:00 PM 0.76 33.368 0.054 7.03 17.37 14.08
2/10/2021 7:00:00 PM 0.75 33.35 0.054 7.03 17.57 14.06
2/10/2021 7:15:00 PM 0.73 33.314 0.054 7.03 17.32 14.05
2/10/2021 7:30:00 PM 0.72 33.296 0.054 7.03 17.5 14.04
2/10/2021 7:45:00 PM 0.71 33.278 0.054 6.98 17.43 14.03
2/10/2021 8:00:00 PM 0.71 33.278 0.054 7.02 17.47 14.04
2/10/2021 8:15:00 PM 0.72 33.296 0.051 6.99 17.24 14.02
2/10/2021 8:30:00 PM 0.71 33.278 0.054 7.02 17.5 14.05
2/10/2021 8:45:00 PM 0.72 33.296 0.054 7.01 17.52 14.03
2/10/2021 9:00:00 PM 0.71 33.278 0.054 7.02 17.53 14.04
2/10/2021 9:15:00 PM 0.71 33.278 0.054 7.01 17.44 14.03
2/10/2021 9:30:00 PM 0.71 33.278 0.053 7 17.01 14.02
2/10/2021 9:45:00 PM 0.69 33.242 0.054 7.02 17.48 14.03
2/10/2021 10:00:00 PM 0.67 33.206 0.054 7.03 17.58 14.03
2/10/2021 10:15:00 PM 0.65 33.17 0.054 7.02 17.43 14.04
2/10/2021 10:30:00 PM 0.6 33.08 0.054 7.03 17.57 14.04
2/10/2021 10:45:00 PM 0.57 33.026 0.052 6.99 17.26 14.04
2/10/2021 11:00:00 PM 0.55 32.99 0.055 7.03 17.55 14.05
2/10/2021 11:15:00 PM 0.53 32.954 0.052 6.99 17.53 14.05
2/10/2021 11:30:00 PM 0.51 32.918 0.055 7.02 17.39 14.07
2/10/2021 11:45:00 PM 0.49 32.882 0.055 7.02 17.19 14.08
2/11/2021 12:00:00 AM 0.47 32.846 0.055 7.02 17.42 14.09
2/11/2021 12:15:00 AM 0.45 32.81 0.052 6.99 17.4 14.08
2/11/2021 12:30:00 AM 0.43 32.774 0.055 7.03 17.6 14.09
2/11/2021 12:45:00 AM 0.43 32.774 0.055 7.02 17.89 14.1
2/11/2021 1:00:00 AM 0.44 32.792 0.054 7 17.31 14.1
2/11/2021 1:15:00 AM 0.45 32.81 0.055 7.02 17.59 14.1
2/11/2021 1:30:00 AM 0.45 32.81 0.053 6.99 17.42 14.08
2/11/2021 1:45:00 AM 0.46 32.828 0.055 7.02 17.53 14.08
2/11/2021 2:00:00 AM 0.46 32.828 0.053 7 17.53 14.07
2/11/2021 2:15:00 AM 0.47 32.846 0.055 7.03 17.48 14.08
2/11/2021 2:30:00 AM 0.47 32.846 0.053 6.99 17.21 14.05
2/11/2021 2:45:00 AM 0.47 32.846 0.054 7 17.18 14.07
2/11/2021 3:00:00 AM 0.48 32.864 0.055 6.99 17.6 14.06
2/11/2021 3:15:00 AM 0.48 32.864 0.055 7.03 17.29 14.07
2/11/2021 3:30:00 AM 0.48 32.864 0.055 7.03 17.64 14.06
2/11/2021 3:45:00 AM 0.49 32.882 0.053 7 17.11 14.06
2/11/2021 4:00:00 AM 0.49 32.882 0.055 7.03 17.55 14.05
2/11/2021 4:15:00 AM 0.49 32.882 0.056 7.04 17.41 14.06
2/11/2021 4:30:00 AM 0.5 32.9 0.056 7.03 17.4 14.05
2/11/2021 4:45:00 AM 0.51 32.918 0.056 7.03 17.53 14.04
2/11/2021 5:00:00 AM 0.51 32.918 0.056 6.99 17.49 14.05
2/11/2021 5:15:00 AM 0.52 32.936 0.056 7.04 17.37 14.06
2/11/2021 5:30:00 AM 0.53 32.954 0.056 7.03 17.23 14.04
2/11/2021 5:45:00 AM 0.54 32.972 0.056 7.04 17.32 14.06
2/11/2021 6:00:00 AM 0.56 33.008 0.056 7.03 17.34 14.04
2/11/2021 6:15:00 AM 0.56 33.008 0.056 7.03 17.44 14.04
2/11/2021 6:30:00 AM 0.56 33.008 0.056 7.04 17.53 14.04
2/11/2021 6:45:00 AM 0.57 33.026 0.056 7.04 17.41 14.04
2/11/2021 7:00:00 AM 0.57 33.026 0.053 7.01 17.02 14.05
2/11/2021 7:15:00 AM 0.58 33.044 0.056 7.04 17.82 14.05
2/11/2021 7:30:00 AM 0.6 33.08 0.056 7.04 17.44 14.06
2/11/2021 7:45:00 AM 0.61 33.098 0.056 7.04 17.36 14.09
2/11/2021 8:00:00 AM 0.63 33.134 0.056 7.05 17.26 14.14
2/11/2021 8:15:00 AM 0.64 33.152 0.056 7.06 17.39 14.16
2/11/2021 8:30:00 AM 0.66 33.188 0.056 7.07 16.99 14.22
2/11/2021 8:45:00 AM 0.67 33.206 0.056 7.09 17.35 14.27
2/11/2021 9:00:00 AM 0.69 33.242 0.056 7.1 17.36 14.32
2/11/2021 9:15:00 AM 0.72 33.296 0.053 7.07 17.42 14.33
2/11/2021 9:30:00 AM 0.76 33.368 0.056 7.11 17.07 14.37
2/11/2021 9:45:00 AM 0.83 33.494 0.058 7.13 17.15 14.39
2/11/2021 10:00:00 AM 0.91 33.638 0.055 7.11 16.89 14.4
2/11/2021 10:15:00 AM 0.98 33.764 0.056 7.14 17.18 14.41
2/11/2021 10:30:00 AM 1 33.8 0.056 7.14 17.45 14.39
2/11/2021 10:45:00 AM 1.01 33.818 0.054 7.12 17.07 14.39
2/11/2021 11:00:00 AM 1.02 33.836 0.055 7.15 17.26 14.38
2/11/2021 11:15:00 AM 1.05 33.89 0.055 7.15 17.14 14.39
2/11/2021 11:30:00 AM 1.07 33.926 0.054 7.13 16.8 14.39
2/11/2021 11:45:00 AM 1.11 33.998 0.053 7.13 16.77 14.4
2/11/2021 12:00:00 PM 1.16 34.088 0.055 7.16 17.14 14.4
2/11/2021 12:15:00 PM 1.2 34.16 0.055 7.13 17.28 14.38
2/11/2021 12:30:00 PM 1.24 34.232 0.055 7.17 17.34 14.38
2/11/2021 12:45:00 PM 1.31 34.358 0.055 7.17 17.39 14.37
2/11/2021 1:00:00 PM 1.46 34.628 0.055 7.16 17 14.33
2/11/2021 1:15:00 PM 1.63 34.934 0.056 7.14 17.3 14.31
2/11/2021 1:30:00 PM 1.73 35.114 0.056 7.16 17.1 14.25
2/11/2021 1:45:00 PM 1.72 35.096 0.055 7.16 16.88 14.23
2/11/2021 2:00:00 PM 1.71 35.078 0.055 7.17 17.05 14.24
2/11/2021 2:15:00 PM 1.73 35.114 0.055 7.17 17.39 14.22
2/11/2021 2:30:00 PM 1.67 35.006 0.055 7.17 17.56 14.22
2/11/2021 2:45:00 PM 1.64 34.952 0.055 7.16 17.42 14.23
2/11/2021 3:00:00 PM 1.62 34.916 0.055 7.17 17.44 14.25
2/11/2021 3:15:00 PM 1.61 34.898 0.055 7.15 17.44 14.22
2/11/2021 3:30:00 PM 1.48 34.664 0.055 7.17 17.66 14.26
2/11/2021 3:45:00 PM 1.4 34.52 0.055 7.13 17.25 14.27
2/11/2021 4:00:00 PM 1.32 34.376 0.052 7.13 17.8 14.27
2/11/2021 4:15:00 PM 1.24 34.232 0.055 7.16 17.29 14.29
2/11/2021 4:30:00 PM 1.16 34.088 0.055 7.14 17.25 14.25
2/11/2021 4:45:00 PM 1.08 33.944 0.055 7.13 17.22 14.22
2/11/2021 5:00:00 PM 1 33.8 0.055 7.11 17.24 14.22
2/11/2021 5:15:00 PM 0.92 33.656 0.055 7.11 17.33 14.21
2/11/2021 5:30:00 PM 0.85 33.53 0.055 7.1 17.32 14.19
2/11/2021 5:45:00 PM 0.79 33.422 0.055 7.08 17.11 14.15
2/11/2021 6:00:00 PM 0.73 33.314 0.055 7.07 17.12 14.14
2/11/2021 6:15:00 PM 0.69 33.242 0.055 7.07 17.27 14.12
2/11/2021 6:30:00 PM 0.65 33.17 0.055 7.05 17.23 14.1
2/11/2021 6:45:00 PM 0.61 33.098 0.055 7.06 17.4 14.1
2/11/2021 7:00:00 PM 0.56 33.008 0.055 7.05 17.08 14.07
2/11/2021 7:15:00 PM 0.52 32.936 0.055 7.05 17.28 14.09
2/11/2021 7:30:00 PM 0.5 32.9 0.055 7.04 17.45 14.1
2/11/2021 7:45:00 PM 0.46 32.828 0.055 7.04 17.29 14.1
2/11/2021 8:00:00 PM 0.43 32.774 0.055 7.04 17.31 14.11
2/11/2021 8:15:00 PM 0.39 32.702 0.055 7.02 17.4 14.12
2/11/2021 8:30:00 PM 0.38 32.684 0.055 7.03 17.26 14.12
2/11/2021 8:45:00 PM 0.35 32.63 0.055 7.04 17.46 14.14
2/11/2021 9:00:00 PM 0.35 32.63 0.056 7.03 17.3 14.14
2/11/2021 9:15:00 PM 0.35 32.63 0.056 7.04 17.33 14.15
2/11/2021 9:30:00 PM 0.34 32.612 0.056 7.03 17.84 14.16
2/11/2021 9:45:00 PM 0.32 32.576 0.056 7.04 17.56 14.15
2/11/2021 10:00:00 PM 0.31 32.558 0.056 7.02 17.44 14.16
2/11/2021 10:15:00 PM 0.31 32.558 0.056 7.04 17.46 14.16
2/11/2021 10:30:00 PM 0.31 32.558 0.056 7 17.4 14.15
2/11/2021 10:45:00 PM 0.3 32.54 0.054 7.02 17.09 14.15
2/11/2021 11:00:00 PM 0.3 32.54 0.053 7 18.18 14.14
2/11/2021 11:15:00 PM 0.29 32.522 0.056 7.02 17.43 14.17
2/11/2021 11:30:00 PM 0.28 32.504 0.055 7.02 17.57 14.16
2/11/2021 11:45:00 PM 0.27 32.486 0.053 6.99 17.79 14.16
2/12/2021 12:00:00 AM 0.26 32.468 0.053 6.99 17 14.16
2/12/2021 12:15:00 AM 0.23 32.414 0.056 7.03 17.51 14.16
2/12/2021 12:30:00 AM 0.21 32.378 0.056 7.03 17.68 14.17
2/12/2021 12:45:00 AM 0.19 32.342 0.057 7.03 17.33 14.17
2/12/2021 1:00:00 AM 0.16 32.288 0.057 7.04 17.39 14.19
2/12/2021 1:15:00 AM 0.14 32.252 0.057 7.04 17.98 14.19
2/12/2021 1:30:00 AM 0.13 32.234 0.057 7.03 17.43 14.2
2/12/2021 1:45:00 AM 0.11 32.198 0.057 7.03 17.54 14.21
2/12/2021 2:00:00 AM 0.09 32.162 0.057 7.03 17.43 14.19
2/12/2021 2:15:00 AM 0.08 32.144 0.058 7.02 17.41 14.19
2/12/2021 2:30:00 AM 0.06 32.108 0.055 6.99 16.99 14.22
2/12/2021 2:45:00 AM 0.06 32.108 0.058 7.03 17.18 14.21
2/12/2021 3:00:00 AM 0.05 32.09 0.055 6.99 16.98 14.22
2/12/2021 3:15:00 AM 0.03 32.054 0.058 7.02 17.16 14.19
2/12/2021 3:30:00 AM 0.03 32.054 0.057 7.02 17.23 14.21
2/12/2021 3:45:00 AM 0.02 32.036 0.057 7.01 17.22 14.21
2/12/2021 4:00:00 AM 0.01 32.018 0.057 7.01 17.49 14.21
2/12/2021 4:15:00 AM 0 32 0.058 7.02 17.2 14.21
2/12/2021 4:30:00 AM 0 32 0.058 7.02 17.36 14.24
2/12/2021 4:45:00 AM 0 32 0.058 7.02 16.88 14.21
2/12/2021 5:00:00 AM 0 32 0.058 6.98 17.14 14.2
2/12/2021 5:15:00 AM 0.01 32.018 0.058 7.02 17.28 14.2
2/12/2021 5:30:00 AM 0.01 32.018 0.058 7.01 17.42 14.2
2/12/2021 5:45:00 AM 0.01 32.018 0.058 7.01 17.71 14.2
2/12/2021 6:00:00 AM 0.01 32.018 0.058 7.01 17.09 14.2
2/12/2021 6:15:00 AM 0.02 32.036 0.059 7.02 17.46 14.2
2/12/2021 6:30:00 AM 0.01 32.018 0.059 7.02 17.24 14.2
2/12/2021 6:45:00 AM 0.02 32.036 0.059 7.01 17.11 14.21
2/12/2021 7:00:00 AM 0.02 32.036 0.059 7 17.46 14.21
2/12/2021 7:15:00 AM 0.02 32.036 0.059 7.02 17.33 14.22
2/12/2021 7:30:00 AM 0.03 32.054 0.059 6.98 17.1 14.25
2/12/2021 7:45:00 AM 0.04 32.072 0.059 7.03 17.28 14.27
2/12/2021 8:00:00 AM 0.04 32.072 0.059 7.05 17.18 14.36
2/12/2021 8:15:00 AM 0.06 32.108 0.06 7.05 17.01 14.4
2/12/2021 8:30:00 AM 0.06 32.108 0.06 7.08 17.16 14.45
2/12/2021 8:45:00 AM 0.07 32.126 0.06 7.09 17.08 14.48
2/12/2021 9:00:00 AM 0.11 32.198 0.061 7.1 17.22 14.5
2/12/2021 9:15:00 AM 0.17 32.306 0.061 7.12 16.87 14.49
2/12/2021 9:30:00 AM 0.23 32.414 0.061 7.12 17.05 14.52
2/12/2021 9:45:00 AM 0.31 32.558 0.059 7.1 16.66 14.53
2/12/2021 10:00:00 AM 0.37 32.666 0.062 7.14 16.83 14.5
2/12/2021 10:15:00 AM 0.46 32.828 0.063 7.09 16.89 14.46
2/12/2021 10:30:00 AM 0.55 32.99 0.061 7.11 16.73 14.45
2/12/2021 10:45:00 AM 0.62 33.116 0.064 7.14 16.85 14.45
2/12/2021 11:00:00 AM 0.7 33.26 0.064 7.15 17.09 14.43
2/12/2021 11:15:00 AM 0.78 33.404 0.064 7.16 16.78 14.41
2/12/2021 11:30:00 AM 0.84 33.512 0.064 7.16 17.18 14.4
2/12/2021 11:45:00 AM 0.85 33.53 0.064 7.18 16.69 14.38
2/12/2021 12:00:00 PM 0.91 33.638 0.065 7.18 16.98 14.38
2/12/2021 12:15:00 PM 0.97 33.746 0.065 7.2 16.86 14.39
2/12/2021 12:30:00 PM 1 33.8 0.064 7.2 16.84 14.39
2/12/2021 12:45:00 PM 1.03 33.854 0.064 7.21 16.86 14.38
2/12/2021 1:00:00 PM 1.08 33.944 0.061 7.18 16.74 14.35
2/12/2021 1:15:00 PM 1.1 33.98 0.064 7.21 16.68 14.39
2/12/2021 1:30:00 PM 1.11 33.998 0.063 7.21 16.82 14.39
2/12/2021 1:45:00 PM 1.14 34.052 0.063 7.22 16.73 14.38
2/12/2021 2:00:00 PM 1.16 34.088 0.06 7.18 17.2 14.38
2/12/2021 2:15:00 PM 1.16 34.088 0.062 7.21 16.95 14.38
2/12/2021 2:30:00 PM 1.13 34.034 0.059 7.18 16.96 14.37
2/12/2021 2:45:00 PM 1.12 34.016 0.062 7.21 16.74 14.38
2/12/2021 3:00:00 PM 1.1 33.98 0.061 7.21 16.81 14.39
2/12/2021 3:15:00 PM 1.08 33.944 0.058 7.18 16.94 14.38
2/12/2021 3:30:00 PM 1.04 33.872 0.06 7.19 16.89 14.39
2/12/2021 3:45:00 PM 0.98 33.764 0.061 7.2 17 14.41
2/12/2021 4:00:00 PM 0.93 33.674 0.061 7.2 17.03 14.4
2/12/2021 4:15:00 PM 0.88 33.584 0.06 7.19 17.04 14.41
2/12/2021 4:30:00 PM 0.83 33.494 0.06 7.18 17.26 14.4
2/12/2021 4:45:00 PM 0.79 33.422 0.059 7.17 17.15 14.38
2/12/2021 5:00:00 PM 0.73 33.314 0.058 7.16 17.08 14.35
2/12/2021 5:15:00 PM 0.69 33.242 0.058 7.13 16.94 14.33
2/12/2021 5:30:00 PM 0.65 33.17 0.057 7.13 17.03 14.3
2/12/2021 5:45:00 PM 0.62 33.116 0.057 7.1 17.3 14.25
2/12/2021 6:00:00 PM 0.59 33.062 0.057 7.09 17.33 14.21
2/12/2021 6:15:00 PM 0.58 33.044 0.056 7.08 17.49 14.19
2/12/2021 6:30:00 PM 0.56 33.008 0.056 7.07 17.32 14.18
2/12/2021 6:45:00 PM 0.55 32.99 0.056 7.02 17.17 14.14
2/12/2021 7:00:00 PM 0.53 32.954 0.056 7.06 17.26 14.16
2/12/2021 7:15:00 PM 0.53 32.954 0.055 7.05 17.47 14.14
2/12/2021 7:30:00 PM 0.53 32.954 0.055 7.05 17.45 14.12
2/12/2021 7:45:00 PM 0.52 32.936 0.055 7.05 17.31 14.13
2/12/2021 8:00:00 PM 0.52 32.936 0.055 7.05 17.23 14.13
2/12/2021 8:15:00 PM 0.51 32.918 0.055 7.04 17.61 14.13
2/12/2021 8:30:00 PM 0.51 32.918 0.055 7.03 17.55 14.13
2/12/2021 8:45:00 PM 0.52 32.936 0.055 7.04 17.58 14.12
2/12/2021 9:00:00 PM 0.52 32.936 0.054 7.03 17.65 14.11
2/12/2021 9:15:00 PM 0.52 32.936 0.054 7.04 18.18 14.12
2/12/2021 9:30:00 PM 0.52 32.936 0.054 7.04 18.24 14.11
2/12/2021 9:45:00 PM 0.51 32.918 0.052 7 17.6 14.11
2/12/2021 10:00:00 PM 0.51 32.918 0.054 7.03 17.68 14.13
2/12/2021 10:15:00 PM 0.52 32.936 0.054 7.03 18.04 14.11
2/12/2021 10:30:00 PM 0.52 32.936 0.052 7 17.95 14.12
2/12/2021 10:45:00 PM 0.52 32.936 0.054 7.03 17.82 14.12
2/12/2021 11:00:00 PM 0.51 32.918 0.054 7.03 18.19 14.11
2/12/2021 11:15:00 PM 0.51 32.918 0.054 7.03 18.26 14.11
2/12/2021 11:30:00 PM 0.5 32.9 0.052 6.99 17.58 14.11
2/12/2021 11:45:00 PM 0.5 32.9 0.052 7.01 18.16 14.12
2/13/2021 12:00:00 AM 0.5 32.9 0.053 7.01 17.98 14.11
2/13/2021 12:15:00 AM 0.49 32.882 0.054 7.03 18.31 14.12
2/13/2021 12:30:00 AM 0.48 32.864 0.055 7.03 18.33 14.12
2/13/2021 12:45:00 AM 0.47 32.846 0.055 7.04 18.19 14.12
2/13/2021 1:00:00 AM 0.45 32.81 0.055 7.03 18.22 14.14
2/13/2021 1:15:00 AM 0.42 32.756 0.055 7.03 18.13 14.13
2/13/2021 1:30:00 AM 0.41 32.738 0.055 7.03 18.19 14.13
2/13/2021 1:45:00 AM 0.37 32.666 0.055 7.03 18.4 14.13
2/13/2021 2:00:00 AM 0.34 32.612 0.055 7.02 17.9 14.13
2/13/2021 2:15:00 AM 0.3 32.54 0.054 7.01 18.53 14.17
2/13/2021 2:30:00 AM 0.27 32.486 0.054 7 17.77 14.15
2/13/2021 2:45:00 AM 0.23 32.414 0.055 7.03 17.96 14.17
2/13/2021 3:00:00 AM 0.2 32.36 0.055 7.03 17.96 14.15
2/13/2021 3:15:00 AM 0.17 32.306 0.055 7.02 17.91 14.18
2/13/2021 3:30:00 AM 0.15 32.27 0.055 7.03 18.27 14.21
2/13/2021 3:45:00 AM 0.15 32.27 0.056 7.03 18.09 14.2
2/13/2021 4:00:00 AM 0.15 32.27 0.056 7.03 17.94 14.2
2/13/2021 4:15:00 AM 0.14 32.252 0.056 7.03 18.02 14.18
2/13/2021 4:30:00 AM 0.12 32.216 0.056 7.03 18.03 14.21
2/13/2021 4:45:00 AM 0.12 32.216 0.056 7.02 17.51 14.21
2/13/2021 5:00:00 AM 0.12 32.216 0.056 7.03 17.67 14.18
2/13/2021 5:15:00 AM 0.12 32.216 0.057 7.03 17.77 14.17
2/13/2021 5:30:00 AM 0.11 32.198 0.057 7.03 17.78 14.19
2/13/2021 5:45:00 AM 0.09 32.162 0.057 7.03 17.54 14.2
2/13/2021 6:00:00 AM 0.07 32.126 0.057 7.03 17.5 14.2
2/13/2021 6:15:00 AM 0.06 32.108 0.057 7.03 17.59 14.21
2/13/2021 6:30:00 AM 0.05 32.09 0.057 7.03 17.58 14.21
2/13/2021 6:45:00 AM 0.04 32.072 0.057 7.03 17.61 14.2
2/13/2021 7:00:00 AM 0.03 32.054 0.057 7.03 17.19 14.2
2/13/2021 7:15:00 AM 0.03 32.054 0.057 7.04 17.64 14.24
2/13/2021 7:30:00 AM 0.03 32.054 0.058 7.05 17.36 14.29
2/13/2021 7:45:00 AM 0.04 32.072 0.058 7.06 17.06 14.34
2/13/2021 8:00:00 AM 0.06 32.108 0.058 7.07 17.19 14.38
2/13/2021 8:15:00 AM 0.09 32.162 0.055 7.04 16.94 14.44
2/13/2021 8:30:00 AM 0.12 32.216 0.058 7.1 16.98 14.48
2/13/2021 8:45:00 AM 0.17 32.306 0.058 7.1 17.24 14.49
2/13/2021 9:00:00 AM 0.23 32.414 0.058 7.1 17.26 14.49
2/13/2021 9:15:00 AM 0.3 32.54 0.056 7.09 16.97 14.54
2/13/2021 9:30:00 AM 0.38 32.684 0.056 7.09 17.17 14.52
2/13/2021 9:45:00 AM 0.46 32.828 0.059 7.14 16.92 14.55
2/13/2021 10:00:00 AM 0.53 32.954 0.056 7.11 16.88 14.53
2/13/2021 10:15:00 AM 0.59 33.062 0.056 7.12 16.97 14.54
2/13/2021 10:30:00 AM 0.65 33.17 0.059 7.16 17.01 14.53
2/13/2021 10:45:00 AM 0.72 33.296 0.059 7.15 16.84 14.49
2/13/2021 11:00:00 AM 0.81 33.458 0.059 7.15 16.85 14.48
2/13/2021 11:15:00 AM 0.87 33.566 0.059 7.17 16.84 14.46
2/13/2021 11:30:00 AM 0.91 33.638 0.059 7.17 17.02 14.45
2/13/2021 11:45:00 AM 0.95 33.71 0.059 7.18 16.76 14.44
2/13/2021 12:00:00 PM 0.99 33.782 0.059 7.18 16.95 14.4
2/13/2021 12:15:00 PM 1.01 33.818 0.059 7.17 16.74 14.4
2/13/2021 12:30:00 PM 1.02 33.836 0.056 7.15 17.2 14.4
2/13/2021 12:45:00 PM 1.02 33.836 0.059 7.19 16.96 14.4
2/13/2021 1:00:00 PM 1.02 33.836 0.059 7.19 16.92 14.39
2/13/2021 1:15:00 PM 1 33.8 0.059 7.19 16.9 14.39
2/13/2021 1:30:00 PM 0.99 33.782 0.056 7.15 17.49 14.4
2/13/2021 1:45:00 PM 0.97 33.746 0.058 7.19 16.88 14.4
2/13/2021 2:00:00 PM 0.96 33.728 0.058 7.18 16.8 14.39
2/13/2021 2:15:00 PM 0.94 33.692 0.058 7.18 17.03 14.39
2/13/2021 2:30:00 PM 0.93 33.674 0.058 7.18 16.98 14.4
2/13/2021 2:45:00 PM 0.93 33.674 0.058 7.18 17.08 14.41
2/13/2021 3:00:00 PM 0.94 33.692 0.058 7.18 16.79 14.39
2/13/2021 3:15:00 PM 0.93 33.674 0.058 7.17 17.08 14.38
2/13/2021 3:30:00 PM 0.94 33.692 0.057 7.17 16.86 14.39
2/13/2021 3:45:00 PM 0.93 33.674 0.057 7.17 16.93 14.37
2/13/2021 4:00:00 PM 0.92 33.656 0.057 7.17 16.9 14.37
2/13/2021 4:15:00 PM 0.91 33.638 0.057 7.13 16.97 14.35
2/13/2021 4:30:00 PM 0.88 33.584 0.057 7.15 17.14 14.32
2/13/2021 4:45:00 PM 0.87 33.566 0.056 7.14 16.71 14.31
2/13/2021 5:00:00 PM 0.85 33.53 0.056 7.13 17.09 14.27
2/13/2021 5:15:00 PM 0.81 33.458 0.056 7.13 16.82 14.25
2/13/2021 5:30:00 PM 0.78 33.404 0.056 7.11 16.83 14.19
2/13/2021 5:45:00 PM 0.75 33.35 0.056 7.1 16.85 14.16
2/13/2021 6:00:00 PM 0.74 33.332 0.054 7.05 16.68 14.11
2/13/2021 6:15:00 PM 0.71 33.278 0.055 7.08 17.05 14.1
2/13/2021 6:30:00 PM 0.68 33.224 0.055 7.07 16.93 14.07
2/13/2021 6:45:00 PM 0.67 33.206 0.055 7.06 16.94 14.06
2/13/2021 7:00:00 PM 0.66 33.188 0.055 7.06 16.96 14.06
2/13/2021 7:15:00 PM 0.65 33.17 0.055 7.05 17.08 14.05
2/13/2021 7:30:00 PM 0.64 33.152 0.054 7.05 16.93 14.04
2/13/2021 7:45:00 PM 0.63 33.134 0.054 7.05 17.04 14.05
2/13/2021 8:00:00 PM 0.63 33.134 0.054 7.04 17.29 14.03
2/13/2021 8:15:00 PM 0.63 33.134 0.052 7 17.19 14.03
2/13/2021 8:30:00 PM 0.63 33.134 0.054 7.04 17.08 14.02
2/13/2021 8:45:00 PM 0.62 33.116 0.054 7.04 17.17 14.02
2/13/2021 9:00:00 PM 0.62 33.116 0.054 7.03 17.04 14.02
2/13/2021 9:15:00 PM 0.62 33.116 0.054 7.04 17.11 14.03
2/13/2021 9:30:00 PM 0.63 33.134 0.054 7.03 17.33 14.02
2/13/2021 9:45:00 PM 0.63 33.134 0.054 7.03 17.34 14.02
2/13/2021 10:00:00 PM 0.62 33.116 0.052 7 17.31 14.01
2/13/2021 10:15:00 PM 0.63 33.134 0.055 7.03 17.59 14.01
2/13/2021 10:30:00 PM 0.63 33.134 0.055 7.04 17.58 14.01
2/13/2021 10:45:00 PM 0.63 33.134 0.055 7.03 17.41 14
2/13/2021 11:00:00 PM 0.63 33.134 0.055 7.03 17.13 14
2/13/2021 11:15:00 PM 0.63 33.134 0.052 7.01 16.84 14
2/13/2021 11:30:00 PM 0.64 33.152 0.055 7.04 17.09 13.99
2/13/2021 11:45:00 PM 0.64 33.152 0.055 7.04 17.16 14
2/14/2021 12:00:00 AM 0.65 33.17 0.055 7.04 17.24 13.99
2/14/2021 12:15:00 AM 0.65 33.17 0.053 7.01 17.23 13.99
2/14/2021 12:30:00 AM 0.66 33.188 0.056 7.04 17.52 13.98
2/14/2021 12:45:00 AM 0.67 33.206 0.053 7 17.14 13.98
2/14/2021 1:00:00 AM 0.67 33.206 0.056 7.04 17.21 13.99
2/14/2021 1:15:00 AM 0.68 33.224 0.056 7.03 17.27 13.97
2/14/2021 1:30:00 AM 0.68 33.224 0.056 7.04 17.25 13.98
2/14/2021 1:45:00 AM 0.69 33.242 0.053 7.01 18.38 13.97
2/14/2021 2:00:00 AM 0.69 33.242 0.056 7.05 17.15 13.97
2/14/2021 2:15:00 AM 0.7 33.26 0.053 7.01 17.07 13.97
2/14/2021 2:30:00 AM 0.7 33.26 0.056 7.05 17.43 13.98
2/14/2021 2:45:00 AM 0.7 33.26 0.056 7.05 17.21 13.97
2/14/2021 3:00:00 AM 0.7 33.26 0.056 7.04 17.16 13.96
2/14/2021 3:15:00 AM 0.7 33.26 0.056 7.05 17.12 13.97
2/14/2021 3:30:00 AM 0.7 33.26 0.056 7.05 16.98 13.94
2/14/2021 3:45:00 AM 0.7 33.26 0.056 7.04 17.13 13.96
2/14/2021 4:00:00 AM 0.7 33.26 0.056 7.04 17.16 13.96
2/14/2021 4:15:00 AM 0.7 33.26 0.056 7.04 17.03 13.94
2/14/2021 4:30:00 AM 0.7 33.26 0.054 7.01 16.9 13.95
2/14/2021 4:45:00 AM 0.69 33.242 0.056 7.05 17.3 13.96
2/14/2021 5:00:00 AM 0.69 33.242 0.056 7.05 17.01 13.97
2/14/2021 5:15:00 AM 0.69 33.242 0.056 7.05 16.95 13.99
2/14/2021 5:30:00 AM 0.69 33.242 0.056 7.05 17.1 13.97
2/14/2021 5:45:00 AM 0.69 33.242 0.056 7.04 17.03 13.96
2/14/2021 6:00:00 AM 0.7 33.26 0.056 7.05 16.95 13.97
2/14/2021 6:15:00 AM 0.7 33.26 0.056 7.05 17.23 13.97
2/14/2021 6:30:00 AM 0.7 33.26 0.056 7.05 16.84 13.97
2/14/2021 6:45:00 AM 0.71 33.278 0.056 7.05 16.95 13.97
2/14/2021 7:00:00 AM 0.71 33.278 0.056 7.05 16.9 13.97
2/14/2021 7:15:00 AM 0.71 33.278 0.056 7.05 17 13.98
2/14/2021 7:30:00 AM 0.72 33.296 0.056 7.05 16.98 14
2/14/2021 7:45:00 AM 0.72 33.296 0.056 7.06 16.95 14.05
2/14/2021 8:00:00 AM 0.74 33.332 0.054 7.05 16.86 14.09
2/14/2021 8:15:00 AM 0.75 33.35 0.056 7.08 17.15 14.15
2/14/2021 8:30:00 AM 0.77 33.386 0.054 7.06 16.83 14.18
2/14/2021 8:45:00 AM 0.8 33.44 0.054 7.09 16.71 14.24
2/14/2021 9:00:00 AM 0.83 33.494 0.056 7.12 16.94 14.27
2/14/2021 9:15:00 AM 0.87 33.566 0.056 7.13 16.88 14.31
2/14/2021 9:30:00 AM 0.91 33.638 0.056 7.14 17.15 14.34
2/14/2021 9:45:00 AM 0.95 33.71 0.056 7.15 17.22 14.34
2/14/2021 10:00:00 AM 0.99 33.782 0.056 7.15 16.87 14.36
2/14/2021 10:15:00 AM 1.03 33.854 0.056 7.15 16.8 14.35
2/14/2021 10:30:00 AM 1.1 33.98 0.053 7.13 16.96 14.37
2/14/2021 10:45:00 AM 1.18 34.124 0.056 7.16 16.88 14.37
2/14/2021 11:00:00 AM 1.27 34.286 0.056 7.16 16.84 14.36
2/14/2021 11:15:00 AM 1.35 34.43 0.053 7.15 16.71 14.34
2/14/2021 11:30:00 AM 1.4 34.52 0.056 7.17 16.87 14.31
2/14/2021 11:45:00 AM 1.41 34.538 0.053 7.14 16.77 14.29
2/14/2021 12:00:00 PM 1.42 34.556 0.056 7.16 16.81 14.27
2/14/2021 12:15:00 PM 1.44 34.592 0.054 7.15 16.8 14.27
2/14/2021 12:30:00 PM 1.45 34.61 0.055 7.17 17.05 14.27
2/14/2021 12:45:00 PM 1.46 34.628 0.055 7.17 16.91 14.27
2/14/2021 1:00:00 PM 1.46 34.628 0.055 7.17 16.86 14.28
2/14/2021 1:15:00 PM 1.44 34.592 0.055 7.17 16.85 14.28
2/14/2021 1:30:00 PM 1.42 34.556 0.055 7.17 16.89 14.26
2/14/2021 1:45:00 PM 1.42 34.556 0.054 7.14 16.8 14.28
2/14/2021 2:00:00 PM 1.41 34.538 0.054 7.14 16.71 14.28
2/14/2021 2:15:00 PM 1.4 34.52 0.055 7.15 16.64 14.28
2/14/2021 2:30:00 PM 1.39 34.502 0.055 7.17 16.74 14.29
2/14/2021 2:45:00 PM 1.36 34.448 0.055 7.17 17.14 14.26
2/14/2021 3:00:00 PM 1.35 34.43 0.055 7.17 17.05 14.28
2/14/2021 3:15:00 PM 1.36 34.448 0.052 7.14 16.98 14.28
2/14/2021 3:30:00 PM 1.33 34.394 0.055 7.16 16.71 14.28
2/14/2021 3:45:00 PM 1.29 34.322 0.055 7.17 17.01 14.26
2/14/2021 4:00:00 PM 1.26 34.268 0.052 7.12 17.3 14.24
2/14/2021 4:15:00 PM 1.22 34.196 0.055 7.15 17.02 14.21
2/14/2021 4:30:00 PM 1.19 34.142 0.052 7.1 16.78 14.2
2/14/2021 4:45:00 PM 1.15 34.07 0.052 7.1 16.93 14.18
2/14/2021 5:00:00 PM 1.11 33.998 0.054 7.1 16.66 14.14
2/14/2021 5:15:00 PM 1.07 33.926 0.054 7.09 17.36 14.11
2/14/2021 5:30:00 PM 1.03 33.854 0.055 7.1 16.95 14.08
2/14/2021 5:45:00 PM 1 33.8 0.055 7.08 17.2 14.04
2/14/2021 6:00:00 PM 0.96 33.728 0.055 7.08 16.86 14.03
2/14/2021 6:15:00 PM 0.94 33.692 0.053 7.04 16.84 14.01
2/14/2021 6:30:00 PM 0.91 33.638 0.055 7.02 16.96 13.99
2/14/2021 6:45:00 PM 0.88 33.584 0.055 7.06 17.05 13.97
2/14/2021 7:00:00 PM 0.87 33.566 0.055 7.05 17.01 13.97
2/14/2021 7:15:00 PM 0.85 33.53 0.055 7.05 17.01 13.96
2/14/2021 7:30:00 PM 0.83 33.494 0.055 7.05 17.06 13.96
2/14/2021 7:45:00 PM 0.82 33.476 0.055 7.05 16.93 13.97
2/14/2021 8:00:00 PM 0.79 33.422 0.055 7.02 17.12 13.96
2/14/2021 8:15:00 PM 0.77 33.386 0.055 7.05 17.32 13.97
2/14/2021 8:30:00 PM 0.75 33.35 0.055 7.05 17.11 13.99
2/14/2021 8:45:00 PM 0.74 33.332 0.055 7.04 17.24 13.96
2/14/2021 9:00:00 PM 0.72 33.296 0.053 7.02 17.09 13.99
2/14/2021 9:15:00 PM 0.71 33.278 0.055 7.05 17.04 14
2/14/2021 9:30:00 PM 0.7 33.26 0.055 7.04 17.27 14
2/14/2021 9:45:00 PM 0.7 33.26 0.055 7.05 17.19 14.01
2/14/2021 10:00:00 PM 0.69 33.242 0.055 7.01 17.37 14
2/14/2021 10:15:00 PM 0.68 33.224 0.055 7.05 17.09 13.99
2/14/2021 10:30:00 PM 0.68 33.224 0.053 7.01 16.91 14
2/14/2021 10:45:00 PM 0.68 33.224 0.055 7.05 17 14.01
2/14/2021 11:00:00 PM 0.68 33.224 0.056 7.05 16.97 14
2/14/2021 11:15:00 PM 0.68 33.224 0.056 7.05 17.19 14.02
2/14/2021 11:30:00 PM 0.67 33.206 0.056 7.04 17.21 14
2/14/2021 11:45:00 PM 0.67 33.206 0.056 7.04 17.37 14
2/15/2021 12:00:00 AM 0.66 33.188 0.056 7.04 17.08 14
2/15/2021 12:15:00 AM 0.66 33.188 0.056 7.05 17.28 14
2/15/2021 12:30:00 AM 0.67 33.206 0.056 7.05 17.24 14.02
2/15/2021 12:45:00 AM 0.68 33.224 0.056 7.05 17.41 14.02
2/15/2021 1:00:00 AM 0.69 33.242 0.056 7.05 17.44 13.99
2/15/2021 1:15:00 AM 0.7 33.26 0.056 7.04 17.19 13.98
2/15/2021 1:30:00 AM 0.7 33.26 0.056 7.04 17.24 13.99
2/15/2021 1:45:00 AM 0.71 33.278 0.056 7.05 17.6 13.99
2/15/2021 2:00:00 AM 0.72 33.296 0.056 7.05 17.36 13.99
2/15/2021 2:15:00 AM 0.72 33.296 0.056 7.04 17.88 13.98
2/15/2021 2:30:00 AM 0.72 33.296 0.056 7.05 17.27 13.97
2/15/2021 2:45:00 AM 0.72 33.296 0.056 7.05 17.16 13.97
2/15/2021 3:00:00 AM 0.73 33.314 0.056 7.04 17.28 13.97
2/15/2021 3:15:00 AM 0.73 33.314 0.056 7.06 17.65 13.96
2/15/2021 3:30:00 AM 0.74 33.332 0.056 7.05 17.66 13.97
2/15/2021 3:45:00 AM 0.73 33.314 0.056 7.01 17.54 13.99
2/15/2021 4:00:00 AM 0.74 33.332 0.056 7.05 17.4 13.95
2/15/2021 4:15:00 AM 0.74 33.332 0.056 7.05 17.43 13.98
2/15/2021 4:30:00 AM 0.74 33.332 0.054 7.02 17.31 13.95
2/15/2021 4:45:00 AM 0.74 33.332 0.056 7.05 17.36 13.95
2/15/2021 5:00:00 AM 0.72 33.296 0.056 7.05 17.36 13.97
2/15/2021 5:15:00 AM 0.72 33.296 0.056 7.05 17.34 13.97
2/15/2021 5:30:00 AM 0.72 33.296 0.056 7.05 17.68 13.96
2/15/2021 5:45:00 AM 0.71 33.278 0.056 7.05 17.09 13.95
2/15/2021 6:00:00 AM 0.71 33.278 0.056 7.05 17.29 13.95
2/15/2021 6:15:00 AM 0.71 33.278 0.056 7.05 17.34 13.97
2/15/2021 6:30:00 AM 0.71 33.278 0.056 7.06 17.43 13.96
2/15/2021 6:45:00 AM 0.7 33.26 0.056 7.05 17.38 13.98
2/15/2021 7:00:00 AM 0.69 33.242 0.056 7.04 17.72 13.96
2/15/2021 7:15:00 AM 0.69 33.242 0.056 7.06 17.27 13.99
2/15/2021 7:30:00 AM 0.7 33.26 0.056 7.06 17.33 14.02
2/15/2021 7:45:00 AM 0.71 33.278 0.056 7.03 17.07 14.06
2/15/2021 8:00:00 AM 0.7 33.26 0.054 7.07 16.94 14.13
2/15/2021 8:15:00 AM 0.7 33.26 0.056 7.1 17.19 14.19
2/15/2021 8:30:00 AM 0.72 33.296 0.056 7.11 17.3 14.21
2/15/2021 8:45:00 AM 0.73 33.314 0.056 7.1 17.48 14.21
2/15/2021 9:00:00 AM 0.75 33.35 0.056 7.11 17.23 14.26
2/15/2021 9:15:00 AM 0.77 33.386 0.055 7.1 17.46 14.29
2/15/2021 9:30:00 AM 0.81 33.458 0.055 7.11 16.81 14.35
2/15/2021 9:45:00 AM 0.84 33.512 0.056 7.14 17.53 14.36
2/15/2021 10:00:00 AM 0.87 33.566 0.056 7.15 17.13 14.35
2/15/2021 10:15:00 AM 0.91 33.638 0.056 7.15 17.17 14.38
2/15/2021 10:30:00 AM 0.95 33.71 0.056 7.16 17 14.37
2/15/2021 10:45:00 AM 0.98 33.764 0.056 7.17 16.89 14.38
2/15/2021 11:00:00 AM 1.01 33.818 0.056 7.17 17.24 14.36
2/15/2021 11:15:00 AM 1.02 33.836 0.056 7.17 17.18 14.35
2/15/2021 11:30:00 AM 1.03 33.854 0.056 7.17 16.99 14.34
2/15/2021 11:45:00 AM 1.05 33.89 0.055 7.14 17.28 14.35
2/15/2021 12:00:00 PM 1.06 33.908 0.053 7.14 17.04 14.35
2/15/2021 12:15:00 PM 1.07 33.926 0.056 7.17 16.84 14.34
2/15/2021 12:30:00 PM 1.06 33.908 0.056 7.18 16.98 14.33
2/15/2021 12:45:00 PM 1.07 33.926 0.056 7.17 17.16 14.33
2/15/2021 1:00:00 PM 1.08 33.944 0.053 7.14 16.92 14.35
2/15/2021 1:15:00 PM 1.1 33.98 0.053 7.14 16.93 14.36
2/15/2021 1:30:00 PM 1.12 34.016 0.056 7.18 17.08 14.34
2/15/2021 1:45:00 PM 1.14 34.052 0.056 7.18 17.07 14.35
2/15/2021 2:00:00 PM 1.16 34.088 0.056 7.17 17.31 14.32
2/15/2021 2:15:00 PM 1.21 34.178 0.056 7.17 16.91 14.33
2/15/2021 2:30:00 PM 1.24 34.232 0.056 7.19 17.06 14.32
2/15/2021 2:45:00 PM 1.29 34.322 0.055 7.19 17 14.32
2/15/2021 3:00:00 PM 1.32 34.376 0.056 7.18 17.21 14.3
2/15/2021 3:15:00 PM 1.34 34.412 0.053 7.15 16.43 14.27
2/15/2021 3:30:00 PM 1.33 34.394 0.053 7.15 17.17 14.25
2/15/2021 3:45:00 PM 1.32 34.376 0.056 7.18 17.07 14.24
2/15/2021 4:00:00 PM 1.29 34.322 0.055 7.17 17.06 14.2
2/15/2021 4:15:00 PM 1.26 34.268 0.056 7.16 17.06 14.17
2/15/2021 4:30:00 PM 1.23 34.214 0.056 7.15 17.58 14.13
2/15/2021 4:45:00 PM 1.18 34.124 0.055 7.13 17.11 14.13
2/15/2021 5:00:00 PM 1.14 34.052 0.055 7.13 17.32 14.1
2/15/2021 5:15:00 PM 1.1 33.98 0.056 7.12 17.38 14.07
2/15/2021 5:30:00 PM 1.06 33.908 0.056 7.1 16.93 14.03
2/15/2021 5:45:00 PM 1.03 33.854 0.056 7.09 17.14 13.99
2/15/2021 6:00:00 PM 1 33.8 0.056 7.08 17.25 13.97
2/15/2021 6:15:00 PM 0.97 33.746 0.056 7.08 17.2 13.95
2/15/2021 6:30:00 PM 0.95 33.71 0.054 7.04 17.16 13.93
2/15/2021 6:45:00 PM 0.93 33.674 0.056 7.06 17.3 13.91
2/15/2021 7:00:00 PM 0.91 33.638 0.056 7.06 17.19 13.89
2/15/2021 7:15:00 PM 0.9 33.62 0.056 7.06 17.3 13.89
2/15/2021 7:30:00 PM 0.89 33.602 0.056 7.06 17.59 13.89
2/15/2021 7:45:00 PM 0.89 33.602 0.056 7.06 17.09 13.88
2/15/2021 8:00:00 PM 0.88 33.584 0.056 7.03 17.12 13.87
2/15/2021 8:15:00 PM 0.87 33.566 0.053 7.03 16.76 13.88
2/15/2021 8:30:00 PM 0.88 33.584 0.056 7.05 17.43 13.87
2/15/2021 8:45:00 PM 0.88 33.584 0.056 7.02 17.52 13.87
2/15/2021 9:00:00 PM 0.88 33.584 0.056 7.03 17.28 13.86
2/15/2021 9:15:00 PM 0.87 33.566 0.053 7.02 17.3 13.85
2/15/2021 9:30:00 PM 0.88 33.584 0.055 7.03 17 13.86
2/15/2021 9:45:00 PM 0.87 33.566 0.056 7.06 17.23 13.87
2/15/2021 10:00:00 PM 0.87 33.566 0.055 7.03 17.19 13.85
2/15/2021 10:15:00 PM 0.88 33.584 0.056 7.05 17.42 13.85
2/15/2021 10:30:00 PM 0.88 33.584 0.056 7.05 17.23 13.83
2/15/2021 10:45:00 PM 0.89 33.602 0.056 7.06 16.92 13.84
2/15/2021 11:00:00 PM 0.9 33.62 0.055 7.02 17.4 13.81
2/15/2021 11:15:00 PM 0.9 33.62 0.053 7.02 17.07 13.82
2/15/2021 11:30:00 PM 0.9 33.62 0.055 7.06 17.13 13.83
2/15/2021 11:45:00 PM 0.91 33.638 0.053 7.02 17.27 13.81
2/16/2021 12:00:00 AM 0.92 33.656 0.056 7.05 17.46 13.8
2/16/2021 12:15:00 AM 0.92 33.656 0.056 7.05 17.55 13.79
2/16/2021 12:30:00 AM 0.93 33.674 0.056 7.05 17.35 13.82
2/16/2021 12:45:00 AM 0.93 33.674 0.056 7.05 17.31 13.79
2/16/2021 1:00:00 AM 0.94 33.692 0.057 7.06 17.29 13.78
2/16/2021 1:15:00 AM 0.94 33.692 0.057 7.06 17.67 13.79
2/16/2021 1:30:00 AM 0.94 33.692 0.058 7.06 17.52 13.78
2/16/2021 1:45:00 AM 0.94 33.692 0.058 7.06 17.56 13.77
2/16/2021 2:00:00 AM 0.93 33.674 0.058 7.06 17.37 13.78
2/16/2021 2:15:00 AM 0.92 33.656 0.059 7.07 17.48 13.77
2/16/2021 2:30:00 AM 0.91 33.638 0.06 7.03 17.22 13.77
2/16/2021 2:45:00 AM 0.91 33.638 0.061 7.07 17.54 13.77
2/16/2021 3:00:00 AM 0.89 33.602 0.063 7.07 17.69 13.78
2/16/2021 3:15:00 AM 0.88 33.584 0.064 7.05 17.51 13.78
2/16/2021 3:30:00 AM 0.87 33.566 0.066 7.07 17.47 13.77
2/16/2021 3:45:00 AM 0.85 33.53 0.07 7.08 17.78 13.78
2/16/2021 4:00:00 AM 0.84 33.512 0.072 7.07 18.26 13.77
2/16/2021 4:15:00 AM 0.83 33.494 0.071 7.05 17.52 13.79
2/16/2021 4:30:00 AM 0.81 33.458 0.073 7.07 18.49 13.79
2/16/2021 4:45:00 AM 0.79 33.422 0.073 7.08 18.12 13.81
2/16/2021 5:00:00 AM 0.77 33.386 0.074 7.06 18.45 13.82
2/16/2021 5:15:00 AM 0.74 33.332 0.075 7.07 18.73 13.83
2/16/2021 5:30:00 AM 0.72 33.296 0.076 7.07 18.66 13.84
2/16/2021 5:45:00 AM 0.7 33.26 0.079 7.07 19.27 13.86
2/16/2021 6:00:00 AM 0.67 33.206 0.084 7.07 19.55 13.86
2/16/2021 6:15:00 AM 0.57 33.026 0.095 7.09 22.82 13.9
2/16/2021 6:30:00 AM 0.5 32.9 0.105 7.14 22.43 13.96
2/16/2021 6:45:00 AM 0.49 32.882 0.105 7.15 20.27 13.96
2/16/2021 7:00:00 AM 0.47 32.846 0.105 7.15 20.46 13.99
2/16/2021 7:15:00 AM 0.46 32.828 0.104 7.15 21.15 14.01
2/16/2021 7:30:00 AM 0.45 32.81 0.103 7.15 22.62 14.03
2/16/2021 7:45:00 AM 0.45 32.81 0.101 7.15 21.75 14.07
2/16/2021 8:00:00 AM 0.46 32.828 0.099 7.15 21.66 14.11
2/16/2021 8:15:00 AM 0.46 32.828 0.098 7.15 22.31 14.13
2/16/2021 8:30:00 AM 0.48 32.864 0.098 7.15 21.81 14.16
2/16/2021 8:45:00 AM 0.49 32.882 0.097 7.15 22.28 14.18
2/16/2021 9:00:00 AM 0.51 32.918 0.097 7.15 23.63 14.2
2/16/2021 9:15:00 AM 0.57 33.026 0.096 7.15 22.48 14.22
2/16/2021 9:30:00 AM 0.6 33.08 0.09 7.13 23.6 14.22
2/16/2021 9:45:00 AM 0.68 33.224 0.093 7.16 23.39 14.22
2/16/2021 10:00:00 AM 0.72 33.296 0.092 7.16 22.72 14.21
2/16/2021 10:15:00 AM 0.73 33.314 0.09 7.16 22.92 14.21
2/16/2021 10:30:00 AM 0.73 33.314 0.089 7.16 22.61 14.21
2/16/2021 10:45:00 AM 0.75 33.35 0.087 7.16 23.09 14.21
2/16/2021 11:00:00 AM 0.79 33.422 0.086 7.16 23.8 14.2
2/16/2021 11:15:00 AM 0.74 33.332 0.086 7.16 24.5 14.21
2/16/2021 11:30:00 AM 0.82 33.476 0.085 7.15 25.09 14.18
2/16/2021 11:45:00 AM 0.84 33.512 0.085 7.15 24.2 14.18
2/16/2021 12:00:00 PM 0.81 33.458 0.082 7.13 25.42 14.17
2/16/2021 12:15:00 PM 0.77 33.386 0.084 7.15 28.28 14.19
2/16/2021 12:30:00 PM 0.69 33.242 0.083 7.14 28.69 14.2
2/16/2021 12:45:00 PM 0.65 33.17 0.078 7.13 26.92 14.2
2/16/2021 1:00:00 PM 0.59 33.062 0.082 7.14 25.18 14.21
2/16/2021 1:15:00 PM 0.56 33.008 0.082 7.13 36.5 14.22
2/16/2021 1:30:00 PM 0.53 32.954 0.082 7.12 30.66 14.22
2/16/2021 1:45:00 PM 0.5 32.9 0.082 7.12 30.09 14.22
2/16/2021 2:00:00 PM 0.5 32.9 0.081 7.11 30.22 14.22
2/16/2021 2:15:00 PM 0.5 32.9 0.081 7.1 32.3 14.23
2/16/2021 2:30:00 PM 0.49 32.882 0.081 7.1 38 14.22
2/16/2021 2:45:00 PM 0.47 32.846 0.081 7.09 33.56 14.22
2/16/2021 3:00:00 PM 0.42 32.756 0.08 7.09 30.64 14.21
2/16/2021 3:15:00 PM 0.35 32.63 0.079 7.08 30.36 14.21
2/16/2021 3:30:00 PM 0.31 32.558 0.077 7.06 51.6 14.22
2/16/2021 3:45:00 PM 0.28 32.504 0.074 7.06 39 14.22
2/16/2021 4:00:00 PM 0.27 32.486 0.073 7.05 34.77 14.22
2/16/2021 4:15:00 PM 0.26 32.468 0.071 7.04 46.31 14.22
2/16/2021 4:30:00 PM 0.25 32.45 0.07 7.04 36.14 14.22
2/16/2021 4:45:00 PM 0.25 32.45 0.069 7.04 34.74 14.21
2/16/2021 5:00:00 PM 0.24 32.432 0.066 7 40.42 14.21
2/16/2021 5:15:00 PM 0.24 32.432 0.069 7.03 33.11 14.22
2/16/2021 5:30:00 PM 0.23 32.414 0.068 7.03 38.95 14.23
2/16/2021 5:45:00 PM 0.23 32.414 0.068 7.02 39.1 14.23
2/16/2021 6:00:00 PM 0.22 32.396 0.068 7.02 33.05 14.23
2/16/2021 6:15:00 PM 0.21 32.378 0.067 7.02 41.69 14.24
2/16/2021 6:30:00 PM 0.2 32.36 0.067 7.01 42.7 14.24
2/16/2021 6:45:00 PM 0.2 32.36 0.067 7.01 42.97 14.25
2/16/2021 7:00:00 PM 0.18 32.324 0.064 6.98 43.93 14.26
2/16/2021 7:15:00 PM 0.17 32.306 0.067 7.01 33.83 14.26
2/16/2021 7:30:00 PM 0.17 32.306 0.068 7.01 39.13 14.26
2/16/2021 7:45:00 PM 0.17 32.306 0.068 7.01 33.48 14.27
2/16/2021 8:00:00 PM 0.17 32.306 0.068 7 49.07 14.28
2/16/2021 8:15:00 PM 0.18 32.324 0.068 7.01 33.32 14.29
2/16/2021 8:30:00 PM 0.18 32.324 0.065 6.97 32.62 14.29
2/16/2021 8:45:00 PM 0.18 32.324 0.068 7 34.16 14.29
2/16/2021 9:00:00 PM 0.17 32.306 0.069 7 41.28 14.3
2/16/2021 9:15:00 PM 0.16 32.288 0.069 7 36.79 14.3
2/16/2021 9:30:00 PM 0.14 32.252 0.068 6.97 35.52 14.31
2/16/2021 9:45:00 PM 0.12 32.216 0.068 7 33.49 14.32
2/16/2021 10:00:00 PM 0.11 32.198 0.068 6.99 30.46 14.33
2/16/2021 10:15:00 PM 0.11 32.198 0.068 6.99 30.59 14.34
2/16/2021 10:30:00 PM 0.13 32.234 0.066 6.97 29.55 14.34
2/16/2021 10:45:00 PM 0.13 32.234 0.068 6.99 29.71 14.34
2/16/2021 11:00:00 PM 0.1 32.18 0.064 6.97 28.57 14.34
2/16/2021 11:15:00 PM 0.07 32.126 0.067 6.99 29.76 14.37
2/16/2021 11:30:00 PM 0.06 32.108 0.067 6.98 27.56 14.38
2/16/2021 11:45:00 PM 0.06 32.108 0.064 6.96 39.11 14.38
2/17/2021 12:00:00 AM 0.06 32.108 0.067 6.99 25.52 14.38
2/17/2021 12:15:00 AM 0.07 32.126 0.067 6.98 26.51 14.38
2/17/2021 12:30:00 AM 0.06 32.108 0.067 6.99 31.06 14.38
2/17/2021 12:45:00 AM 0.06 32.108 0.066 6.98 26.74 14.39
2/17/2021 1:00:00 AM 0.07 32.126 0.066 6.98 26.76 14.39
2/17/2021 1:15:00 AM 0.06 32.108 0.066 6.98 29.17 14.39
2/17/2021 1:30:00 AM 0.06 32.108 0.066 6.98 27.11 14.41
2/17/2021 1:45:00 AM 0.06 32.108 0.063 6.94 23.08 14.4
2/17/2021 2:00:00 AM 0.06 32.108 0.065 6.98 25.96 14.4
2/17/2021 2:15:00 AM 0.06 32.108 0.065 6.98 29.66 14.4
2/17/2021 2:30:00 AM 0.07 32.126 0.065 6.95 27.25 14.4
2/17/2021 2:45:00 AM 0.07 32.126 0.065 6.97 26.87 14.39
2/17/2021 3:00:00 AM 0.05 32.09 0.065 6.97 26.23 14.4
2/17/2021 3:15:00 AM 0.02 32.036 0.065 6.98 31.84 14.41
2/17/2021 3:30:00 AM 0.01 32.018 0.065 6.97 28.62 14.42
2/17/2021 3:45:00 AM 0.01 32.018 0.064 6.98 24.91 14.42
2/17/2021 4:00:00 AM -0.01 31.982 0.064 6.97 25.48 14.43
2/17/2021 4:15:00 AM -0.01 31.982 0.064 6.97 27.03 14.43
2/17/2021 4:30:00 AM -0.01 31.982 0.064 6.97 26.24 14.44
2/17/2021 4:45:00 AM -0.01 31.982 0.064 6.97 23.72 14.44
2/17/2021 5:00:00 AM -0.01 31.982 0.064 6.97 25.6 14.45
2/17/2021 5:15:00 AM -0.02 31.964 0.064 6.97 26.05 14.46
2/17/2021 5:30:00 AM -0.02 31.964 0.064 6.97 24.5 14.45
2/17/2021 5:45:00 AM -0.02 31.964 0.064 6.97 24.72 14.46
2/17/2021 6:00:00 AM -0.01 31.982 0.064 6.97 25.5 14.47
2/17/2021 6:15:00 AM -0.01 31.982 0.064 6.96 26.15 14.47
2/17/2021 6:30:00 AM 0 32 0.064 6.96 23.99 14.48
2/17/2021 6:45:00 AM 0 32 0.064 6.96 22.68 14.48
2/17/2021 7:00:00 AM 0 32 0.064 6.97 24.94 14.48
2/17/2021 7:15:00 AM 0 32 0.064 6.97 25.26 14.5
2/17/2021 7:30:00 AM 0 32 0.063 6.97 23.66 14.51
2/17/2021 7:45:00 AM 0.01 32.018 0.061 6.95 23.73 14.52
2/17/2021 8:00:00 AM 0.02 32.036 0.063 6.98 24.59 14.55
2/17/2021 8:15:00 AM 0.05 32.09 0.063 6.99 24.16 14.58
2/17/2021 8:30:00 AM 0.06 32.108 0.063 6.99 23.14 14.59
2/17/2021 8:45:00 AM 0.07 32.126 0.061 6.97 27.3 14.6
2/17/2021 9:00:00 AM 0.07 32.126 0.064 7 23.82 14.61
2/17/2021 9:15:00 AM 0.08 32.144 0.064 7 23.26 14.61
2/17/2021 9:30:00 AM 0.11 32.198 0.063 6.98 23.33 14.62
2/17/2021 9:45:00 AM 0.12 32.216 0.064 7.01 23.7 14.6
2/17/2021 10:00:00 AM 0.16 32.288 0.064 7.01 24.64 14.61
2/17/2021 10:15:00 AM 0.21 32.378 0.065 7.01 24.12 14.61
2/17/2021 10:30:00 AM 0.25 32.45 0.065 7.02 22.11 14.62
2/17/2021 10:45:00 AM 0.31 32.558 0.065 7.03 22.75 14.6
2/17/2021 11:00:00 AM 0.39 32.702 0.066 7.03 22.22 14.6
2/17/2021 11:15:00 AM 0.47 32.846 0.066 7.03 22.02 14.58
2/17/2021 11:30:00 AM 0.56 33.008 0.064 7.02 20.52 14.57
2/17/2021 11:45:00 AM 0.64 33.152 0.067 7.05 22.27 14.56
2/17/2021 12:00:00 PM 0.69 33.242 0.067 7.05 22.06 14.55
2/17/2021 12:15:00 PM 0.72 33.296 0.068 7.06 21.74 14.54
2/17/2021 12:30:00 PM 0.77 33.386 0.068 7.06 21.44 14.54
2/17/2021 12:45:00 PM 0.8 33.44 0.068 7.07 21.27 14.53
2/17/2021 1:00:00 PM 0.83 33.494 0.065 7.04 21.48 14.52
2/17/2021 1:15:00 PM 0.83 33.494 0.068 7.07 22.16 14.52
2/17/2021 1:30:00 PM 0.82 33.476 0.068 7.07 22.05 14.52
2/17/2021 1:45:00 PM 0.78 33.404 0.068 7.07 22.73 14.52
2/17/2021 2:00:00 PM 0.71 33.278 0.068 7.08 22.32 14.53
2/17/2021 2:15:00 PM 0.67 33.206 0.065 7.05 23.52 14.54
2/17/2021 2:30:00 PM 0.65 33.17 0.068 7.08 21.62 14.55
2/17/2021 2:45:00 PM 0.67 33.206 0.069 7.08 21.45 14.55
2/17/2021 3:00:00 PM 0.68 33.224 0.068 7.08 22.15 14.54
2/17/2021 3:15:00 PM 0.66 33.188 0.068 7.08 20.93 14.53
2/17/2021 3:30:00 PM 0.61 33.098 0.067 7.08 21.69 14.53
2/17/2021 3:45:00 PM 0.59 33.062 0.066 7.07 21.5 14.53
2/17/2021 4:00:00 PM 0.54 32.972 0.062 7.03 20.41 14.53
2/17/2021 4:15:00 PM 0.47 32.846 0.064 7.05 23.44 14.54
2/17/2021 4:30:00 PM 0.4 32.72 0.064 7.05 22.85 14.54
2/17/2021 4:45:00 PM 0.33 32.594 0.063 7.04 22.46 14.54
2/17/2021 5:00:00 PM 0.28 32.504 0.063 7.03 22.3 14.55
2/17/2021 5:15:00 PM 0.24 32.432 0.062 7.03 22.43 14.54
2/17/2021 5:30:00 PM 0.21 32.378 0.059 6.99 24.24 14.52
2/17/2021 5:45:00 PM 0.19 32.342 0.061 7.01 22.49 14.51
2/17/2021 6:00:00 PM 0.17 32.306 0.061 7 22.17 14.48
2/17/2021 6:15:00 PM 0.15 32.27 0.061 6.99 22.79 14.48
2/17/2021 6:30:00 PM 0.15 32.27 0.058 6.96 20.32 14.47
2/17/2021 6:45:00 PM 0.15 32.27 0.061 6.98 22.45 14.47
2/17/2021 7:00:00 PM 0.15 32.27 0.061 6.95 24.79 14.45
2/17/2021 7:15:00 PM 0.16 32.288 0.061 6.98 24.33 14.46
2/17/2021 7:30:00 PM 0.16 32.288 0.06 6.98 25.41 14.46
2/17/2021 7:45:00 PM 0.16 32.288 0.06 6.98 24.64 14.45
2/17/2021 8:00:00 PM 0.17 32.306 0.06 6.98 24.79 14.45
2/17/2021 8:15:00 PM 0.19 32.342 0.06 6.97 23.89 14.44
2/17/2021 8:30:00 PM 0.2 32.36 0.06 6.97 24.43 14.43
2/17/2021 8:45:00 PM 0.22 32.396 0.06 6.95 26.19 14.43
2/17/2021 9:00:00 PM 0.23 32.414 0.06 6.97 23.18 14.41
2/17/2021 9:15:00 PM 0.24 32.432 0.061 6.98 23.74 14.41
2/17/2021 9:30:00 PM 0.25 32.45 0.061 6.98 24.49 14.41
2/17/2021 9:45:00 PM 0.26 32.468 0.061 6.98 27 14.41
2/17/2021 10:00:00 PM 0.26 32.468 0.061 6.93 22.27 14.4
2/17/2021 10:15:00 PM 0.27 32.486 0.058 6.96 24.59 14.41
2/17/2021 10:30:00 PM 0.27 32.486 0.061 6.98 24.56 14.39
2/17/2021 10:45:00 PM 0.27 32.486 0.061 6.98 23.47 14.41
2/17/2021 11:00:00 PM 0.28 32.504 0.061 6.98 23.96 14.39
2/17/2021 11:15:00 PM 0.28 32.504 0.061 6.98 22.82 14.4
2/17/2021 11:30:00 PM 0.28 32.504 0.061 6.98 24.73 14.38
2/17/2021 11:45:00 PM 0.29 32.522 0.06 6.98 23.01 14.38
2/18/2021 12:00:00 AM 0.29 32.522 0.06 6.98 23.61 14.37
2/18/2021 12:15:00 AM 0.29 32.522 0.06 6.98 24.21 14.37
2/18/2021 12:30:00 AM 0.29 32.522 0.06 6.98 22.61 14.37
2/18/2021 12:45:00 AM 0.28 32.504 0.058 6.94 23.17 14.37
2/18/2021 1:00:00 AM 0.25 32.45 0.058 6.95 22.51 14.39
2/18/2021 1:15:00 AM 0.2 32.36 0.06 6.98 22.6 14.39
2/18/2021 1:30:00 AM 0.15 32.27 0.06 6.98 21.87 14.4
2/18/2021 1:45:00 AM 0.14 32.252 0.06 6.97 21.96 14.41
2/18/2021 2:00:00 AM 0.12 32.216 0.06 6.98 22.24 14.42
2/18/2021 2:15:00 AM 0.1 32.18 0.06 6.98 22.19 14.43
2/18/2021 2:30:00 AM 0.08 32.144 0.06 6.98 22.65 14.43
2/18/2021 2:45:00 AM 0.07 32.126 0.06 6.93 22.19 14.43
2/18/2021 3:00:00 AM 0.06 32.108 0.06 6.98 22.93 14.43
2/18/2021 3:15:00 AM 0.06 32.108 0.06 6.98 21.41 14.44
2/18/2021 3:30:00 AM 0.09 32.162 0.06 6.98 21.99 14.43
2/18/2021 3:45:00 AM 0.12 32.216 0.06 6.98 22.12 14.43
2/18/2021 4:00:00 AM 0.16 32.288 0.06 6.98 22.84 14.41
2/18/2021 4:15:00 AM 0.19 32.342 0.06 6.98 21.76 14.4
2/18/2021 4:30:00 AM 0.22 32.396 0.057 6.96 22.23 14.39
2/18/2021 4:45:00 AM 0.23 32.414 0.06 6.98 21.28 14.38
2/18/2021 5:00:00 AM 0.22 32.396 0.06 6.98 21.32 14.38
2/18/2021 5:15:00 AM 0.21 32.378 0.057 6.96 22.12 14.37
2/18/2021 5:30:00 AM 0.21 32.378 0.057 6.96 21.16 14.37
2/18/2021 5:45:00 AM 0.22 32.396 0.057 6.96 20.91 14.37
2/18/2021 6:00:00 AM 0.22 32.396 0.057 6.96 20.7 14.38
2/18/2021 6:15:00 AM 0.23 32.414 0.06 6.99 21.7 14.37
2/18/2021 6:30:00 AM 0.26 32.468 0.06 6.96 21.24 14.37
2/18/2021 6:45:00 AM 0.27 32.486 0.06 6.98 21.25 14.36
2/18/2021 7:00:00 AM 0.29 32.522 0.058 6.96 22.83 14.36
2/18/2021 7:15:00 AM 0.3 32.54 0.06 6.94 21.38 14.35
2/18/2021 7:30:00 AM 0.3 32.54 0.058 6.98 20.75 14.37
2/18/2021 7:45:00 AM 0.32 32.576 0.059 6.97 20.38 14.38
2/18/2021 8:00:00 AM 0.34 32.612 0.06 7.01 21.95 14.43
2/18/2021 8:15:00 AM 0.35 32.63 0.06 7.01 21.34 14.44
2/18/2021 8:30:00 AM 0.36 32.648 0.06 7.02 21.6 14.45
2/18/2021 8:45:00 AM 0.37 32.666 0.06 7.02 21.04 14.45
2/18/2021 9:00:00 AM 0.35 32.63 0.06 7.02 21.95 14.49
2/18/2021 9:15:00 AM 0.32 32.576 0.06 7.03 20.16 14.48
2/18/2021 9:30:00 AM 0.28 32.504 0.058 7 21.28 14.51
2/18/2021 9:45:00 AM 0.27 32.486 0.06 7.03 21.25 14.53
2/18/2021 10:00:00 AM 0.29 32.522 0.06 7.04 20.6 14.56
2/18/2021 10:15:00 AM 0.33 32.594 0.057 7.01 22.38 14.56
2/18/2021 10:30:00 AM 0.4 32.72 0.06 7.05 21.49 14.55
2/18/2021 10:45:00 AM 0.47 32.846 0.06 7.03 20.77 14.56
2/18/2021 11:00:00 AM 0.53 32.954 0.06 7.06 21.1 14.54
2/18/2021 11:15:00 AM 0.56 33.008 0.06 7.06 22.22 14.52
2/18/2021 11:30:00 AM 0.57 33.026 0.06 7.06 20.34 14.5
2/18/2021 11:45:00 AM 0.57 33.026 0.06 7.02 20.91 14.51
2/18/2021 12:00:00 PM 0.56 33.008 0.06 7.06 21.16 14.5
2/18/2021 12:15:00 PM 0.56 33.008 0.06 7.05 21.19 14.49
2/18/2021 12:30:00 PM 0.55 32.99 0.06 7.05 20.65 14.5
2/18/2021 12:45:00 PM 0.55 32.99 0.06 7.06 19.72 14.5
2/18/2021 1:00:00 PM 0.57 33.026 0.057 7.02 20.53 14.49
2/18/2021 1:15:00 PM 0.57 33.026 0.059 7.06 19.98 14.48
2/18/2021 1:30:00 PM 0.57 33.026 0.059 7.06 20.34 14.48
2/18/2021 1:45:00 PM 0.56 33.008 0.059 7.05 20.27 14.47
2/18/2021 2:00:00 PM 0.56 33.008 0.059 7.06 20.86 14.47
2/18/2021 2:15:00 PM 0.56 33.008 0.059 7.03 20.16 14.49
2/18/2021 2:30:00 PM 0.56 33.008 0.057 7.04 19.59 14.49
2/18/2021 2:45:00 PM 0.55 32.99 0.059 7.06 20.23 14.5
2/18/2021 3:00:00 PM 0.56 33.008 0.059 7.06 20.5 14.5
2/18/2021 3:15:00 PM 0.58 33.044 0.056 7.03 19.32 14.49
2/18/2021 3:30:00 PM 0.58 33.044 0.059 7.07 20.63 14.5
2/18/2021 3:45:00 PM 0.59 33.062 0.059 7.06 20.52 14.49
2/18/2021 4:00:00 PM 0.59 33.062 0.059 7.06 20.45 14.48
2/18/2021 4:15:00 PM 0.58 33.044 0.059 7.06 20.51 14.46
2/18/2021 4:30:00 PM 0.57 33.026 0.059 7.06 20.13 14.45
2/18/2021 4:45:00 PM 0.55 32.99 0.059 7.05 20.5 14.44
2/18/2021 5:00:00 PM 0.53 32.954 0.058 7.01 20.65 14.41
2/18/2021 5:15:00 PM 0.5 32.9 0.058 7.04 20.85 14.39
2/18/2021 5:30:00 PM 0.47 32.846 0.058 7.03 20.42 14.36
2/18/2021 5:45:00 PM 0.45 32.81 0.058 7.02 20.42 14.34
2/18/2021 6:00:00 PM 0.43 32.774 0.058 7.01 20.6 14.31
2/18/2021 6:15:00 PM 0.42 32.756 0.058 7.01 20.65 14.3
2/18/2021 6:30:00 PM 0.41 32.738 0.058 7 21.21 14.28
2/18/2021 6:45:00 PM 0.4 32.72 0.056 6.98 20.32 14.28
2/18/2021 7:00:00 PM 0.39 32.702 0.058 7 21.12 14.28
2/18/2021 7:15:00 PM 0.39 32.702 0.058 7 20.82 14.27
2/18/2021 7:30:00 PM 0.39 32.702 0.058 7 20.6 14.27
2/18/2021 7:45:00 PM 0.39 32.702 0.058 6.97 20.41 14.26
2/18/2021 8:00:00 PM 0.39 32.702 0.055 6.97 19.37 14.26
2/18/2021 8:15:00 PM 0.38 32.684 0.058 6.99 21.11 14.26
2/18/2021 8:30:00 PM 0.38 32.684 0.058 7 20.87 14.26
2/18/2021 8:45:00 PM 0.38 32.684 0.055 6.97 19.61 14.26
2/18/2021 9:00:00 PM 0.38 32.684 0.058 6.94 20.52 14.24
2/18/2021 9:15:00 PM 0.38 32.684 0.058 6.99 20.91 14.24
2/18/2021 9:30:00 PM 0.4 32.72 0.055 6.97 19.8 14.24
2/18/2021 9:45:00 PM 0.4 32.72 0.055 6.96 19.53 14.25
2/18/2021 10:00:00 PM 0.39 32.702 0.058 6.99 20.35 14.24
2/18/2021 10:15:00 PM 0.39 32.702 0.058 6.99 20.7 14.24
2/18/2021 10:30:00 PM 0.39 32.702 0.058 6.99 20.93 14.24
2/18/2021 10:45:00 PM 0.39 32.702 0.058 6.99 20.56 14.23
2/18/2021 11:00:00 PM 0.38 32.684 0.058 6.99 20.85 14.24
2/18/2021 11:15:00 PM 0.37 32.666 0.058 6.99 21.69 14.24
2/18/2021 11:30:00 PM 0.34 32.612 0.056 6.96 21.6 14.25
2/18/2021 11:45:00 PM 0.32 32.576 0.057 6.94 20.34 14.25
2/19/2021 12:00:00 AM 0.3 32.54 0.057 6.99 20.99 14.25
2/19/2021 12:15:00 AM 0.3 32.54 0.057 6.99 20.71 14.25
2/19/2021 12:30:00 AM 0.29 32.522 0.057 6.99 21.3 14.25
2/19/2021 12:45:00 AM 0.3 32.54 0.057 6.99 21.79 14.25
2/19/2021 1:00:00 AM 0.31 32.558 0.057 6.99 21.33 14.25
2/19/2021 1:15:00 AM 0.32 32.576 0.057 6.99 20.35 14.24
2/19/2021 1:30:00 AM 0.34 32.612 0.057 6.99 21.52 14.23
2/19/2021 1:45:00 AM 0.36 32.648 0.057 6.99 20.75 14.23
2/19/2021 2:00:00 AM 0.37 32.666 0.057 6.99 20.4 14.22
2/19/2021 2:15:00 AM 0.37 32.666 0.057 6.98 20.25 14.21
2/19/2021 2:30:00 AM 0.37 32.666 0.055 6.96 21.2 14.21
2/19/2021 2:45:00 AM 0.38 32.684 0.057 6.99 20.09 14.21
2/19/2021 3:00:00 AM 0.38 32.684 0.055 6.95 19.95 14.21
2/19/2021 3:15:00 AM 0.38 32.684 0.057 6.99 20.29 14.2
2/19/2021 3:30:00 AM 0.37 32.666 0.057 6.96 20.54 14.2
2/19/2021 3:45:00 AM 0.36 32.648 0.057 6.99 22.19 14.21
2/19/2021 4:00:00 AM 0.35 32.63 0.057 6.99 21.05 14.2
2/19/2021 4:15:00 AM 0.34 32.612 0.057 6.98 21.34 14.2
2/19/2021 4:30:00 AM 0.33 32.594 0.055 6.97 18.87 14.2
2/19/2021 4:45:00 AM 0.33 32.594 0.058 6.99 20.44 14.2
2/19/2021 5:00:00 AM 0.34 32.612 0.058 6.98 20.62 14.2
2/19/2021 5:15:00 AM 0.35 32.63 0.057 6.99 21.04 14.19
2/19/2021 5:30:00 AM 0.37 32.666 0.057 6.99 20.27 14.2
2/19/2021 5:45:00 AM 0.39 32.702 0.057 6.99 20.47 14.18
2/19/2021 6:00:00 AM 0.39 32.702 0.057 6.99 19.93 14.17
2/19/2021 6:15:00 AM 0.37 32.666 0.057 6.96 20.26 14.19
2/19/2021 6:30:00 AM 0.34 32.612 0.057 6.99 20.02 14.18
2/19/2021 6:45:00 AM 0.31 32.558 0.057 6.99 19.91 14.19
2/19/2021 7:00:00 AM 0.3 32.54 0.057 6.99 20.27 14.21
2/19/2021 7:15:00 AM 0.29 32.522 0.057 6.99 19.96 14.21
2/19/2021 7:30:00 AM 0.3 32.54 0.057 7 19.6 14.24
2/19/2021 7:45:00 AM 0.31 32.558 0.057 7 20.29 14.25
2/19/2021 8:00:00 AM 0.32 32.576 0.057 7.01 19.5 14.27
2/19/2021 8:15:00 AM 0.34 32.612 0.057 7.02 19.93 14.31
2/19/2021 8:30:00 AM 0.37 32.666 0.057 7.03 20.36 14.35
2/19/2021 8:45:00 AM 0.4 32.72 0.058 7.04 19.74 14.38
2/19/2021 9:00:00 AM 0.44 32.792 0.058 7.04 19.58 14.39
2/19/2021 9:15:00 AM 0.47 32.846 0.058 7.04 20.21 14.39
2/19/2021 9:30:00 AM 0.5 32.9 0.055 7.02 19.29 14.4
2/19/2021 9:45:00 AM 0.53 32.954 0.055 7.02 21.05 14.4
2/19/2021 10:00:00 AM 0.57 33.026 0.057 7.06 19.98 14.41
2/19/2021 10:15:00 AM 0.61 33.098 0.055 7.02 19.38 14.4
2/19/2021 10:30:00 AM 0.65 33.17 0.057 7.07 19.64 14.41
2/19/2021 10:45:00 AM 0.7 33.26 0.057 7.06 20.02 14.41
2/19/2021 11:00:00 AM 0.74 33.332 0.057 7.07 19.46 14.4
2/19/2021 11:15:00 AM 0.78 33.404 0.057 7.07 19.56 14.39
2/19/2021 11:30:00 AM 0.81 33.458 0.057 7.07 19.79 14.38
2/19/2021 11:45:00 AM 0.84 33.512 0.057 7.07 19.44 14.38
2/19/2021 12:00:00 PM 0.86 33.548 0.054 7.03 19.47 14.37
2/19/2021 12:15:00 PM 0.88 33.584 0.057 7.07 19.26 14.37
2/19/2021 12:30:00 PM 0.92 33.656 0.057 7.07 19.96 14.36
2/19/2021 12:45:00 PM 0.95 33.71 0.054 7.04 19.19 14.35
2/19/2021 1:00:00 PM 0.98 33.764 0.057 7.08 20.37 14.35
2/19/2021 1:15:00 PM 1.02 33.836 0.057 7.07 20.38 14.34
2/19/2021 1:30:00 PM 1.06 33.908 0.057 7.08 20.14 14.32
2/19/2021 1:45:00 PM 1.06 33.908 0.058 7.05 19.46 14.31
2/19/2021 2:00:00 PM 1.07 33.926 0.058 7.08 20.19 14.3
2/19/2021 2:15:00 PM 1.09 33.962 0.055 7.04 19.91 14.29
2/19/2021 2:30:00 PM 1.07 33.926 0.057 7.04 20.87 14.3
2/19/2021 2:45:00 PM 1.05 33.89 0.056 7.07 20.08 14.28
2/19/2021 3:00:00 PM 1.04 33.872 0.054 7.05 20.63 14.29
2/19/2021 3:15:00 PM 1.02 33.836 0.056 7.07 20.17 14.29
2/19/2021 3:30:00 PM 1.01 33.818 0.056 7.07 19.48 14.29
2/19/2021 3:45:00 PM 1.01 33.818 0.053 7.04 21.27 14.28
2/19/2021 4:00:00 PM 0.97 33.746 0.056 7.06 21.12 14.27
2/19/2021 4:15:00 PM 0.93 33.674 0.056 7.05 20.51 14.25
2/19/2021 4:30:00 PM 0.89 33.602 0.056 7.05 20.22 14.24
2/19/2021 4:45:00 PM 0.86 33.548 0.056 7.05 20.44 14.24
2/19/2021 5:00:00 PM 0.82 33.476 0.056 7.04 20.55 14.22
2/19/2021 5:15:00 PM 0.79 33.422 0.056 7.03 20.32 14.21
2/19/2021 5:30:00 PM 0.75 33.35 0.056 7.03 20.58 14.18
2/19/2021 5:45:00 PM 0.71 33.278 0.056 7.02 20.51 14.15
2/19/2021 6:00:00 PM 0.69 33.242 0.056 7.01 20.51 14.13
2/19/2021 6:15:00 PM 0.67 33.206 0.057 7 20.43 14.1
2/19/2021 6:30:00 PM 0.66 33.188 0.057 6.99 20.55 14.09
2/19/2021 6:45:00 PM 0.64 33.152 0.057 6.94 20.6 14.09
2/19/2021 7:00:00 PM 0.64 33.152 0.057 6.99 20.66 14.09
2/19/2021 7:15:00 PM 0.64 33.152 0.057 6.99 21.55 14.08
2/19/2021 7:30:00 PM 0.65 33.17 0.056 6.96 21.02 14.07
2/19/2021 7:45:00 PM 0.64 33.152 0.057 6.98 20.27 14.07
2/19/2021 8:00:00 PM 0.64 33.152 0.057 6.98 20.75 14.08
2/19/2021 8:15:00 PM 0.64 33.152 0.056 6.96 21.28 14.07
2/19/2021 8:30:00 PM 0.64 33.152 0.057 6.98 20.5 14.07
2/19/2021 8:45:00 PM 0.64 33.152 0.057 6.98 20.52 14.07
2/19/2021 9:00:00 PM 0.64 33.152 0.057 6.98 21.59 14.07
2/19/2021 9:15:00 PM 0.63 33.134 0.057 6.99 20.32 14.07
2/19/2021 9:30:00 PM 0.63 33.134 0.057 6.99 21.09 14.06
2/19/2021 9:45:00 PM 0.62 33.116 0.057 6.99 20.7 14.07
2/19/2021 10:00:00 PM 0.62 33.116 0.057 6.99 21.79 14.07
2/19/2021 10:15:00 PM 0.62 33.116 0.057 6.99 20.59 14.07
2/19/2021 10:30:00 PM 0.61 33.098 0.057 6.98 20.86 14.07
2/19/2021 10:45:00 PM 0.59 33.062 0.057 6.99 22.02 14.08
2/19/2021 11:00:00 PM 0.58 33.044 0.055 6.96 20.96 14.09
2/19/2021 11:15:00 PM 0.57 33.026 0.057 6.99 21.52 14.09
2/19/2021 11:30:00 PM 0.55 32.99 0.057 6.94 21.45 14.09
2/19/2021 11:45:00 PM 0.52 32.936 0.057 6.99 20.7 14.1
2/20/2021 12:00:00 AM 0.5 32.9 0.054 6.97 20.37 14.1
2/20/2021 12:15:00 AM 0.48 32.864 0.057 6.99 22.64 14.12
2/20/2021 12:30:00 AM 0.48 32.864 0.054 6.96 20.49 14.12
2/20/2021 12:45:00 AM 0.45 32.81 0.057 6.96 20.87 14.12
2/20/2021 1:00:00 AM 0.44 32.792 0.056 6.98 22.38 14.12
2/20/2021 1:15:00 AM 0.41 32.738 0.057 6.96 21.82 14.13
2/20/2021 1:30:00 AM 0.38 32.684 0.057 6.97 20.66 14.14
2/20/2021 1:45:00 AM 0.35 32.63 0.057 6.99 21.24 14.15
2/20/2021 2:00:00 AM 0.32 32.576 0.057 6.99 21.53 14.17
2/20/2021 2:15:00 AM 0.29 32.522 0.057 6.99 21.55 14.15
2/20/2021 2:30:00 AM 0.27 32.486 0.057 6.99 21.19 14.18
2/20/2021 2:45:00 AM 0.26 32.468 0.057 6.98 20.55 14.18
2/20/2021 3:00:00 AM 0.24 32.432 0.057 6.98 20.79 14.18
2/20/2021 3:15:00 AM 0.22 32.396 0.057 6.99 21.06 14.19
2/20/2021 3:30:00 AM 0.2 32.36 0.058 6.99 20.62 14.19
2/20/2021 3:45:00 AM 0.19 32.342 0.058 6.99 20.71 14.2
2/20/2021 4:00:00 AM 0.18 32.324 0.058 6.98 20.34 14.19
2/20/2021 4:15:00 AM 0.16 32.288 0.058 6.95 20.45 14.2
2/20/2021 4:30:00 AM 0.15 32.27 0.058 6.98 20.96 14.2
2/20/2021 4:45:00 AM 0.14 32.252 0.058 6.98 20.85 14.19
2/20/2021 5:00:00 AM 0.14 32.252 0.058 6.98 20.96 14.2
2/20/2021 5:15:00 AM 0.13 32.234 0.058 6.98 20.87 14.21
2/20/2021 5:30:00 AM 0.13 32.234 0.058 6.98 20.92 14.21
2/20/2021 5:45:00 AM 0.15 32.27 0.058 6.97 20.67 14.2
2/20/2021 6:00:00 AM 0.15 32.27 0.055 6.94 20.09 14.2
2/20/2021 6:15:00 AM 0.15 32.27 0.056 6.94 20.52 14.19
2/20/2021 6:30:00 AM 0.15 32.27 0.056 6.94 19.6 14.17
2/20/2021 6:45:00 AM 0.14 32.252 0.057 6.97 21.3 14.19
2/20/2021 7:00:00 AM 0.12 32.216 0.057 6.94 21.32 14.22
2/20/2021 7:15:00 AM 0.12 32.216 0.054 6.95 19.29 14.23
2/20/2021 7:30:00 AM 0.12 32.216 0.057 6.98 20.31 14.27
2/20/2021 7:45:00 AM 0.12 32.216 0.057 6.99 21.2 14.33
2/20/2021 8:00:00 AM 0.17 32.306 0.057 6.99 20.48 14.38
2/20/2021 8:15:00 AM 0.25 32.45 0.056 6.99 19.1 14.42
2/20/2021 8:30:00 AM 0.35 32.63 0.057 7.02 20.36 14.44
2/20/2021 8:45:00 AM 0.44 32.792 0.057 7.03 19.66 14.45
2/20/2021 9:00:00 AM 0.51 32.918 0.057 7.05 19.97 14.45
2/20/2021 9:15:00 AM 0.57 33.026 0.057 7.05 20.29 14.45
2/20/2021 9:30:00 AM 0.62 33.116 0.057 7.02 19.33 14.44
2/20/2021 9:45:00 AM 0.65 33.17 0.057 7.06 19.57 14.43
2/20/2021 10:00:00 AM 0.71 33.278 0.057 7.06 19.54 14.43
2/20/2021 10:15:00 AM 0.76 33.368 0.058 7.07 19.37 14.43
2/20/2021 10:30:00 AM 0.79 33.422 0.058 7.08 19.3 14.41
2/20/2021 10:45:00 AM 0.85 33.53 0.058 7.05 19.12 14.4
2/20/2021 11:00:00 AM 0.93 33.674 0.058 7.08 19.41 14.4
2/20/2021 11:15:00 AM 0.98 33.764 0.058 7.08 19.49 14.39
2/20/2021 11:30:00 AM 1.01 33.818 0.058 7.08 19.42 14.38
2/20/2021 11:45:00 AM 1 33.8 0.056 7.07 20.46 14.36
2/20/2021 12:00:00 PM 1.02 33.836 0.057 7.09 18.81 14.36
2/20/2021 12:15:00 PM 1.06 33.908 0.057 7.09 19.12 14.36
2/20/2021 12:30:00 PM 1.08 33.944 0.056 7.09 19.72 14.34
2/20/2021 12:45:00 PM 1.1 33.98 0.053 7.05 20.68 14.33
2/20/2021 1:00:00 PM 1.09 33.962 0.053 7.06 18.04 14.33
2/20/2021 1:15:00 PM 1.1 33.98 0.056 7.07 19.33 14.33
2/20/2021 1:30:00 PM 1.07 33.926 0.054 7.06 19.87 14.34
2/20/2021 1:45:00 PM 1.1 33.98 0.057 7.09 18.97 14.34
2/20/2021 2:00:00 PM 1.09 33.962 0.057 7.09 19.21 14.32
2/20/2021 2:15:00 PM 1.15 34.07 0.057 7.09 19.35 14.32
2/20/2021 2:30:00 PM 1.22 34.196 0.057 7.09 20.08 14.29
2/20/2021 2:45:00 PM 1.34 34.412 0.057 7.09 19.95 14.27
2/20/2021 3:00:00 PM 1.28 34.304 0.054 7.06 19.27 14.24
2/20/2021 3:15:00 PM 1.19 34.142 0.056 7.08 19.22 14.24
2/20/2021 3:30:00 PM 1.14 34.052 0.056 7.03 20.28 14.25
2/20/2021 3:45:00 PM 1.12 34.016 0.055 7.08 21 14.26
2/20/2021 4:00:00 PM 1.1 33.98 0.055 7.08 20.97 14.27
2/20/2021 4:15:00 PM 1.01 33.818 0.055 7.07 20.23 14.27
2/20/2021 4:30:00 PM 0.92 33.656 0.055 7.07 21.42 14.27
2/20/2021 4:45:00 PM 0.85 33.53 0.055 7.06 20.27 14.27
2/20/2021 5:00:00 PM 0.77 33.386 0.055 7.05 20.35 14.28
2/20/2021 5:15:00 PM 0.7 33.26 0.055 7.03 20.79 14.28
2/20/2021 5:30:00 PM 0.63 33.134 0.055 7.04 20.23 14.26
2/20/2021 5:45:00 PM 0.59 33.062 0.056 6.99 20.68 14.22
2/20/2021 6:00:00 PM 0.55 32.99 0.053 7 21.02 14.2
2/20/2021 6:15:00 PM 0.5 32.9 0.056 7.01 20.2 14.18
2/20/2021 6:30:00 PM 0.45 32.81 0.056 6.98 20.46 14.18
2/20/2021 6:45:00 PM 0.41 32.738 0.056 7 19.59 14.19
2/20/2021 7:00:00 PM 0.38 32.684 0.054 6.97 21.85 14.19
2/20/2021 7:15:00 PM 0.36 32.648 0.056 6.99 20.06 14.19
2/20/2021 7:30:00 PM 0.33 32.594 0.056 6.99 21.13 14.2
2/20/2021 7:45:00 PM 0.31 32.558 0.056 6.99 20.96 14.22
2/20/2021 8:00:00 PM 0.3 32.54 0.056 6.99 20.05 14.22
2/20/2021 8:15:00 PM 0.29 32.522 0.056 6.98 20.26 14.22
2/20/2021 8:30:00 PM 0.28 32.504 0.054 6.96 19.85 14.22
2/20/2021 8:45:00 PM 0.28 32.504 0.056 6.99 20.44 14.23
2/20/2021 9:00:00 PM 0.26 32.468 0.057 6.98 20.55 14.22
2/20/2021 9:15:00 PM 0.25 32.45 0.057 6.99 20.25 14.24
2/20/2021 9:30:00 PM 0.23 32.414 0.057 6.97 19.99 14.24
2/20/2021 9:45:00 PM 0.23 32.414 0.057 6.99 19.54 14.25
2/20/2021 10:00:00 PM 0.23 32.414 0.057 6.98 19.99 14.24
2/20/2021 10:15:00 PM 0.24 32.432 0.057 6.99 19.85 14.24
2/20/2021 10:30:00 PM 0.24 32.432 0.055 6.96 19.07 14.24
2/20/2021 10:45:00 PM 0.23 32.414 0.057 6.99 20.44 14.24
2/20/2021 11:00:00 PM 0.23 32.414 0.057 6.98 20.11 14.25
2/20/2021 11:15:00 PM 0.22 32.396 0.056 6.96 20.65 14.25
2/20/2021 11:30:00 PM 0.21 32.378 0.057 6.99 19.58 14.27
2/20/2021 11:45:00 PM 0.2 32.36 0.057 6.99 19.53 14.26
2/21/2021 12:00:00 AM 0.21 32.378 0.055 6.95 19.04 14.26
2/21/2021 12:15:00 AM 0.21 32.378 0.056 6.95 19.92 14.27
2/21/2021 12:30:00 AM 0.2 32.36 0.057 6.98 20.13 14.26
2/21/2021 12:45:00 AM 0.19 32.342 0.054 6.95 19.86 14.26
2/21/2021 1:00:00 AM 0.17 32.306 0.057 6.98 19.98 14.28
2/21/2021 1:15:00 AM 0.16 32.288 0.057 6.98 19.88 14.29
2/21/2021 1:30:00 AM 0.16 32.288 0.057 6.93 20.6 14.27
2/21/2021 1:45:00 AM 0.14 32.252 0.054 6.96 20.46 14.28
2/21/2021 2:00:00 AM 0.13 32.234 0.057 6.97 20.17 14.3
2/21/2021 2:15:00 AM 0.12 32.216 0.057 6.97 19.51 14.28
2/21/2021 2:30:00 AM 0.11 32.198 0.057 6.97 20.23 14.29
2/21/2021 2:45:00 AM 0.1 32.18 0.057 6.96 20.23 14.29
2/21/2021 3:00:00 AM 0.1 32.18 0.054 6.93 20.48 14.29
2/21/2021 3:15:00 AM 0.08 32.144 0.057 6.97 19.84 14.3
2/21/2021 3:30:00 AM 0.08 32.144 0.057 6.97 19.76 14.29
2/21/2021 3:45:00 AM 0.07 32.126 0.057 6.95 19.49 14.29
2/21/2021 4:00:00 AM 0.08 32.144 0.058 6.96 19.52 14.27
2/21/2021 4:15:00 AM 0.07 32.126 0.058 6.96 19.32 14.3
2/21/2021 4:30:00 AM 0.06 32.108 0.058 6.96 19.44 14.31
2/21/2021 4:45:00 AM 0.06 32.108 0.055 6.93 19.11 14.29
2/21/2021 5:00:00 AM 0.06 32.108 0.058 6.96 19.49 14.29
2/21/2021 5:15:00 AM 0.06 32.108 0.058 6.96 19.3 14.3
2/21/2021 5:30:00 AM 0.07 32.126 0.058 6.95 19.02 14.29
2/21/2021 5:45:00 AM 0.06 32.108 0.058 6.96 19.06 14.3
2/21/2021 6:00:00 AM 0.06 32.108 0.058 6.95 18.5 14.28
2/21/2021 6:15:00 AM 0.05 32.09 0.058 6.96 18.99 14.3
2/21/2021 6:30:00 AM 0.04 32.072 0.058 6.96 19.14 14.3
2/21/2021 6:45:00 AM 0.05 32.09 0.059 6.96 18.57 14.3
2/21/2021 7:00:00 AM 0.04 32.072 0.059 6.96 18.82 14.31
2/21/2021 7:15:00 AM 0.05 32.09 0.059 6.96 19.08 14.34
2/21/2021 7:30:00 AM 0.06 32.108 0.059 6.97 19.06 14.38
2/21/2021 7:45:00 AM 0.06 32.108 0.059 6.98 18.54 14.45
2/21/2021 8:00:00 AM 0.09 32.162 0.06 6.99 18.61 14.48
2/21/2021 8:15:00 AM 0.09 32.162 0.06 7.01 18.55 14.52
2/21/2021 8:30:00 AM 0.14 32.252 0.057 6.98 18.22 14.53
2/21/2021 8:45:00 AM 0.19 32.342 0.06 7.02 18.23 14.58
2/21/2021 9:00:00 AM 0.23 32.414 0.06 7.03 18.49 14.58
2/21/2021 9:15:00 AM 0.3 32.54 0.06 7.02 18.29 14.58
2/21/2021 9:30:00 AM 0.37 32.666 0.06 7.03 18.61 14.56
2/21/2021 9:45:00 AM 0.47 32.846 0.058 7.02 19.29 14.59
2/21/2021 10:00:00 AM 0.58 33.044 0.06 7.06 18.26 14.59
2/21/2021 10:15:00 AM 0.73 33.314 0.061 7.06 18.35 14.55
2/21/2021 10:30:00 AM 0.86 33.548 0.061 7.07 18.36 14.54
2/21/2021 10:45:00 AM 0.93 33.674 0.061 7.08 18.09 14.52
2/21/2021 11:00:00 AM 1.02 33.836 0.062 7.09 18.29 14.49
2/21/2021 11:15:00 AM 1.12 34.016 0.062 7.07 18.38 14.48
2/21/2021 11:30:00 AM 1.23 34.214 0.062 7.1 18.22 14.45
2/21/2021 11:45:00 AM 1.33 34.394 0.063 7.11 18.29 14.43
2/21/2021 12:00:00 PM 1.4 34.52 0.063 7.11 18.15 14.42
2/21/2021 12:15:00 PM 1.46 34.628 0.06 7.1 17.96 14.42
2/21/2021 12:30:00 PM 1.52 34.736 0.063 7.13 17.93 14.41
2/21/2021 12:45:00 PM 1.55 34.79 0.061 7.11 18.4 14.4
2/21/2021 1:00:00 PM 1.55 34.79 0.062 7.13 18.68 14.42
2/21/2021 1:15:00 PM 1.52 34.736 0.061 7.13 18.2 14.42
2/21/2021 1:30:00 PM 1.51 34.718 0.06 7.11 18.65 14.42
2/21/2021 1:45:00 PM 1.48 34.664 0.06 7.13 18.41 14.41
2/21/2021 2:00:00 PM 1.45 34.61 0.06 7.12 18.36 14.43
2/21/2021 2:15:00 PM 1.41 34.538 0.058 7.12 18.58 14.43
2/21/2021 2:30:00 PM 1.37 34.466 0.06 7.13 18.41 14.44
2/21/2021 2:45:00 PM 1.33 34.394 0.057 7.11 18.45 14.44
2/21/2021 3:00:00 PM 1.28 34.304 0.06 7.13 18.96 14.45
2/21/2021 3:15:00 PM 1.22 34.196 0.059 7.13 19.22 14.44
2/21/2021 3:30:00 PM 1.15 34.07 0.056 7.1 19.12 14.45
2/21/2021 3:45:00 PM 1.08 33.944 0.056 7.09 18.61 14.46
2/21/2021 4:00:00 PM 1.02 33.836 0.058 7.11 18.91 14.47
2/21/2021 4:15:00 PM 0.93 33.674 0.057 7.11 19.3 14.47
2/21/2021 4:30:00 PM 0.84 33.512 0.057 7.09 19.03 14.47
2/21/2021 4:45:00 PM 0.75 33.35 0.056 7.08 19.19 14.47
2/21/2021 5:00:00 PM 0.65 33.17 0.055 7.07 20.44 14.48
2/21/2021 5:15:00 PM 0.57 33.026 0.054 7.06 20.61 14.48
2/21/2021 5:30:00 PM 0.5 32.9 0.054 7.05 20.53 14.47
2/21/2021 5:45:00 PM 0.44 32.792 0.051 7 20.23 14.44
2/21/2021 6:00:00 PM 0.39 32.702 0.053 7.01 20.85 14.42
2/21/2021 6:15:00 PM 0.34 32.612 0.052 7.01 22.01 14.42
2/21/2021 6:30:00 PM 0.31 32.558 0.052 6.98 22.24 14.41
2/21/2021 6:45:00 PM 0.29 32.522 0.052 6.98 21.86 14.4
2/21/2021 7:00:00 PM 0.27 32.486 0.051 6.98 21.27 14.39
2/21/2021 7:15:00 PM 0.26 32.468 0.052 6.97 21.12 14.39
2/21/2021 7:30:00 PM 0.25 32.45 0.052 6.97 22.35 14.38
2/21/2021 7:45:00 PM 0.24 32.432 0.052 6.97 25.02 14.38
2/21/2021 8:00:00 PM 0.24 32.432 0.052 6.96 23.07 14.37
2/21/2021 8:15:00 PM 0.24 32.432 0.053 6.97 22.14 14.37
2/21/2021 8:30:00 PM 0.25 32.45 0.051 6.92 22.6 14.34
2/21/2021 8:45:00 PM 0.24 32.432 0.052 6.93 22.37 14.35
2/21/2021 9:00:00 PM 0.24 32.432 0.053 6.95 24.31 14.34
2/21/2021 9:15:00 PM 0.25 32.45 0.053 6.94 23.57 14.33
2/21/2021 9:30:00 PM 0.25 32.45 0.054 6.96 26.31 14.34
2/21/2021 9:45:00 PM 0.25 32.45 0.054 6.97 24.37 14.33
2/21/2021 10:00:00 PM 0.25 32.45 0.054 6.97 24.75 14.32
2/21/2021 10:15:00 PM 0.26 32.468 0.052 6.94 21.31 14.31
2/21/2021 10:30:00 PM 0.27 32.486 0.055 6.96 22.64 14.3
2/21/2021 10:45:00 PM 0.27 32.486 0.055 6.96 22.7 14.29
2/21/2021 11:00:00 PM 0.28 32.504 0.055 6.96 23.5 14.29
2/21/2021 11:15:00 PM 0.3 32.54 0.055 6.97 24.06 14.3
2/21/2021 11:30:00 PM 0.32 32.576 0.055 6.95 22 14.27
2/21/2021 11:45:00 PM 0.34 32.612 0.055 6.96 21.94 14.27
2/22/2021 12:00:00 AM 0.38 32.684 0.056 6.97 21.07 14.23
2/22/2021 12:15:00 AM 0.39 32.702 0.056 6.97 21.34 14.22
2/22/2021 12:30:00 AM 0.41 32.738 0.056 6.97 21.94 14.22
2/22/2021 12:45:00 AM 0.43 32.774 0.056 6.98 22.21 14.21
2/22/2021 1:00:00 AM 0.44 32.792 0.054 6.95 21.82 14.22
2/22/2021 1:15:00 AM 0.45 32.81 0.053 6.96 20.89 14.21
2/22/2021 1:30:00 AM 0.46 32.828 0.056 6.98 20.59 14.2
2/22/2021 1:45:00 AM 0.47 32.846 0.054 6.95 21.41 14.19
2/22/2021 2:00:00 AM 0.48 32.864 0.056 6.98 20.96 14.18
2/22/2021 2:15:00 AM 0.48 32.864 0.056 6.98 20.25 14.18
2/22/2021 2:30:00 AM 0.49 32.882 0.056 6.98 21.09 14.18
2/22/2021 2:45:00 AM 0.49 32.882 0.056 6.98 20.67 14.16
2/22/2021 3:00:00 AM 0.49 32.882 0.056 6.99 20.6 14.17
2/22/2021 3:15:00 AM 0.49 32.882 0.057 6.99 20.04 14.16
2/22/2021 3:30:00 AM 0.49 32.882 0.057 6.99 19.59 14.16
2/22/2021 3:45:00 AM 0.48 32.864 0.057 6.99 20.02 14.15
2/22/2021 4:00:00 AM 0.48 32.864 0.057 6.99 19.52 14.15
2/22/2021 4:15:00 AM 0.48 32.864 0.057 6.99 19.83 14.14
2/22/2021 4:30:00 AM 0.48 32.864 0.054 6.96 18.91 14.14
2/22/2021 4:45:00 AM 0.48 32.864 0.057 6.99 19.21 14.15
2/22/2021 5:00:00 AM 0.48 32.864 0.057 7 19.92 14.15
2/22/2021 5:15:00 AM 0.48 32.864 0.054 6.96 19.23 14.14
2/22/2021 5:30:00 AM 0.49 32.882 0.054 6.97 19.95 14.13
2/22/2021 5:45:00 AM 0.49 32.882 0.054 6.97 19.75 14.12
2/22/2021 6:00:00 AM 0.49 32.882 0.057 6.99 19.51 14.13
2/22/2021 6:15:00 AM 0.5 32.9 0.057 6.94 19.04 14.12
2/22/2021 6:30:00 AM 0.5 32.9 0.057 6.99 19.3 14.11
2/22/2021 6:45:00 AM 0.51 32.918 0.057 6.99 18.74 14.1
2/22/2021 7:00:00 AM 0.52 32.936 0.057 6.99 19.2 14.11
2/22/2021 7:15:00 AM 0.53 32.954 0.054 6.97 18.39 14.11
2/22/2021 7:30:00 AM 0.54 32.972 0.057 7 18.82 14.13
2/22/2021 7:45:00 AM 0.55 32.99 0.056 7.01 18.8 14.16
2/22/2021 8:00:00 AM 0.57 33.026 0.054 6.98 18.28 14.2
2/22/2021 8:15:00 AM 0.59 33.062 0.056 7.03 19.48 14.25
2/22/2021 8:30:00 AM 0.61 33.098 0.056 7.04 19.29 14.28
2/22/2021 8:45:00 AM 0.65 33.17 0.056 7.05 19.09 14.31
2/22/2021 9:00:00 AM 0.68 33.224 0.056 7.07 18.56 14.34
2/22/2021 9:15:00 AM 0.7 33.26 0.056 7.07 18.49 14.35
2/22/2021 9:30:00 AM 0.7 33.26 0.056 7.08 19.25 14.34
2/22/2021 9:45:00 AM 0.68 33.224 0.056 7.08 18.8 14.33
2/22/2021 10:00:00 AM 0.57 33.026 0.056 7.03 18.42 14.32
2/22/2021 10:15:00 AM 0.44 32.792 0.056 7.08 19.3 14.34
2/22/2021 10:30:00 AM 0.3 32.54 0.053 7.04 19 14.35
2/22/2021 10:45:00 AM 0.17 32.306 0.056 7.07 18.38 14.39
2/22/2021 11:00:00 AM 0.06 32.108 0.056 7.07 18.99 14.41
2/22/2021 11:15:00 AM 0.03 32.054 0.055 7.07 19.46 14.45
2/22/2021 11:30:00 AM 0.02 32.036 0.053 7.05 19.17 14.46
2/22/2021 11:45:00 AM 0.03 32.054 0.055 7.05 19.66 14.47
2/22/2021 12:00:00 PM 0.02 32.036 0.055 7.08 20.51 14.47
2/22/2021 12:15:00 PM 0.03 32.054 0.055 7.07 19.21 14.46
2/22/2021 12:30:00 PM 0.05 32.09 0.055 7.06 19.39 14.44
2/22/2021 12:45:00 PM 0.09 32.162 0.055 7.07 20.04 14.43
2/22/2021 1:00:00 PM 0.14 32.252 0.055 7.07 18.88 14.43
2/22/2021 1:15:00 PM 0.2 32.36 0.055 7.07 19.67 14.4
2/22/2021 1:30:00 PM 0.23 32.414 0.055 7.07 19.61 14.38
2/22/2021 1:45:00 PM 0.26 32.468 0.055 7.07 19.51 14.36
2/22/2021 2:00:00 PM 0.29 32.522 0.055 7.07 19.31 14.36
2/22/2021 2:15:00 PM 0.36 32.648 0.053 7.04 19.54 14.35
2/22/2021 2:30:00 PM 0.43 32.774 0.055 7.08 19.51 14.33
2/22/2021 2:45:00 PM 0.51 32.918 0.055 7.08 18.86 14.32
2/22/2021 3:00:00 PM 0.6 33.08 0.055 7.08 19.56 14.3
2/22/2021 3:15:00 PM 0.66 33.188 0.053 7.04 18.4 14.26
2/22/2021 3:30:00 PM 0.71 33.278 0.056 7.08 19.36 14.24
2/22/2021 3:45:00 PM 0.75 33.35 0.056 7.08 19 14.21
2/22/2021 4:00:00 PM 0.77 33.386 0.056 7.08 18.65 14.18
2/22/2021 4:15:00 PM 0.78 33.404 0.054 7.05 19.82 14.15
2/22/2021 4:30:00 PM 0.77 33.386 0.056 7.07 18.81 14.11
2/22/2021 4:45:00 PM 0.75 33.35 0.056 7.06 18.89 14.07
2/22/2021 5:00:00 PM 0.73 33.314 0.056 7.06 19.58 14.06
2/22/2021 5:15:00 PM 0.72 33.296 0.056 7.05 18.92 14.04
2/22/2021 5:30:00 PM 0.71 33.278 0.056 7.04 18.94 14.01
2/22/2021 5:45:00 PM 0.69 33.242 0.056 7.04 18.81 13.99
2/22/2021 6:00:00 PM 0.68 33.224 0.053 7 18.56 13.96
2/22/2021 6:15:00 PM 0.68 33.224 0.056 7.02 19.02 13.94
2/22/2021 6:30:00 PM 0.68 33.224 0.056 7.02 18.88 13.94
2/22/2021 6:45:00 PM 0.67 33.206 0.055 7 19.25 13.92
2/22/2021 7:00:00 PM 0.68 33.224 0.055 7.01 18.82 13.91
2/22/2021 7:15:00 PM 0.67 33.206 0.055 7 19.33 13.91
2/22/2021 7:30:00 PM 0.68 33.224 0.055 7 18.59 13.91
2/22/2021 7:45:00 PM 0.68 33.224 0.055 7 19.04 13.9
2/22/2021 8:00:00 PM 0.67 33.206 0.053 6.97 18.81 13.9
2/22/2021 8:15:00 PM 0.67 33.206 0.055 7 18.78 13.9
2/22/2021 8:30:00 PM 0.66 33.188 0.055 7 18.84 13.91
2/22/2021 8:45:00 PM 0.66 33.188 0.055 7 19.3 13.91
2/22/2021 9:00:00 PM 0.66 33.188 0.055 7 18.95 13.9
2/22/2021 9:15:00 PM 0.66 33.188 0.055 7 18.77 13.91
2/22/2021 9:30:00 PM 0.65 33.17 0.055 7 19.12 13.91
2/22/2021 9:45:00 PM 0.64 33.152 0.055 7 18.81 13.91
2/22/2021 10:00:00 PM 0.63 33.134 0.055 6.97 19 13.92
2/22/2021 10:15:00 PM 0.64 33.152 0.055 7 19.37 13.92
2/22/2021 10:30:00 PM 0.64 33.152 0.053 6.97 20.41 13.92
2/22/2021 10:45:00 PM 0.64 33.152 0.056 7 19.66 13.91
2/22/2021 11:00:00 PM 0.64 33.152 0.056 6.97 18.9 13.91
2/22/2021 11:15:00 PM 0.65 33.17 0.056 7 19.3 13.91
2/22/2021 11:30:00 PM 0.66 33.188 0.056 7 18.85 13.91
2/22/2021 11:45:00 PM 0.67 33.206 0.056 7 19.02 13.89
2/23/2021 12:00:00 AM 0.67 33.206 0.056 7 18.63 13.9
2/23/2021 12:15:00 AM 0.67 33.206 0.056 7 19.73 13.89
2/23/2021 12:30:00 AM 0.68 33.224 0.056 7 18.92 13.89
2/23/2021 12:45:00 AM 0.68 33.224 0.055 7 18.84 13.89
2/23/2021 1:00:00 AM 0.69 33.242 0.056 7 19.69 13.89
2/23/2021 1:15:00 AM 0.69 33.242 0.053 6.97 19 13.89
2/23/2021 1:30:00 AM 0.69 33.242 0.056 6.9 19.1 13.89
2/23/2021 1:45:00 AM 0.68 33.224 0.055 7 18.91 13.89
2/23/2021 2:00:00 AM 0.68 33.224 0.055 6.88 19.27 13.88
2/23/2021 2:15:00 AM 0.65 33.17 0.055 7 18.72 13.9
2/23/2021 2:30:00 AM 0.63 33.134 0.053 6.96 19.6 13.89
2/23/2021 2:45:00 AM 0.6 33.08 0.055 7 19.46 13.9
2/23/2021 3:00:00 AM 0.56 33.008 0.055 7 19.34 13.92
2/23/2021 3:15:00 AM 0.53 32.954 0.053 6.96 18.03 13.92
2/23/2021 3:30:00 AM 0.49 32.882 0.055 7 18.99 13.94
2/23/2021 3:45:00 AM 0.46 32.828 0.055 7 18.41 13.94
2/23/2021 4:00:00 AM 0.44 32.792 0.055 7 18.54 13.95
2/23/2021 4:15:00 AM 0.41 32.738 0.055 6.87 18.95 13.96
2/23/2021 4:30:00 AM 0.39 32.702 0.055 7 19.03 13.97
2/23/2021 4:45:00 AM 0.37 32.666 0.055 7 18.99 13.95
2/23/2021 5:00:00 AM 0.35 32.63 0.054 6.96 18.46 13.96
2/23/2021 5:15:00 AM 0.34 32.612 0.055 7 18.54 13.97
2/23/2021 5:30:00 AM 0.33 32.594 0.055 7 18.59 13.98
2/23/2021 5:45:00 AM 0.32 32.576 0.055 7 18.53 13.98
2/23/2021 6:00:00 AM 0.32 32.576 0.053 6.94 18.56 13.99
2/23/2021 6:15:00 AM 0.33 32.594 0.055 6.99 18.8 13.99
2/23/2021 6:30:00 AM 0.35 32.63 0.055 6.99 19.35 13.97
2/23/2021 6:45:00 AM 0.36 32.648 0.056 7 19.08 13.98
2/23/2021 7:00:00 AM 0.38 32.684 0.056 6.99 18.42 13.98
2/23/2021 7:15:00 AM 0.4 32.72 0.055 7 18.15 14.01
2/23/2021 7:30:00 AM 0.43 32.774 0.055 7.01 18.64 14.03
2/23/2021 7:45:00 AM 0.46 32.828 0.055 7.02 19.34 14.05
2/23/2021 8:00:00 AM 0.48 32.864 0.053 6.99 19.55 14.08
2/23/2021 8:15:00 AM 0.52 32.936 0.053 6.99 18.98 14.1
2/23/2021 8:30:00 AM 0.54 32.972 0.055 7.04 18.75 14.14
2/23/2021 8:45:00 AM 0.58 33.044 0.055 7.05 18.44 14.15
2/23/2021 9:00:00 AM 0.61 33.098 0.055 7.05 18.67 14.16
2/23/2021 9:15:00 AM 0.66 33.188 0.055 7.04 18.51 14.18
2/23/2021 9:30:00 AM 0.72 33.296 0.055 7.07 18.66 14.19
2/23/2021 9:45:00 AM 0.78 33.404 0.055 7.06 18.42 14.19
2/23/2021 10:00:00 AM 0.82 33.476 0.055 7.09 19.18 14.19
2/23/2021 10:15:00 AM 0.87 33.566 0.055 7.08 18.79 14.17
2/23/2021 10:30:00 AM 0.88 33.584 0.055 7.07 18.81 14.17
2/23/2021 10:45:00 AM 0.9 33.62 0.055 7.09 18.63 14.15
2/23/2021 11:00:00 AM 0.91 33.638 0.054 7.06 18.49 14.14
2/23/2021 11:15:00 AM 0.91 33.638 0.053 7.05 18.96 14.12
2/23/2021 11:30:00 AM 0.91 33.638 0.055 7.09 18.9 14.13
2/23/2021 11:45:00 AM 0.94 33.692 0.055 7.1 19.23 14.14
2/23/2021 12:00:00 PM 0.96 33.728 0.055 7.09 18.3 14.13
2/23/2021 12:15:00 PM 0.96 33.728 0.055 7.1 19.2 14.12
2/23/2021 12:30:00 PM 0.99 33.782 0.053 7.06 18.62 14.12
2/23/2021 12:45:00 PM 1.01 33.818 0.055 7.1 18.46 14.12
2/23/2021 1:00:00 PM 1.02 33.836 0.055 7.1 18.97 14.09
2/23/2021 1:15:00 PM 1.04 33.872 0.055 7.1 19.14 14.09
2/23/2021 1:30:00 PM 1.05 33.89 0.055 7.1 18.64 14.08
2/23/2021 1:45:00 PM 1.05 33.89 0.053 7.05 18.99 14.06
2/23/2021 2:00:00 PM 1.05 33.89 0.055 7.09 19.5 14.06
2/23/2021 2:15:00 PM 1.06 33.908 0.053 7.06 18.7 14.06
2/23/2021 2:30:00 PM 1.05 33.89 0.055 7.09 18.8 14.06
2/23/2021 2:45:00 PM 1.05 33.89 0.055 7.09 19.24 14.05
2/23/2021 3:00:00 PM 1.07 33.926 0.055 7.09 18.82 14.06
2/23/2021 3:15:00 PM 1.07 33.926 0.055 7.09 19.41 14.05
2/23/2021 3:30:00 PM 1.08 33.944 0.055 7.09 19.4 14.03
2/23/2021 3:45:00 PM 1.07 33.926 0.055 7.09 19.03 14.02
2/23/2021 4:00:00 PM 1.07 33.926 0.055 7.08 19.74 14
2/23/2021 4:15:00 PM 1.06 33.908 0.055 7.08 19.27 13.99
2/23/2021 4:30:00 PM 1.06 33.908 0.055 7 19.35 13.97
2/23/2021 4:45:00 PM 1.05 33.89 0.055 7.06 18.93 13.95
2/23/2021 5:00:00 PM 1.05 33.89 0.055 7.06 19.05 13.94
2/23/2021 5:15:00 PM 1.05 33.89 0.055 7.06 19.42 13.94
2/23/2021 5:30:00 PM 1.04 33.872 0.055 7.05 18.99 13.9
2/23/2021 5:45:00 PM 1.02 33.836 0.055 7.04 19.6 13.87
2/23/2021 6:00:00 PM 1.02 33.836 0.055 6.99 19.09 13.84
2/23/2021 6:15:00 PM 1 33.8 0.055 7.01 19.87 13.82
2/23/2021 6:30:00 PM 0.98 33.764 0.055 7.02 19.56 13.79
2/23/2021 6:45:00 PM 0.96 33.728 0.055 7.02 18.84 13.8
2/23/2021 7:00:00 PM 0.95 33.71 0.055 7.01 19.09 13.79
2/23/2021 7:15:00 PM 0.95 33.71 0.056 7.01 19.26 13.79
2/23/2021 7:30:00 PM 0.94 33.692 0.056 7 19.17 13.8
2/23/2021 7:45:00 PM 0.94 33.692 0.056 6.98 18.98 13.8
2/23/2021 8:00:00 PM 0.94 33.692 0.056 7.01 19.22 13.8
2/23/2021 8:15:00 PM 0.95 33.71 0.056 7.01 19.81 13.8
2/23/2021 8:30:00 PM 0.96 33.728 0.053 6.97 18.6 13.81
2/23/2021 8:45:00 PM 0.96 33.728 0.056 6.97 18.51 13.81
2/23/2021 9:00:00 PM 0.95 33.71 0.056 7 18.93 13.81
2/23/2021 9:15:00 PM 0.93 33.674 0.056 7.01 19.47 13.81
2/23/2021 9:30:00 PM 0.91 33.638 0.056 7.01 19.25 13.83
2/23/2021 9:45:00 PM 0.88 33.584 0.056 7.01 19.25 13.85
2/23/2021 10:00:00 PM 0.86 33.548 0.056 7.01 19.09 13.85
2/23/2021 10:15:00 PM 0.85 33.53 0.056 7.01 18.99 13.85
2/23/2021 10:30:00 PM 0.84 33.512 0.056 6.94 19.15 13.85
2/23/2021 10:45:00 PM 0.82 33.476 0.056 7.01 19.07 13.87
2/23/2021 11:00:00 PM 0.81 33.458 0.056 7.01 19.02 13.88
2/23/2021 11:15:00 PM 0.79 33.422 0.056 7 18.88 13.9
2/23/2021 11:30:00 PM 0.77 33.386 0.056 7.01 19.57 13.9
2/23/2021 11:45:00 PM 0.77 33.386 0.056 7 19.95 13.89
2/24/2021 12:00:00 AM 0.75 33.35 0.056 7 19.1 13.91
2/24/2021 12:15:00 AM 0.74 33.332 0.056 7 19.33 13.91
2/24/2021 12:30:00 AM 0.73 33.314 0.053 6.97 19.43 13.92
2/24/2021 12:45:00 AM 0.73 33.314 0.056 6.98 19.12 13.92
2/24/2021 1:00:00 AM 0.72 33.296 0.053 6.98 20.57 13.92
2/24/2021 1:15:00 AM 0.7 33.26 0.056 7 19.16 13.92
2/24/2021 1:30:00 AM 0.67 33.206 0.055 6.99 19.2 13.95
2/24/2021 1:45:00 AM 0.65 33.17 0.056 7 19.27 13.95
2/24/2021 2:00:00 AM 0.63 33.134 0.056 7 19.56 13.95
2/24/2021 2:15:00 AM 0.62 33.116 0.056 7 19.45 13.96
2/24/2021 2:30:00 AM 0.59 33.062 0.054 6.98 19.59 13.98
2/24/2021 2:45:00 AM 0.57 33.026 0.056 7 19.66 13.99
2/24/2021 3:00:00 AM 0.54 32.972 0.056 7 19.04 14
2/24/2021 3:15:00 AM 0.53 32.954 0.056 6.99 19.82 14
2/24/2021 3:30:00 AM 0.51 32.918 0.056 6.99 19.45 14.01
2/24/2021 3:45:00 AM 0.49 32.882 0.056 6.99 19.7 14.02
2/24/2021 4:00:00 AM 0.46 32.828 0.056 6.99 19.32 14.02
2/24/2021 4:15:00 AM 0.45 32.81 0.056 6.99 20.68 14.04
2/24/2021 4:30:00 AM 0.43 32.774 0.053 6.96 19.19 14.04
2/24/2021 4:45:00 AM 0.41 32.738 0.056 6.99 19.67 14.05
2/24/2021 5:00:00 AM 0.4 32.72 0.056 6.99 19.78 14.06
2/24/2021 5:15:00 AM 0.39 32.702 0.056 6.99 19.67 14.06
2/24/2021 5:30:00 AM 0.37 32.666 0.056 6.99 20.08 14.08
2/24/2021 5:45:00 AM 0.36 32.648 0.056 6.97 19.67 14.09
2/24/2021 6:00:00 AM 0.34 32.612 0.056 6.99 19.66 14.08
2/24/2021 6:15:00 AM 0.34 32.612 0.056 6.99 19.53 14.08
2/24/2021 6:30:00 AM 0.31 32.558 0.056 6.99 20.04 14.09
2/24/2021 6:45:00 AM 0.3 32.54 0.056 6.99 19.38 14.1
2/24/2021 7:00:00 AM 0.3 32.54 0.055 6.96 19.64 14.14
2/24/2021 7:15:00 AM 0.3 32.54 0.055 6.98 19.17 14.2
2/24/2021 7:30:00 AM 0.31 32.558 0.055 6.98 19.11 14.25
2/24/2021 7:45:00 AM 0.35 32.63 0.056 7.03 19.75 14.3
2/24/2021 8:00:00 AM 0.38 32.684 0.056 7.04 19.81 14.37
2/24/2021 8:15:00 AM 0.43 32.774 0.056 7.05 19.29 14.4
2/24/2021 8:30:00 AM 0.5 32.9 0.056 7.06 19.48 14.43
2/24/2021 8:45:00 AM 0.6 33.08 0.056 7.07 19.53 14.43
2/24/2021 9:00:00 AM 0.67 33.206 0.053 7.03 18.5 14.4
2/24/2021 9:15:00 AM 0.76 33.368 0.055 7.07 18.94 14.43
2/24/2021 9:30:00 AM 0.85 33.53 0.055 7.08 19.1 14.41
2/24/2021 9:45:00 AM 0.91 33.638 0.052 7.05 19.81 14.4
2/24/2021 10:00:00 AM 0.95 33.71 0.055 7.09 20.14 14.38
2/24/2021 10:15:00 AM 1.02 33.836 0.055 7.09 19.4 14.36
2/24/2021 10:30:00 AM 1.13 34.034 0.055 7.1 19.87 14.35
2/24/2021 10:45:00 AM 1.2 34.16 0.055 7.1 19.11 14.32
2/24/2021 11:00:00 AM 1.3 34.34 0.055 7.09 19.85 14.29
2/24/2021 11:15:00 AM 1.47 34.646 0.055 7.1 19.19 14.27
2/24/2021 11:30:00 AM 1.63 34.934 0.055 7.1 18.66 14.21
2/24/2021 11:45:00 AM 1.85 35.33 0.053 7.07 19.27 14.15
2/24/2021 12:00:00 PM 2.02 35.636 0.055 7.06 19.18 14.1
2/24/2021 12:15:00 PM 2.19 35.942 0.055 7.11 19.4 14.04
2/24/2021 12:30:00 PM 2.38 36.284 0.055 7.11 18.8 13.98
2/24/2021 12:45:00 PM 2.56 36.608 0.053 7.08 20 13.92
2/24/2021 1:00:00 PM 2.65 36.77 0.052 7.09 18.04 13.88
2/24/2021 1:15:00 PM 2.73 36.914 0.055 7.11 18.63 13.84
2/24/2021 1:30:00 PM 2.79 37.022 0.055 7.11 19.4 13.81
2/24/2021 1:45:00 PM 2.83 37.094 0.055 7.12 18.64 13.78
2/24/2021 2:00:00 PM 2.88 37.184 0.055 7.11 18.8 13.74
2/24/2021 2:15:00 PM 2.89 37.202 0.055 7.11 18.74 13.71
2/24/2021 2:30:00 PM 2.9 37.22 0.055 7.11 18.89 13.69
2/24/2021 2:45:00 PM 2.87 37.166 0.056 7.12 18.44 13.69
2/24/2021 3:00:00 PM 2.83 37.094 0.055 7.12 18.42 13.67
2/24/2021 3:15:00 PM 2.8 37.04 0.055 7.12 19.35 13.66
2/24/2021 3:30:00 PM 2.73 36.914 0.056 7.13 18.8 13.65
2/24/2021 3:45:00 PM 2.62 36.716 0.056 7.09 18.77 13.63
2/24/2021 4:00:00 PM 2.62 36.716 0.056 7.11 18.19 13.66
2/24/2021 4:15:00 PM 2.56 36.608 0.057 7.1 18.64 13.66
2/24/2021 4:30:00 PM 2.45 36.41 0.06 7.13 19.07 13.65
2/24/2021 4:45:00 PM 2.33 36.194 0.061 7.12 19.52 13.65
2/24/2021 5:00:00 PM 2.21 35.978 0.062 7.12 18.94 13.67
2/24/2021 5:15:00 PM 2.09 35.762 0.062 7.11 19.72 13.66
2/24/2021 5:30:00 PM 1.98 35.564 0.063 7.11 19.79 13.66
2/24/2021 5:45:00 PM 1.86 35.348 0.063 7.07 20.07 13.65
2/24/2021 6:00:00 PM 1.78 35.204 0.066 7.09 19.56 13.62
2/24/2021 6:15:00 PM 1.72 35.096 0.067 7.08 19.35 13.59
2/24/2021 6:30:00 PM 1.66 34.988 0.068 7.07 20.25 13.58
2/24/2021 6:45:00 PM 1.61 34.898 0.069 7.07 20 13.58
2/24/2021 7:00:00 PM 1.56 34.808 0.07 7.07 19.53 13.58
2/24/2021 7:15:00 PM 1.53 34.754 0.069 7.04 19.89 13.6
2/24/2021 7:30:00 PM 1.49 34.682 0.07 7.06 19.18 13.61
2/24/2021 7:45:00 PM 1.46 34.628 0.071 7.06 20.02 13.61
2/24/2021 8:00:00 PM 1.46 34.628 0.069 7.04 19.81 13.62
2/24/2021 8:15:00 PM 1.45 34.61 0.071 7.06 20.58 13.62
2/24/2021 8:30:00 PM 1.44 34.592 0.068 7.04 19.78 13.63
2/24/2021 8:45:00 PM 1.43 34.574 0.071 7.06 20.6 13.63
2/24/2021 9:00:00 PM 1.41 34.538 0.071 7.06 21.09 13.65
2/24/2021 9:15:00 PM 1.4 34.52 0.071 7.06 20.79 13.65
2/24/2021 9:30:00 PM 1.37 34.466 0.071 7.06 20.55 13.66
2/24/2021 9:45:00 PM 1.35 34.43 0.071 7.06 20.5 13.67
2/24/2021 10:00:00 PM 1.33 34.394 0.07 7.06 21.13 13.67
2/24/2021 10:15:00 PM 1.3 34.34 0.07 7.06 20.64 13.68
2/24/2021 10:30:00 PM 1.25 34.25 0.067 7.03 20.53 13.69
2/24/2021 10:45:00 PM 1.19 34.142 0.07 7.06 21.31 13.72
2/24/2021 11:00:00 PM 1.15 34.07 0.07 7.05 20.53 13.74
2/24/2021 11:15:00 PM 1.09 33.962 0.07 7.06 20.85 13.75
2/24/2021 11:30:00 PM 1.05 33.89 0.07 7.05 21.02 13.78
2/24/2021 11:45:00 PM 1.02 33.836 0.07 7.06 20.4 13.79
2/25/2021 12:00:00 AM 0.99 33.782 0.071 7.03 22.49 13.81
2/25/2021 12:15:00 AM 0.98 33.764 0.071 7.06 21.19 13.81
2/25/2021 12:30:00 AM 0.98 33.764 0.071 7.06 22.09 13.83
2/25/2021 12:45:00 AM 0.98 33.764 0.071 7.06 22.38 13.84
2/25/2021 1:00:00 AM 0.98 33.764 0.071 7.06 22.83 13.85
2/25/2021 1:15:00 AM 1 33.8 0.071 7.06 22.01 13.85
2/25/2021 1:30:00 AM 1.01 33.818 0.071 7.06 22.64 13.85
2/25/2021 1:45:00 AM 1.02 33.836 0.071 7.05 22.35 13.85
2/25/2021 2:00:00 AM 1.04 33.872 0.071 7.06 21.93 13.85
2/25/2021 2:15:00 AM 1.03 33.854 0.067 7.03 21.63 13.86
2/25/2021 2:30:00 AM 1.04 33.872 0.071 7.06 22.2 13.87
2/25/2021 2:45:00 AM 1.03 33.854 0.067 7.03 22.92 13.87
2/25/2021 3:00:00 AM 1.03 33.854 0.07 7.06 23.96 13.88
2/25/2021 3:15:00 AM 1.02 33.836 0.07 7.06 21.92 13.89
2/25/2021 3:30:00 AM 1.02 33.836 0.07 7.02 23.74 13.88
2/25/2021 3:45:00 AM 1.03 33.854 0.068 7.04 22.55 13.89
2/25/2021 4:00:00 AM 1.03 33.854 0.069 7.06 23.42 13.89
2/25/2021 4:15:00 AM 0.99 33.782 0.066 7.03 22.34 13.91
2/25/2021 4:30:00 AM 0.95 33.71 0.069 7.06 22.48 13.92
2/25/2021 4:45:00 AM 0.93 33.674 0.069 7.06 21.65 13.92
2/25/2021 5:00:00 AM 0.9 33.62 0.069 7.06 23.62 13.94
2/25/2021 5:15:00 AM 0.87 33.566 0.069 7.05 22.53 13.96
2/25/2021 5:30:00 AM 0.83 33.494 0.069 7.06 22.43 13.97
2/25/2021 5:45:00 AM 0.8 33.44 0.069 7.06 26.7 13.99
2/25/2021 6:00:00 AM 0.77 33.386 0.069 7.05 22.13 14
2/25/2021 6:15:00 AM 0.74 33.332 0.068 7.05 21.8 14.01
2/25/2021 6:30:00 AM 0.72 33.296 0.068 7.05 24.45 14.03
2/25/2021 6:45:00 AM 0.71 33.278 0.068 7.05 22.29 14.05
2/25/2021 7:00:00 AM 0.7 33.26 0.068 7.05 23.45 14.08
2/25/2021 7:15:00 AM 0.68 33.224 0.068 7.06 22.95 14.12
2/25/2021 7:30:00 AM 0.68 33.224 0.065 7.04 26.04 14.17
2/25/2021 7:45:00 AM 0.68 33.224 0.067 7.08 22.97 14.21
2/25/2021 8:00:00 AM 0.69 33.242 0.067 7.08 22.93 14.25
2/25/2021 8:15:00 AM 0.7 33.26 0.067 7.09 22.36 14.28
2/25/2021 8:30:00 AM 0.72 33.296 0.067 7.1 23.25 14.31
2/25/2021 8:45:00 AM 0.74 33.332 0.067 7.11 22.12 14.33
2/25/2021 9:00:00 AM 0.78 33.404 0.066 7.11 22.01 14.36
2/25/2021 9:15:00 AM 0.79 33.422 0.066 7.11 22.01 14.36
2/25/2021 9:30:00 AM 0.82 33.476 0.066 7.12 22.25 14.37
2/25/2021 9:45:00 AM 0.87 33.566 0.066 7.12 21.88 14.38
2/25/2021 10:00:00 AM 0.93 33.674 0.066 7.12 22.68 14.37
2/25/2021 10:15:00 AM 0.95 33.71 0.066 7.12 22.79 14.36
2/25/2021 10:30:00 AM 1.06 33.908 0.066 7.12 21.54 14.35
2/25/2021 10:45:00 AM 1.17 34.106 0.065 7.13 21.53 14.34
2/25/2021 11:00:00 AM 1.33 34.394 0.062 7.1 22.87 14.31
2/25/2021 11:15:00 AM 1.52 34.736 0.065 7.13 21.59 14.27
2/25/2021 11:30:00 AM 1.71 35.078 0.065 7.09 21.19 14.22
2/25/2021 11:45:00 AM 1.89 35.402 0.062 7.11 21.09 14.17
2/25/2021 12:00:00 PM 2.06 35.708 0.062 7.11 21.32 14.12
2/25/2021 12:15:00 PM 2.21 35.978 0.064 7.14 20.91 14.08
2/25/2021 12:30:00 PM 2.35 36.23 0.064 7.14 21.46 14.03
2/25/2021 12:45:00 PM 2.49 36.482 0.061 7.11 18.97 13.98
2/25/2021 1:00:00 PM 2.6 36.68 0.061 7.12 19.45 13.94
2/25/2021 1:15:00 PM 2.7 36.86 0.064 7.15 20.23 13.9
2/25/2021 1:30:00 PM 2.75 36.95 0.064 7.15 21.2 13.88
2/25/2021 1:45:00 PM 2.8 37.04 0.064 7.15 21.11 13.85
2/25/2021 2:00:00 PM 2.84 37.112 0.064 7.15 20.77 13.83
2/25/2021 2:15:00 PM 2.86 37.148 0.064 7.16 20.97 13.81
2/25/2021 2:30:00 PM 2.86 37.148 0.065 7.15 20.24 13.8
2/25/2021 2:45:00 PM 2.83 37.094 0.065 7.15 20.62 13.79
2/25/2021 3:00:00 PM 2.78 37.004 0.066 7.15 20.96 13.78
2/25/2021 3:15:00 PM 2.73 36.914 0.066 7.15 20.98 13.78
2/25/2021 3:30:00 PM 2.67 36.806 0.067 7.15 21 13.78
2/25/2021 3:45:00 PM 2.6 36.68 0.066 7.13 19.73 13.77
2/25/2021 4:00:00 PM 2.53 36.554 0.068 7.15 20.91 13.77
2/25/2021 4:15:00 PM 2.46 36.428 0.069 7.14 20.89 13.77
2/25/2021 4:30:00 PM 2.37 36.266 0.069 7.14 22.27 13.77
2/25/2021 4:45:00 PM 2.27 36.086 0.07 7.13 21.59 13.76
2/25/2021 5:00:00 PM 2.17 35.906 0.07 7.12 21.18 13.76
2/25/2021 5:15:00 PM 2.1 35.78 0.071 7.11 20.75 13.74
2/25/2021 5:30:00 PM 2.03 35.654 0.072 7.11 21.86 13.73
2/25/2021 5:45:00 PM 1.98 35.564 0.071 7.07 19.59 13.7
2/25/2021 6:00:00 PM 1.95 35.51 0.072 7.08 20.11 13.67
2/25/2021 6:15:00 PM 1.9 35.42 0.073 7.07 20.55 13.66
2/25/2021 6:30:00 PM 1.85 35.33 0.073 7.07 20.66 13.65
2/25/2021 6:45:00 PM 1.81 35.258 0.07 7.04 19.59 13.65
2/25/2021 7:00:00 PM 1.77 35.186 0.073 7.05 21.43 13.66
2/25/2021 7:15:00 PM 1.73 35.114 0.074 7.05 20.8 13.67
2/25/2021 7:30:00 PM 1.69 35.042 0.074 7.05 20.32 13.67
2/25/2021 7:45:00 PM 1.63 34.934 0.07 7.02 20.14 13.7
2/25/2021 8:00:00 PM 1.59 34.862 0.074 7.04 21.5 13.72
2/25/2021 8:15:00 PM 1.54 34.772 0.074 7.04 20.9 13.74
2/25/2021 8:30:00 PM 1.49 34.682 0.074 7.04 20.36 13.76
2/25/2021 8:45:00 PM 1.43 34.574 0.074 7.04 21.14 13.78
2/25/2021 9:00:00 PM 1.39 34.502 0.074 7.04 20.62 13.8
2/25/2021 9:15:00 PM 1.34 34.412 0.074 7.04 21.03 13.82
2/25/2021 9:30:00 PM 1.29 34.322 0.074 7.04 22.18 13.84
2/25/2021 9:45:00 PM 1.23 34.214 0.074 7.04 21.06 13.87
2/25/2021 10:00:00 PM 1.19 34.142 0.074 7.03 21.81 13.89
2/25/2021 10:15:00 PM 1.14 34.052 0.074 6.99 22.43 13.91
2/25/2021 10:30:00 PM 1.1 33.98 0.074 7.03 21.24 13.93
2/25/2021 10:45:00 PM 1.06 33.908 0.074 7.03 21.72 13.95
2/25/2021 11:00:00 PM 1.02 33.836 0.073 7.03 22.09 13.96
2/25/2021 11:15:00 PM 0.98 33.764 0.073 7.03 22.11 13.98
2/25/2021 11:30:00 PM 0.95 33.71 0.073 7.03 21.93 14
2/25/2021 11:45:00 PM 0.91 33.638 0.073 7.03 21.3 14.02
2/26/2021 12:00:00 AM 0.88 33.584 0.07 7 21.29 14.02
2/26/2021 12:15:00 AM 0.86 33.548 0.073 7.02 21.35 14.04
2/26/2021 12:30:00 AM 0.82 33.476 0.073 7.01 20.62 14.06
2/26/2021 12:45:00 AM 0.79 33.422 0.072 7.02 21.63 14.07
2/26/2021 1:00:00 AM 0.76 33.368 0.072 7.02 22.28 14.08
2/26/2021 1:15:00 AM 0.73 33.314 0.072 7.02 22.66 14.09
2/26/2021 1:30:00 AM 0.7 33.26 0.072 7.02 22.17 14.1
2/26/2021 1:45:00 AM 0.67 33.206 0.072 7.02 21.92 14.12
2/26/2021 2:00:00 AM 0.64 33.152 0.072 7.02 21.73 14.14
2/26/2021 2:15:00 AM 0.61 33.098 0.072 7.02 20.81 14.14
2/26/2021 2:30:00 AM 0.57 33.026 0.072 7.02 21.23 14.16
2/26/2021 2:45:00 AM 0.54 32.972 0.072 7.01 20.79 14.16
2/26/2021 3:00:00 AM 0.51 32.918 0.072 7.01 20.21 14.18
2/26/2021 3:15:00 AM 0.48 32.864 0.068 7 21.52 14.18
2/26/2021 3:30:00 AM 0.45 32.81 0.068 6.99 18.82 14.21
2/26/2021 3:45:00 AM 0.42 32.756 0.071 7.01 20.42 14.22
2/26/2021 4:00:00 AM 0.39 32.702 0.07 7.01 20.6 14.23
2/26/2021 4:15:00 AM 0.36 32.648 0.07 7.01 20.32 14.25
2/26/2021 4:30:00 AM 0.33 32.594 0.067 6.98 20.58 14.25
2/26/2021 4:45:00 AM 0.31 32.558 0.07 6.99 20.41 14.27
2/26/2021 5:00:00 AM 0.28 32.504 0.07 7.01 20.52 14.28
2/26/2021 5:15:00 AM 0.25 32.45 0.07 7 20.35 14.3
2/26/2021 5:30:00 AM 0.23 32.414 0.07 7 19.81 14.3
2/26/2021 5:45:00 AM 0.21 32.378 0.066 6.97 20.07 14.31
2/26/2021 6:00:00 AM 0.19 32.342 0.068 6.96 20.12 14.33
2/26/2021 6:15:00 AM 0.16 32.288 0.068 6.99 19.31 14.34
2/26/2021 6:30:00 AM 0.15 32.27 0.068 6.99 19.62 14.35
2/26/2021 6:45:00 AM 0.14 32.252 0.065 6.96 19.52 14.37
2/26/2021 7:00:00 AM 0.12 32.216 0.067 6.99 19.8 14.4
2/26/2021 7:15:00 AM 0.12 32.216 0.067 7 19.46 14.44
2/26/2021 7:30:00 AM 0.14 32.252 0.064 6.98 19.88 14.5
2/26/2021 7:45:00 AM 0.15 32.27 0.067 7.02 19.77 14.55
2/26/2021 8:00:00 AM 0.17 32.306 0.064 7 18.92 14.59
2/26/2021 8:15:00 AM 0.21 32.378 0.067 7.03 19.93 14.62
2/26/2021 8:30:00 AM 0.24 32.432 0.067 7.04 19.87 14.64
2/26/2021 8:45:00 AM 0.29 32.522 0.066 7.04 19.69 14.67
2/26/2021 9:00:00 AM 0.33 32.594 0.063 7.02 19.38 14.67
2/26/2021 9:15:00 AM 0.4 32.72 0.066 7.06 19.53 14.68
2/26/2021 9:30:00 AM 0.47 32.846 0.067 7.06 19.64 14.67
2/26/2021 9:45:00 AM 0.55 32.99 0.064 7.04 20.28 14.66
2/26/2021 10:00:00 AM 0.63 33.134 0.067 7.08 18.65 14.66
2/26/2021 10:15:00 AM 0.72 33.296 0.067 7.08 29.38 14.64
2/26/2021 10:30:00 AM 0.81 33.458 0.067 7.09 19.3 14.63
2/26/2021 10:45:00 AM 0.91 33.638 0.067 7.1 19.49 14.6
2/26/2021 11:00:00 AM 1.07 33.926 0.068 7.07 18.72 14.57
2/26/2021 11:15:00 AM 1.22 34.196 0.067 7.1 18.9 14.54
2/26/2021 11:30:00 AM 1.39 34.502 0.066 7.1 18.57 14.49
2/26/2021 11:45:00 AM 1.6 34.88 0.07 7.14 18.25 14.43
2/26/2021 12:00:00 PM 1.84 35.312 0.07 7.15 18.63 14.35
2/26/2021 12:15:00 PM 2 35.6 0.07 7.16 18.36 14.29
2/26/2021 12:30:00 PM 2.07 35.726 0.071 7.16 18.42 14.25
2/26/2021 12:45:00 PM 2.11 35.798 0.072 7.17 18.74 14.23
2/26/2021 1:00:00 PM 2.18 35.924 0.072 7.18 18.98 14.21
2/26/2021 1:15:00 PM 2.23 36.014 0.072 7.18 18.87 14.18
2/26/2021 1:30:00 PM 2.28 36.104 0.072 7.18 19 14.15
2/26/2021 1:45:00 PM 2.31 36.158 0.072 7.18 18.54 14.13
2/26/2021 2:00:00 PM 2.31 36.158 0.068 7.16 18.17 14.12
2/26/2021 2:15:00 PM 2.3 36.14 0.07 7.17 18.56 14.11
2/26/2021 2:30:00 PM 2.27 36.086 0.07 7.16 19.26 14.11
2/26/2021 2:45:00 PM 2.25 36.05 0.069 7.16 19.63 14.1
2/26/2021 3:00:00 PM 2.26 36.068 0.068 7.14 20.38 14.1
2/26/2021 3:15:00 PM 2.27 36.086 0.068 7.15 20.72 14.08
2/26/2021 3:30:00 PM 2.28 36.104 0.068 7.15 20.88 14.06
2/26/2021 3:45:00 PM 2.29 36.122 0.068 7.14 21.88 14.05
2/26/2021 4:00:00 PM 2.29 36.122 0.065 7.12 21.47 14.02
2/26/2021 4:15:00 PM 2.27 36.086 0.068 7.15 21.19 14.01
2/26/2021 4:30:00 PM 2.26 36.068 0.069 7.14 21.07 13.99
2/26/2021 4:45:00 PM 2.23 36.014 0.069 7.14 20.99 13.97
2/26/2021 5:00:00 PM 2.2 35.96 0.069 7.13 19.65 13.93
2/26/2021 5:15:00 PM 2.18 35.924 0.069 7.12 20.6 13.89
2/26/2021 5:30:00 PM 2.15 35.87 0.069 7.11 19.65 13.83
2/26/2021 5:45:00 PM 2.13 35.834 0.069 7.09 19.32 13.76
2/26/2021 6:00:00 PM 2.11 35.798 0.069 7.08 19.08 13.72
2/26/2021 6:15:00 PM 2.08 35.744 0.069 7.06 19.22 13.67
2/26/2021 6:30:00 PM 2.07 35.726 0.066 7.02 18.2 13.64
2/26/2021 6:45:00 PM 2.04 35.672 0.069 7.05 19.3 13.63
2/26/2021 7:00:00 PM 2.01 35.618 0.066 7.02 19.86 13.62
2/26/2021 7:15:00 PM 1.99 35.582 0.066 7.01 19.84 13.63
2/26/2021 7:30:00 PM 1.94 35.492 0.069 7.03 19.68 13.65
2/26/2021 7:45:00 PM 1.9 35.42 0.065 7 19.61 13.66
2/26/2021 8:00:00 PM 1.83 35.294 0.068 7.03 19.97 13.69
2/26/2021 8:15:00 PM 1.74 35.132 0.067 7.02 20.1 13.71
2/26/2021 8:30:00 PM 1.67 35.006 0.067 7.02 19.56 13.74
2/26/2021 8:45:00 PM 1.63 34.934 0.067 6.97 19.71 13.76
2/26/2021 9:00:00 PM 1.61 34.898 0.067 7.02 19 13.77
2/26/2021 9:15:00 PM 1.59 34.862 0.067 7.02 19.44 13.76
2/26/2021 9:30:00 PM 1.58 34.844 0.064 6.99 18.95 13.77
2/26/2021 9:45:00 PM 1.55 34.79 0.067 7.01 19.07 13.78
2/26/2021 10:00:00 PM 1.53 34.754 0.067 7.01 19.65 13.8
2/26/2021 10:15:00 PM 1.51 34.718 0.067 7.02 18.75 13.8
2/26/2021 10:30:00 PM 1.5 34.7 0.067 7.01 19.43 13.8
2/26/2021 10:45:00 PM 1.48 34.664 0.067 7.01 19.26 13.81
2/26/2021 11:00:00 PM 1.47 34.646 0.067 7.01 19.53 13.82
2/26/2021 11:15:00 PM 1.46 34.628 0.067 7.01 20.15 13.83
2/26/2021 11:30:00 PM 1.46 34.628 0.067 6.99 20.05 13.83
2/26/2021 11:45:00 PM 1.46 34.628 0.067 7.01 20.2 13.82
2/27/2021 12:00:00 AM 1.45 34.61 0.064 6.99 19.77 13.82
2/27/2021 12:15:00 AM 1.45 34.61 0.067 7.01 20.17 13.83
2/27/2021 12:30:00 AM 1.45 34.61 0.067 7.01 19.9 13.83
2/27/2021 12:45:00 AM 1.45 34.61 0.067 7.02 20.22 13.83
2/27/2021 1:00:00 AM 1.44 34.592 0.068 7.02 19.77 13.83
2/27/2021 1:15:00 AM 1.42 34.556 0.067 7.02 19.75 13.83
2/27/2021 1:30:00 AM 1.4 34.52 0.068 7.02 20.12 13.83
2/27/2021 1:45:00 AM 1.36 34.448 0.067 7.01 19.52 13.83
2/27/2021 2:00:00 AM 1.31 34.358 0.065 6.99 19.45 13.84
2/27/2021 2:15:00 AM 1.25 34.25 0.065 7 18.59 13.86
2/27/2021 2:30:00 AM 1.19 34.142 0.068 7.02 19.77 13.86
2/27/2021 2:45:00 AM 1.13 34.034 0.067 7.02 20.02 13.87
2/27/2021 3:00:00 AM 1.08 33.944 0.067 6.97 19.75 13.88
2/27/2021 3:15:00 AM 1.03 33.854 0.067 7.02 19.78 13.9
2/27/2021 3:30:00 AM 0.99 33.782 0.064 6.99 19.52 13.91
2/27/2021 3:45:00 AM 0.96 33.728 0.067 7.02 19.42 13.94
2/27/2021 4:00:00 AM 0.96 33.728 0.067 7.01 19.27 13.94
2/27/2021 4:15:00 AM 0.96 33.728 0.067 7.01 19.26 13.95
2/27/2021 4:30:00 AM 0.97 33.746 0.067 7.01 18.78 13.96
2/27/2021 4:45:00 AM 0.97 33.746 0.067 7.02 18.82 13.97
2/27/2021 5:00:00 AM 0.95 33.71 0.067 7.02 19.13 13.97
2/27/2021 5:15:00 AM 0.96 33.728 0.067 7.01 19.03 13.97
2/27/2021 5:30:00 AM 0.95 33.71 0.067 7.01 18.88 13.98
2/27/2021 5:45:00 AM 0.94 33.692 0.067 7.01 18.5 13.98
2/27/2021 6:00:00 AM 0.93 33.674 0.065 6.99 18.36 13.97
2/27/2021 6:15:00 AM 0.92 33.656 0.067 7.01 18.97 13.98
2/27/2021 6:30:00 AM 0.94 33.692 0.067 7.01 18.98 13.98
2/27/2021 6:45:00 AM 0.92 33.656 0.067 7.01 19.22 13.98
2/27/2021 7:00:00 AM 0.94 33.692 0.066 7.01 18.21 13.98
2/27/2021 7:15:00 AM 0.96 33.728 0.066 7.01 18.91 14.01
2/27/2021 7:30:00 AM 0.98 33.764 0.066 7.02 18.39 14.02
2/27/2021 7:45:00 AM 0.99 33.782 0.066 7.03 18.34 14.04
2/27/2021 8:00:00 AM 1.02 33.836 0.066 7.03 18.93 14.06
2/27/2021 8:15:00 AM 1.04 33.872 0.064 7.01 18.73 14.05
2/27/2021 8:30:00 AM 1.07 33.926 0.067 7.04 18.82 14.08
2/27/2021 8:45:00 AM 1.09 33.962 0.067 7.05 18.7 14.1
2/27/2021 9:00:00 AM 1.11 33.998 0.067 7.06 18.56 14.12
2/27/2021 9:15:00 AM 1.15 34.07 0.066 7.07 18.64 14.17
2/27/2021 9:30:00 AM 1.19 34.142 0.067 7.08 18.45 14.2
2/27/2021 9:45:00 AM 1.23 34.214 0.067 7.09 18.3 14.22
2/27/2021 10:00:00 AM 1.28 34.304 0.068 7.1 18.77 14.23
2/27/2021 10:15:00 AM 1.32 34.376 0.069 7.11 18.66 14.23
2/27/2021 10:30:00 AM 1.38 34.484 0.067 7.09 18.06 14.22
2/27/2021 10:45:00 AM 1.44 34.592 0.067 7.1 18.55 14.22
2/27/2021 11:00:00 AM 1.5 34.7 0.07 7.12 18.52 14.2
2/27/2021 11:15:00 AM 1.58 34.844 0.071 7.13 18.54 14.19
2/27/2021 11:30:00 AM 1.65 34.97 0.071 7.14 18.25 14.17
2/27/2021 11:45:00 AM 1.7 35.06 0.071 7.14 18.68 14.14
2/27/2021 12:00:00 PM 1.79 35.222 0.068 7.12 18.77 14.12
2/27/2021 12:15:00 PM 1.84 35.312 0.072 7.14 18.63 14.1
2/27/2021 12:30:00 PM 1.88 35.384 0.072 7.14 18.21 14.07
2/27/2021 12:45:00 PM 1.91 35.438 0.073 7.14 18.24 14.04
2/27/2021 1:00:00 PM 1.95 35.51 0.074 7.14 18.88 14.02
2/27/2021 1:15:00 PM 2.04 35.672 0.071 7.12 18.22 14.02
2/27/2021 1:30:00 PM 2.17 35.906 0.072 7.13 18.6 14
2/27/2021 1:45:00 PM 2.32 36.176 0.075 7.15 18.32 13.97
2/27/2021 2:00:00 PM 2.45 36.41 0.074 7.14 18.26 13.93
2/27/2021 2:15:00 PM 2.61 36.698 0.076 7.17 18.49 13.91
2/27/2021 2:30:00 PM 2.81 37.058 0.076 7.16 18.44 13.85
2/27/2021 2:45:00 PM 2.88 37.184 0.077 7.16 18.39 13.81
2/27/2021 3:00:00 PM 2.88 37.184 0.077 7.16 18.26 13.77
2/27/2021 3:15:00 PM 2.87 37.166 0.077 7.16 18.16 13.74
2/27/2021 3:30:00 PM 2.84 37.112 0.077 7.16 18.73 13.72
2/27/2021 3:45:00 PM 2.82 37.076 0.077 7.17 18.29 13.7
2/27/2021 4:00:00 PM 2.82 37.076 0.077 7.17 18.38 13.7
2/27/2021 4:15:00 PM 2.78 37.004 0.077 7.16 18.44 13.69
2/27/2021 4:30:00 PM 2.78 37.004 0.078 7.17 18.74 13.7
2/27/2021 4:45:00 PM 2.74 36.932 0.079 7.17 19.01 13.69
2/27/2021 5:00:00 PM 2.68 36.824 0.081 7.16 18.82 13.66
2/27/2021 5:15:00 PM 2.61 36.698 0.08 7.13 19.45 13.62
2/27/2021 5:30:00 PM 2.51 36.518 0.083 7.13 20.6 13.6
2/27/2021 5:45:00 PM 2.41 36.338 0.08 7.1 20.4 13.57
2/27/2021 6:00:00 PM 2.34 36.212 0.084 7.1 19.79 13.54
2/27/2021 6:15:00 PM 2.28 36.104 0.083 7.09 19.68 13.52
2/27/2021 6:30:00 PM 2.22 35.996 0.083 7.08 20.83 13.51
2/27/2021 6:45:00 PM 2.16 35.888 0.083 7.08 20.38 13.51
2/27/2021 7:00:00 PM 2.1 35.78 0.083 7.07 20.67 13.53
2/27/2021 7:15:00 PM 2.04 35.672 0.083 7.07 20.41 13.55
2/27/2021 7:30:00 PM 2 35.6 0.08 7.04 20.99 13.56
2/27/2021 7:45:00 PM 1.96 35.528 0.083 7.06 19.62 13.57
2/27/2021 8:00:00 PM 1.92 35.456 0.08 7.04 19.49 13.59
2/27/2021 8:15:00 PM 1.88 35.384 0.083 7.06 20.55 13.61
2/27/2021 8:30:00 PM 1.83 35.294 0.083 7.06 19.93 13.63
2/27/2021 8:45:00 PM 1.78 35.204 0.083 7.06 20.32 13.65
2/27/2021 9:00:00 PM 1.74 35.132 0.082 7.05 20.18 13.67
2/27/2021 9:15:00 PM 1.68 35.024 0.082 7.05 21.26 13.7
2/27/2021 9:30:00 PM 1.62 34.916 0.081 7.05 21.11 13.73
2/27/2021 9:45:00 PM 1.56 34.808 0.077 7.03 22.81 13.75
2/27/2021 10:00:00 PM 1.53 34.754 0.081 7.05 20.71 13.78
2/27/2021 10:15:00 PM 1.5 34.7 0.081 7.05 20.21 13.79
2/27/2021 10:30:00 PM 1.49 34.682 0.08 7.04 20.51 13.81
2/27/2021 10:45:00 PM 1.48 34.664 0.08 7.04 20.4 13.82
2/27/2021 11:00:00 PM 1.46 34.628 0.08 7.04 20.89 13.82
2/27/2021 11:15:00 PM 1.43 34.574 0.079 7.04 21.72 13.84
2/27/2021 11:30:00 PM 1.42 34.556 0.079 7.04 22.82 13.85
2/27/2021 11:45:00 PM 1.41 34.538 0.075 7.02 20.75 13.86
2/28/2021 12:00:00 AM 1.38 34.484 0.078 7.04 22.29 13.87
2/28/2021 12:15:00 AM 1.36 34.448 0.078 7.04 21.99 13.88
2/28/2021 12:30:00 AM 1.34 34.412 0.078 7.03 22.89 13.88
2/28/2021 12:45:00 AM 1.32 34.376 0.077 7.03 21.72 13.89
2/28/2021 1:00:00 AM 1.3 34.34 0.077 7.03 22.6 13.9
2/28/2021 1:15:00 AM 1.27 34.286 0.077 7.03 21.41 13.91
2/28/2021 1:30:00 AM 1.26 34.268 0.076 7.03 22.32 13.92
2/28/2021 1:45:00 AM 1.25 34.25 0.076 7.03 21.61 13.91
2/28/2021 2:00:00 AM 1.23 34.214 0.072 7.02 22.21 13.92
2/28/2021 2:15:00 AM 1.23 34.214 0.075 7.03 21.17 13.93
2/28/2021 2:30:00 AM 1.22 34.196 0.075 7.02 21.49 13.93
2/28/2021 2:45:00 AM 1.22 34.196 0.072 7.01 20.37 13.92
2/28/2021 3:00:00 AM 1.21 34.178 0.075 7.02 21.67 13.93
2/28/2021 3:15:00 AM 1.21 34.178 0.075 7.02 21.3 13.93
2/28/2021 3:30:00 AM 1.2 34.16 0.074 7.02 21.34 13.93
2/28/2021 3:45:00 AM 1.19 34.142 0.074 7 22.09 13.93
2/28/2021 4:00:00 AM 1.18 34.124 0.074 7.02 20.82 13.94
2/28/2021 4:15:00 AM 1.18 34.124 0.074 7.01 21.52 13.94
2/28/2021 4:30:00 AM 1.17 34.106 0.074 7.02 21.37 13.94
2/28/2021 4:45:00 AM 1.17 34.106 0.074 7.01 21.38 13.94
2/28/2021 5:00:00 AM 1.16 34.088 0.073 7.01 21.7 13.93
2/28/2021 5:15:00 AM 1.17 34.106 0.07 6.99 21.6 13.94
2/28/2021 5:30:00 AM 1.16 34.088 0.073 7.01 21.16 13.94
2/28/2021 5:45:00 AM 1.16 34.088 0.073 7.01 20.9 13.95
2/28/2021 6:00:00 AM 1.17 34.106 0.073 7.01 21.22 13.95
2/28/2021 6:15:00 AM 1.16 34.088 0.069 6.99 19.86 13.95
2/28/2021 6:30:00 AM 1.17 34.106 0.072 7.01 21.5 13.95
2/28/2021 6:45:00 AM 1.17 34.106 0.069 6.99 19.33 13.95
2/28/2021 7:00:00 AM 1.17 34.106 0.069 6.99 20.54 13.96
2/28/2021 7:15:00 AM 1.18 34.124 0.072 7.02 22.03 13.99
2/28/2021 7:30:00 AM 1.19 34.142 0.072 7.03 21.09 14.03
2/28/2021 7:45:00 AM 1.2 34.16 0.071 7.04 20.83 14.07
2/28/2021 8:00:00 AM 1.23 34.214 0.071 7.05 21.86 14.12
2/28/2021 8:15:00 AM 1.26 34.268 0.068 7.04 20.79 14.17
2/28/2021 8:30:00 AM 1.29 34.322 0.071 7.07 21.71 14.18
2/28/2021 8:45:00 AM 1.32 34.376 0.07 7.08 22.51 14.19
2/28/2021 9:00:00 AM 1.36 34.448 0.07 7.08 22.88 14.19
2/28/2021 9:15:00 AM 1.39 34.502 0.07 7.09 21.26 14.19
2/28/2021 9:30:00 AM 1.42 34.556 0.07 7.09 21.33 14.21